source: josm/trunk/test/data/regress/1853/PosData-20081216-115434.nmea@ 10906

Last change on this file since 10906 was 10906, checked in by Don-vip, 8 years ago

add more non-regression NMEA unit tests

File size: 166.8 KB
Line 
1$GPGGA,115434.000,-3003.1914,N,-5126.2728,E,1,08,0.8,46.1,M,,,
2$GPRMC,115434.000,A,-3003.1914,N,-5126.2728,E,0.0,261.0,000070,,,A
3$GPGGA,115434.139,-3003.1914,N,-5126.2728,E,1,08,0.8,46.1,M,,,
4$GPRMC,115434.139,A,-3003.1914,N,-5126.2728,E,0.0,261.0,000070,,,A
5$GPGGA,115434.279,-3003.1914,N,-5126.2734,E,1,08,0.8,46.1,M,,,
6$GPRMC,115434.279,A,-3003.1914,N,-5126.2734,E,0.0,261.0,000070,,,A
7$GPGGA,115434.419,-3003.1920,N,-5126.2746,E,1,08,0.8,46.1,M,,,
8$GPRMC,115434.419,A,-3003.1920,N,-5126.2746,E,1.6,261.0,000070,,,A
9$GPGGA,115439.086,-3003.1920,N,-5126.2764,E,1,08,0.8,46.1,M,,,
10$GPRMC,115439.086,A,-3003.1920,N,-5126.2764,E,3.8,261.0,000070,,,A
11$GPGGA,115442.197,-3003.1920,N,-5126.2788,E,1,08,0.8,46.1,M,,,
12$GPRMC,115442.197,A,-3003.1920,N,-5126.2788,E,3.8,261.0,000070,,,A
13$GPGGA,115446.163,-3003.1926,N,-5126.2818,E,1,08,0.8,46.1,M,,,
14$GPRMC,115446.163,A,-3003.1926,N,-5126.2818,E,5.4,265.0,000070,,,A
15$GPGGA,115449.274,-3003.1926,N,-5126.2854,E,1,08,0.8,46.1,M,,,
16$GPRMC,115449.274,A,-3003.1926,N,-5126.2854,E,7.6,265.0,000070,,,A
17$GPGGA,115452.410,-3003.1932,N,-5126.2902,E,1,08,0.8,46.1,M,,,
18$GPRMC,115452.410,A,-3003.1932,N,-5126.2902,E,7.6,261.0,000070,,,A
19$GPGGA,115455.545,-3003.1938,N,-5126.2950,E,1,08,0.8,46.1,M,,,
20$GPRMC,115455.545,A,-3003.1938,N,-5126.2950,E,9.7,262.0,000070,,,A
21$GPGGA,115458.362,-3003.1944,N,-5126.3004,E,1,08,0.8,46.1,M,,,
22$GPRMC,115458.362,A,-3003.1944,N,-5126.3004,E,11.3,263.0,000070,,,A
23$GPGGA,115500.968,-3003.1950,N,-5126.3064,E,1,08,0.8,46.1,M,,,
24$GPRMC,115500.968,A,-3003.1950,N,-5126.3064,E,13.5,264.0,000070,,,A
25$GPGGA,115503.644,-3003.1956,N,-5126.3136,E,1,08,0.8,46.1,M,,,
26$GPRMC,115503.644,A,-3003.1956,N,-5126.3136,E,13.5,264.0,000070,,,A
27$GPGGA,115506.320,-3003.1962,N,-5126.3208,E,1,08,0.8,46.1,M,,,
28$GPRMC,115506.320,A,-3003.1962,N,-5126.3208,E,15.1,265.0,000070,,,A
29$GPGGA,115509.049,-3003.1968,N,-5126.3292,E,1,08,0.8,46.1,M,,,
30$GPRMC,115509.049,A,-3003.1968,N,-5126.3292,E,17.3,263.0,000070,,,A
31$GPGGA,115511.493,-3003.1980,N,-5126.3376,E,1,08,0.8,46.1,M,,,
32$GPRMC,115511.493,A,-3003.1980,N,-5126.3376,E,17.3,263.0,000070,,,A
33$GPGGA,115514.264,-3003.1986,N,-5126.3472,E,1,08,0.8,46.1,M,,,
34$GPRMC,115514.264,A,-3003.1986,N,-5126.3472,E,19.4,264.0,000070,,,A
35$GPGGA,115516.772,-3003.1998,N,-5126.3568,E,1,08,0.8,46.1,M,,,
36$GPRMC,115516.772,A,-3003.1998,N,-5126.3568,E,21.1,262.0,000070,,,A
37$GPGGA,115519.333,-3003.2010,N,-5126.3676,E,1,08,0.8,46.1,M,,,
38$GPRMC,115519.333,A,-3003.2010,N,-5126.3676,E,21.1,265.0,000070,,,A
39$GPGGA,115521.883,-3003.2016,N,-5126.3784,E,1,08,0.8,46.1,M,,,
40$GPRMC,115521.883,A,-3003.2016,N,-5126.3784,E,23.2,265.0,000070,,,A
41$GPGGA,115524.488,-3003.2028,N,-5126.3904,E,1,08,0.8,46.1,M,,,
42$GPRMC,115524.488,A,-3003.2028,N,-5126.3904,E,24.8,263.0,000070,,,A
43$GPGGA,115526.893,-3003.2040,N,-5126.4024,E,1,08,0.8,46.1,M,,,
44$GPRMC,115526.893,A,-3003.2040,N,-5126.4024,E,27.0,264.0,000070,,,A
45$GPGGA,115529.348,-3003.2052,N,-5126.4156,E,1,08,0.8,46.1,M,,,
46$GPRMC,115529.348,A,-3003.2052,N,-5126.4156,E,27.0,264.0,000070,,,A
47$GPGGA,115531.913,-3003.2064,N,-5126.4294,E,1,08,0.8,46.1,M,,,
48$GPRMC,115531.913,A,-3003.2064,N,-5126.4294,E,29.2,263.0,000070,,,A
49$GPGGA,115534.318,-3003.2082,N,-5126.4432,E,1,08,0.8,46.1,M,,,
50$GPRMC,115534.318,A,-3003.2082,N,-5126.4432,E,30.8,263.0,000070,,,A
51$GPGGA,115536.757,-3003.2094,N,-5126.4582,E,1,08,0.8,46.1,M,,,
52$GPRMC,115536.757,A,-3003.2094,N,-5126.4582,E,30.8,265.0,000070,,,A
53$GPGGA,115539.292,-3003.2106,N,-5126.4738,E,1,08,0.8,46.1,M,,,
54$GPRMC,115539.292,A,-3003.2106,N,-5126.4738,E,32.9,264.0,000070,,,A
55$GPGGA,115541.778,-3003.2124,N,-5126.4900,E,1,08,0.8,46.1,M,,,
56$GPRMC,115541.778,A,-3003.2124,N,-5126.4900,E,34.6,263.0,000070,,,A
57$GPGGA,115544.211,-3003.2142,N,-5126.5068,E,1,08,0.8,46.1,M,,,
58$GPRMC,115544.211,A,-3003.2142,N,-5126.5068,E,34.6,264.0,000070,,,A
59$GPGGA,115546.723,-3003.2154,N,-5126.5242,E,1,08,0.8,46.1,M,,,
60$GPRMC,115546.723,A,-3003.2154,N,-5126.5242,E,36.7,264.0,000070,,,A
61$GPGGA,115549.110,-3003.2172,N,-5126.5416,E,1,08,0.8,46.1,M,,,
62$GPRMC,115549.110,A,-3003.2172,N,-5126.5416,E,38.9,263.0,000070,,,A
63$GPGGA,115551.533,-3003.2190,N,-5126.5602,E,1,08,0.8,46.1,M,,,
64$GPRMC,115551.533,A,-3003.2190,N,-5126.5602,E,40.5,264.0,000070,,,A
65$GPGGA,115553.913,-3003.2208,N,-5126.5794,E,1,08,0.8,46.1,M,,,
66$GPRMC,115553.913,A,-3003.2208,N,-5126.5794,E,40.5,263.0,000070,,,A
67$GPGGA,115556.376,-3003.2232,N,-5126.5992,E,1,08,0.8,46.1,M,,,
68$GPRMC,115556.376,A,-3003.2232,N,-5126.5992,E,42.7,263.0,000070,,,A
69$GPGGA,115558.789,-3003.2250,N,-5126.6196,E,1,08,0.8,46.1,M,,,
70$GPRMC,115558.789,A,-3003.2250,N,-5126.6196,E,44.3,264.0,000070,,,A
71$GPGGA,115601.098,-3003.2268,N,-5126.6400,E,1,08,0.8,46.1,M,,,
72$GPRMC,115601.098,A,-3003.2268,N,-5126.6400,E,44.3,263.0,000070,,,A
73$GPGGA,115603.480,-3003.2292,N,-5126.6610,E,1,08,0.8,46.1,M,,,
74$GPRMC,115603.480,A,-3003.2292,N,-5126.6610,E,44.3,263.0,000070,,,A
75$GPGGA,115605.789,-3003.2310,N,-5126.6814,E,1,08,0.8,46.1,M,,,
76$GPRMC,115605.789,A,-3003.2310,N,-5126.6814,E,44.3,264.0,000070,,,A
77$GPGGA,115608.097,-3003.2328,N,-5126.7018,E,1,08,0.8,46.1,M,,,
78$GPRMC,115608.097,A,-3003.2328,N,-5126.7018,E,44.3,264.0,000070,,,A
79$GPGGA,115610.406,-3003.2346,N,-5126.7222,E,1,08,0.8,46.1,M,,,
80$GPRMC,115610.406,A,-3003.2346,N,-5126.7222,E,44.3,263.0,000070,,,A
81$GPGGA,115612.721,-3003.2370,N,-5126.7426,E,1,08,0.8,46.1,M,,,
82$GPRMC,115612.721,A,-3003.2370,N,-5126.7426,E,44.3,263.0,000070,,,A
83$GPGGA,115615.029,-3003.2388,N,-5126.7630,E,1,08,0.8,46.1,M,,,
84$GPRMC,115615.029,A,-3003.2388,N,-5126.7630,E,44.3,264.0,000070,,,A
85$GPGGA,115617.338,-3003.2406,N,-5126.7834,E,1,08,0.8,46.1,M,,,
86$GPRMC,115617.338,A,-3003.2406,N,-5126.7834,E,44.3,263.0,000070,,,A
87$GPGGA,115619.653,-3003.2430,N,-5126.8038,E,1,08,0.8,46.1,M,,,
88$GPRMC,115619.653,A,-3003.2430,N,-5126.8038,E,44.3,263.0,000070,,,A
89$GPGGA,115621.962,-3003.2448,N,-5126.8242,E,1,08,0.8,46.1,M,,,
90$GPRMC,115621.962,A,-3003.2448,N,-5126.8242,E,44.3,264.0,000070,,,A
91$GPGGA,115624.270,-3003.2466,N,-5126.8446,E,1,08,0.8,46.1,M,,,
92$GPRMC,115624.270,A,-3003.2466,N,-5126.8446,E,44.3,263.0,000070,,,A
93$GPGGA,115626.585,-3003.2490,N,-5126.8650,E,1,08,0.8,46.1,M,,,
94$GPRMC,115626.585,A,-3003.2490,N,-5126.8650,E,44.3,263.0,000070,,,A
95$GPGGA,115628.894,-3003.2508,N,-5126.8854,E,1,08,0.8,46.1,M,,,
96$GPRMC,115628.894,A,-3003.2508,N,-5126.8854,E,44.3,264.0,000070,,,A
97$GPGGA,115631.202,-3003.2526,N,-5126.9058,E,1,08,0.8,46.1,M,,,
98$GPRMC,115631.202,A,-3003.2526,N,-5126.9058,E,44.3,263.0,000070,,,A
99$GPGGA,115633.518,-3003.2550,N,-5126.9262,E,1,08,0.8,46.1,M,,,
100$GPRMC,115633.518,A,-3003.2550,N,-5126.9262,E,44.3,263.0,000070,,,A
101$GPGGA,115635.826,-3003.2568,N,-5126.9466,E,1,08,0.8,46.1,M,,,
102$GPRMC,115635.826,A,-3003.2568,N,-5126.9466,E,44.3,264.0,000070,,,A
103$GPGGA,115638.135,-3003.2586,N,-5126.9670,E,1,08,0.8,46.1,M,,,
104$GPRMC,115638.135,A,-3003.2586,N,-5126.9670,E,44.3,265.0,000070,,,A
105$GPGGA,115640.438,-3003.2598,N,-5126.9874,E,1,08,0.8,46.1,M,,,
106$GPRMC,115640.438,A,-3003.2598,N,-5126.9874,E,44.3,265.0,000070,,,A
107$GPGGA,115642.747,-3003.2616,N,-5127.0078,E,1,08,0.8,46.1,M,,,
108$GPRMC,115642.747,A,-3003.2616,N,-5127.0078,E,44.3,265.0,000070,,,A
109$GPGGA,115645.118,-3003.2628,N,-5127.0288,E,1,08,0.8,46.1,M,,,
110$GPRMC,115645.118,A,-3003.2628,N,-5127.0288,E,44.3,265.0,000070,,,A
111$GPGGA,115647.426,-3003.2646,N,-5127.0492,E,1,08,0.8,46.1,M,,,
112$GPRMC,115647.426,A,-3003.2646,N,-5127.0492,E,44.3,265.0,000070,,,A
113$GPGGA,115649.730,-3003.2658,N,-5127.0696,E,1,08,0.8,46.1,M,,,
114$GPRMC,115649.730,A,-3003.2658,N,-5127.0696,E,44.3,265.0,000070,,,A
115$GPGGA,115652.038,-3003.2676,N,-5127.0900,E,1,08,0.8,46.1,M,,,
116$GPRMC,115652.038,A,-3003.2676,N,-5127.0900,E,44.3,265.0,000070,,,A
117$GPGGA,115654.342,-3003.2688,N,-5127.1104,E,1,08,0.8,46.1,M,,,
118$GPRMC,115654.342,A,-3003.2688,N,-5127.1104,E,44.3,265.0,000070,,,A
119$GPGGA,115656.650,-3003.2706,N,-5127.1308,E,1,08,0.8,46.1,M,,,
120$GPRMC,115656.650,A,-3003.2706,N,-5127.1308,E,44.3,265.0,000070,,,A
121$GPGGA,115658.953,-3003.2718,N,-5127.1512,E,1,08,0.8,46.1,M,,,
122$GPRMC,115658.953,A,-3003.2718,N,-5127.1512,E,44.3,265.0,000070,,,A
123$GPGGA,115701.262,-3003.2736,N,-5127.1716,E,1,08,0.8,46.1,M,,,
124$GPRMC,115701.262,A,-3003.2736,N,-5127.1716,E,44.3,265.0,000070,,,A
125$GPGGA,115703.633,-3003.2748,N,-5127.1926,E,1,08,0.8,46.1,M,,,
126$GPRMC,115703.633,A,-3003.2748,N,-5127.1926,E,44.3,265.0,000070,,,A
127$GPGGA,115705.941,-3003.2766,N,-5127.2130,E,1,08,0.8,46.1,M,,,
128$GPRMC,115705.941,A,-3003.2766,N,-5127.2130,E,44.3,265.0,000070,,,A
129$GPGGA,115708.245,-3003.2778,N,-5127.2334,E,1,08,0.8,46.1,M,,,
130$GPRMC,115708.245,A,-3003.2778,N,-5127.2334,E,44.3,266.0,000070,,,A
131$GPGGA,115710.548,-3003.2790,N,-5127.2538,E,1,08,0.8,46.1,M,,,
132$GPRMC,115710.548,A,-3003.2790,N,-5127.2538,E,44.3,265.0,000070,,,A
133$GPGGA,115712.857,-3003.2808,N,-5127.2742,E,1,08,0.8,46.1,M,,,
134$GPRMC,115712.857,A,-3003.2808,N,-5127.2742,E,44.3,265.0,000070,,,A
135$GPGGA,115715.160,-3003.2820,N,-5127.2946,E,1,08,0.8,46.1,M,,,
136$GPRMC,115715.160,A,-3003.2820,N,-5127.2946,E,44.3,265.0,000070,,,A
137$GPGGA,115717.469,-3003.2838,N,-5127.3150,E,1,08,0.8,46.1,M,,,
138$GPRMC,115717.469,A,-3003.2838,N,-5127.3150,E,44.3,265.0,000070,,,A
139$GPGGA,115719.840,-3003.2850,N,-5127.3360,E,1,08,0.8,46.1,M,,,
140$GPRMC,115719.840,A,-3003.2850,N,-5127.3360,E,44.3,265.0,000070,,,A
141$GPGGA,115722.148,-3003.2868,N,-5127.3564,E,1,08,0.8,46.1,M,,,
142$GPRMC,115722.148,A,-3003.2868,N,-5127.3564,E,44.3,265.0,000070,,,A
143$GPGGA,115724.452,-3003.2880,N,-5127.3768,E,1,08,0.8,46.1,M,,,
144$GPRMC,115724.452,A,-3003.2880,N,-5127.3768,E,44.3,265.0,000070,,,A
145$GPGGA,115726.760,-3003.2898,N,-5127.3972,E,1,08,0.8,46.1,M,,,
146$GPRMC,115726.760,A,-3003.2898,N,-5127.3972,E,44.3,265.0,000070,,,A
147$GPGGA,115729.064,-3003.2910,N,-5127.4176,E,1,08,0.8,46.1,M,,,
148$GPRMC,115729.064,A,-3003.2910,N,-5127.4176,E,44.3,265.0,000070,,,A
149$GPGGA,115731.372,-3003.2928,N,-5127.4380,E,1,08,0.8,46.1,M,,,
150$GPRMC,115731.372,A,-3003.2928,N,-5127.4380,E,44.3,265.0,000070,,,A
151$GPGGA,115733.676,-3003.2940,N,-5127.4584,E,1,08,0.8,46.1,M,,,
152$GPRMC,115733.676,A,-3003.2940,N,-5127.4584,E,44.3,266.0,000070,,,A
153$GPGGA,115736.047,-3003.2952,N,-5127.4794,E,1,08,0.8,46.1,M,,,
154$GPRMC,115736.047,A,-3003.2952,N,-5127.4794,E,44.3,265.0,000070,,,A
155$GPGGA,115738.355,-3003.2970,N,-5127.4998,E,1,08,0.8,46.1,M,,,
156$GPRMC,115738.355,A,-3003.2970,N,-5127.4998,E,44.3,265.0,000070,,,A
157$GPGGA,115740.659,-3003.2982,N,-5127.5202,E,1,08,0.8,46.1,M,,,
158$GPRMC,115740.659,A,-3003.2982,N,-5127.5202,E,44.3,266.0,000070,,,A
159$GPGGA,115742.962,-3003.2994,N,-5127.5406,E,1,08,0.8,46.1,M,,,
160$GPRMC,115742.962,A,-3003.2994,N,-5127.5406,E,44.3,266.0,000070,,,A
161$GPGGA,115745.266,-3003.3006,N,-5127.5610,E,1,08,0.8,46.1,M,,,
162$GPRMC,115745.266,A,-3003.3006,N,-5127.5610,E,44.3,266.0,000070,,,A
163$GPGGA,115747.637,-3003.3018,N,-5127.5820,E,1,08,0.8,46.1,M,,,
164$GPRMC,115747.637,A,-3003.3018,N,-5127.5820,E,44.3,266.0,000070,,,A
165$GPGGA,115749.940,-3003.3030,N,-5127.6024,E,1,08,0.8,46.1,M,,,
166$GPRMC,115749.940,A,-3003.3030,N,-5127.6024,E,44.3,266.0,000070,,,A
167$GPGGA,115752.244,-3003.3042,N,-5127.6228,E,1,08,0.8,46.1,M,,,
168$GPRMC,115752.244,A,-3003.3042,N,-5127.6228,E,44.3,266.0,000070,,,A
169$GPGGA,115754.547,-3003.3054,N,-5127.6432,E,1,08,0.8,46.1,M,,,
170$GPRMC,115754.547,A,-3003.3054,N,-5127.6432,E,44.3,266.0,000070,,,A
171$GPGGA,115756.850,-3003.3066,N,-5127.6636,E,1,08,0.8,46.1,M,,,
172$GPRMC,115756.850,A,-3003.3066,N,-5127.6636,E,44.3,265.0,000070,,,A
173$GPGGA,115759.226,-3003.3084,N,-5127.6846,E,1,08,0.8,46.1,M,,,
174$GPRMC,115759.226,A,-3003.3084,N,-5127.6846,E,44.3,265.0,000070,,,A
175$GPGGA,115801.530,-3003.3096,N,-5127.7050,E,1,08,0.8,46.1,M,,,
176$GPRMC,115801.530,A,-3003.3096,N,-5127.7050,E,44.3,266.0,000070,,,A
177$GPGGA,115803.833,-3003.3108,N,-5127.7254,E,1,08,0.8,46.1,M,,,
178$GPRMC,115803.833,A,-3003.3108,N,-5127.7254,E,44.3,266.0,000070,,,A
179$GPGGA,115806.137,-3003.3120,N,-5127.7458,E,1,08,0.8,46.1,M,,,
180$GPRMC,115806.137,A,-3003.3120,N,-5127.7458,E,44.3,266.0,000070,,,A
181$GPGGA,115808.440,-3003.3132,N,-5127.7662,E,1,08,0.8,46.1,M,,,
182$GPRMC,115808.440,A,-3003.3132,N,-5127.7662,E,44.3,266.0,000070,,,A
183$GPGGA,115810.811,-3003.3144,N,-5127.7872,E,1,08,0.8,46.1,M,,,
184$GPRMC,115810.811,A,-3003.3144,N,-5127.7872,E,44.3,266.0,000070,,,A
185$GPGGA,115813.115,-3003.3156,N,-5127.8076,E,1,08,0.8,46.1,M,,,
186$GPRMC,115813.115,A,-3003.3156,N,-5127.8076,E,44.3,266.0,000070,,,A
187$GPGGA,115815.418,-3003.3168,N,-5127.8280,E,1,08,0.8,46.1,M,,,
188$GPRMC,115815.418,A,-3003.3168,N,-5127.8280,E,44.3,266.0,000070,,,A
189$GPGGA,115817.722,-3003.3180,N,-5127.8484,E,1,08,0.8,46.1,M,,,
190$GPRMC,115817.722,A,-3003.3180,N,-5127.8484,E,44.3,265.0,000070,,,A
191$GPGGA,115820.098,-3003.3198,N,-5127.8694,E,1,08,0.8,46.1,M,,,
192$GPRMC,115820.098,A,-3003.3198,N,-5127.8694,E,44.3,265.0,000070,,,A
193$GPGGA,115822.401,-3003.3210,N,-5127.8898,E,1,08,0.8,46.1,M,,,
194$GPRMC,115822.401,A,-3003.3210,N,-5127.8898,E,44.3,266.0,000070,,,A
195$GPGGA,115824.705,-3003.3222,N,-5127.9102,E,1,08,0.8,46.1,M,,,
196$GPRMC,115824.705,A,-3003.3222,N,-5127.9102,E,44.3,266.0,000070,,,A
197$GPGGA,115827.008,-3003.3234,N,-5127.9306,E,1,08,0.8,46.1,M,,,
198$GPRMC,115827.008,A,-3003.3234,N,-5127.9306,E,44.3,266.0,000070,,,A
199$GPGGA,115829.312,-3003.3246,N,-5127.9510,E,1,08,0.8,46.1,M,,,
200$GPRMC,115829.312,A,-3003.3246,N,-5127.9510,E,44.3,266.0,000070,,,A
201$GPGGA,115831.683,-3003.3258,N,-5127.9720,E,1,08,0.8,46.1,M,,,
202$GPRMC,115831.683,A,-3003.3258,N,-5127.9720,E,44.3,265.0,000070,,,A
203$GPGGA,115833.991,-3003.3276,N,-5127.9924,E,1,08,0.8,46.1,M,,,
204$GPRMC,115833.991,A,-3003.3276,N,-5127.9924,E,44.3,265.0,000070,,,A
205$GPGGA,115836.295,-3003.3288,N,-5128.0128,E,1,08,0.8,46.1,M,,,
206$GPRMC,115836.295,A,-3003.3288,N,-5128.0128,E,44.3,266.0,000070,,,A
207$GPGGA,115838.598,-3003.3300,N,-5128.0332,E,1,08,0.8,46.1,M,,,
208$GPRMC,115838.598,A,-3003.3300,N,-5128.0332,E,44.3,265.0,000070,,,A
209$GPGGA,115840.906,-3003.3318,N,-5128.0536,E,1,08,0.8,46.1,M,,,
210$GPRMC,115840.906,A,-3003.3318,N,-5128.0536,E,44.3,265.0,000070,,,A
211$GPGGA,115843.210,-3003.3330,N,-5128.0740,E,1,08,0.8,46.1,M,,,
212$GPRMC,115843.210,A,-3003.3330,N,-5128.0740,E,44.3,266.0,000070,,,A
213$GPGGA,115845.581,-3003.3342,N,-5128.0950,E,1,08,0.8,46.1,M,,,
214$GPRMC,115845.581,A,-3003.3342,N,-5128.0950,E,44.3,266.0,000070,,,A
215$GPGGA,115847.884,-3003.3354,N,-5128.1154,E,1,08,0.8,46.1,M,,,
216$GPRMC,115847.884,A,-3003.3354,N,-5128.1154,E,44.3,265.0,000070,,,A
217$GPGGA,115850.193,-3003.3372,N,-5128.1358,E,1,08,0.8,46.1,M,,,
218$GPRMC,115850.193,A,-3003.3372,N,-5128.1358,E,44.3,265.0,000070,,,A
219$GPGGA,115852.496,-3003.3384,N,-5128.1562,E,1,08,0.8,46.1,M,,,
220$GPRMC,115852.496,A,-3003.3384,N,-5128.1562,E,44.3,266.0,000070,,,A
221$GPGGA,115854.800,-3003.3396,N,-5128.1766,E,1,08,0.8,46.1,M,,,
222$GPRMC,115854.800,A,-3003.3396,N,-5128.1766,E,44.3,265.0,000070,,,A
223$GPGGA,115857.176,-3003.3414,N,-5128.1976,E,1,08,0.8,46.1,M,,,
224$GPRMC,115857.176,A,-3003.3414,N,-5128.1976,E,44.3,265.0,000070,,,A
225$GPGGA,115859.479,-3003.3426,N,-5128.2180,E,1,08,0.8,46.1,M,,,
226$GPRMC,115859.479,A,-3003.3426,N,-5128.2180,E,44.3,266.0,000070,,,A
227$GPGGA,115901.783,-3003.3438,N,-5128.2384,E,1,08,0.8,46.1,M,,,
228$GPRMC,115901.783,A,-3003.3438,N,-5128.2384,E,44.3,265.0,000070,,,A
229$GPGGA,115904.091,-3003.3456,N,-5128.2588,E,1,08,0.8,46.1,M,,,
230$GPRMC,115904.091,A,-3003.3456,N,-5128.2588,E,44.3,265.0,000070,,,A
231$GPGGA,115906.395,-3003.3468,N,-5128.2792,E,1,08,0.8,46.1,M,,,
232$GPRMC,115906.395,A,-3003.3468,N,-5128.2792,E,44.3,266.0,000070,,,A
233$GPGGA,115908.766,-3003.3480,N,-5128.3002,E,1,08,0.8,46.1,M,,,
234$GPRMC,115908.766,A,-3003.3480,N,-5128.3002,E,44.3,266.0,000070,,,A
235$GPGGA,115911.069,-3003.3492,N,-5128.3206,E,1,08,0.8,46.1,M,,,
236$GPRMC,115911.069,A,-3003.3492,N,-5128.3206,E,44.3,265.0,000070,,,A
237$GPGGA,115913.378,-3003.3510,N,-5128.3410,E,1,08,0.8,46.1,M,,,
238$GPRMC,115913.378,A,-3003.3510,N,-5128.3410,E,44.3,265.0,000070,,,A
239$GPGGA,115915.681,-3003.3522,N,-5128.3614,E,1,08,0.8,46.1,M,,,
240$GPRMC,115915.681,A,-3003.3522,N,-5128.3614,E,44.3,266.0,000070,,,A
241$GPGGA,115917.985,-3003.3534,N,-5128.3818,E,1,08,0.8,46.1,M,,,
242$GPRMC,115917.985,A,-3003.3534,N,-5128.3818,E,44.3,265.0,000070,,,A
243$GPGGA,115920.360,-3003.3552,N,-5128.4028,E,1,08,0.8,46.1,M,,,
244$GPRMC,115920.360,A,-3003.3552,N,-5128.4028,E,44.3,265.0,000070,,,A
245$GPGGA,115922.664,-3003.3564,N,-5128.4232,E,1,08,0.8,46.1,M,,,
246$GPRMC,115922.664,A,-3003.3564,N,-5128.4232,E,44.3,266.0,000070,,,A
247$GPGGA,115924.967,-3003.3576,N,-5128.4436,E,1,08,0.8,46.1,M,,,
248$GPRMC,115924.967,A,-3003.3576,N,-5128.4436,E,44.3,266.0,000070,,,A
249$GPGGA,115927.271,-3003.3588,N,-5128.4640,E,1,08,0.8,46.1,M,,,
250$GPRMC,115927.271,A,-3003.3588,N,-5128.4640,E,44.3,265.0,000070,,,A
251$GPGGA,115929.579,-3003.3606,N,-5128.4844,E,1,08,0.8,46.1,M,,,
252$GPRMC,115929.579,A,-3003.3606,N,-5128.4844,E,44.3,265.0,000070,,,A
253$GPGGA,115931.883,-3003.3618,N,-5128.5048,E,1,08,0.8,46.1,M,,,
254$GPRMC,115931.883,A,-3003.3618,N,-5128.5048,E,44.3,266.0,000070,,,A
255$GPGGA,115934.254,-3003.3630,N,-5128.5258,E,1,08,0.8,46.1,M,,,
256$GPRMC,115934.254,A,-3003.3630,N,-5128.5258,E,44.3,265.0,000070,,,A
257$GPGGA,115936.562,-3003.3648,N,-5128.5462,E,1,08,0.8,46.1,M,,,
258$GPRMC,115936.562,A,-3003.3648,N,-5128.5462,E,44.3,265.0,000070,,,A
259$GPGGA,115938.866,-3003.3660,N,-5128.5666,E,1,08,0.8,46.1,M,,,
260$GPRMC,115938.866,A,-3003.3660,N,-5128.5666,E,44.3,266.0,000070,,,A
261$GPGGA,115941.169,-3003.3672,N,-5128.5870,E,1,08,0.8,46.1,M,,,
262$GPRMC,115941.169,A,-3003.3672,N,-5128.5870,E,44.3,265.0,000070,,,A
263$GPGGA,115943.478,-3003.3690,N,-5128.6074,E,1,08,0.8,46.1,M,,,
264$GPRMC,115943.478,A,-3003.3690,N,-5128.6074,E,44.3,265.0,000070,,,A
265$GPGGA,115945.849,-3003.3702,N,-5128.6284,E,1,08,0.8,46.1,M,,,
266$GPRMC,115945.849,A,-3003.3702,N,-5128.6284,E,44.3,266.0,000070,,,A
267$GPGGA,115948.152,-3003.3714,N,-5128.6488,E,1,08,0.8,46.1,M,,,
268$GPRMC,115948.152,A,-3003.3714,N,-5128.6488,E,44.3,266.0,000070,,,A
269$GPGGA,115950.456,-3003.3726,N,-5128.6692,E,1,08,0.8,46.1,M,,,
270$GPRMC,115950.456,A,-3003.3726,N,-5128.6692,E,44.3,265.0,000070,,,A
271$GPGGA,115952.764,-3003.3744,N,-5128.6896,E,1,08,0.8,46.1,M,,,
272$GPRMC,115952.764,A,-3003.3744,N,-5128.6896,E,44.3,265.0,000070,,,A
273$GPGGA,115955.068,-3003.3756,N,-5128.7100,E,1,08,0.8,46.1,M,,,
274$GPRMC,115955.068,A,-3003.3756,N,-5128.7100,E,44.3,266.0,000070,,,A
275$GPGGA,115957.439,-3003.3768,N,-5128.7310,E,1,08,0.8,46.1,M,,,
276$GPRMC,115957.439,A,-3003.3768,N,-5128.7310,E,44.3,265.0,000070,,,A
277$GPGGA,115959.747,-3003.3786,N,-5128.7514,E,1,08,0.8,46.1,M,,,
278$GPRMC,115959.747,A,-3003.3786,N,-5128.7514,E,44.3,265.0,000070,,,A
279$GPGGA,120002.051,-3003.3798,N,-5128.7718,E,1,08,0.8,46.1,M,,,
280$GPRMC,120002.051,A,-3003.3798,N,-5128.7718,E,44.3,266.0,000070,,,A
281$GPGGA,120004.354,-3003.3810,N,-5128.7922,E,1,08,0.8,46.1,M,,,
282$GPRMC,120004.354,A,-3003.3810,N,-5128.7922,E,44.3,265.0,000070,,,A
283$GPGGA,120006.663,-3003.3828,N,-5128.8126,E,1,08,0.8,46.1,M,,,
284$GPRMC,120006.663,A,-3003.3828,N,-5128.8126,E,44.3,265.0,000070,,,A
285$GPGGA,120009.034,-3003.3840,N,-5128.8336,E,1,08,0.8,46.1,M,,,
286$GPRMC,120009.034,A,-3003.3840,N,-5128.8336,E,44.3,266.0,000070,,,A
287$GPGGA,120011.337,-3003.3852,N,-5128.8540,E,1,08,0.8,46.1,M,,,
288$GPRMC,120011.337,A,-3003.3852,N,-5128.8540,E,44.3,265.0,000070,,,A
289$GPGGA,120013.646,-3003.3870,N,-5128.8744,E,1,08,0.8,46.1,M,,,
290$GPRMC,120013.646,A,-3003.3870,N,-5128.8744,E,44.3,265.0,000070,,,A
291$GPGGA,120015.949,-3003.3882,N,-5128.8948,E,1,08,0.8,46.1,M,,,
292$GPRMC,120015.949,A,-3003.3882,N,-5128.8948,E,44.3,266.0,000070,,,A
293$GPGGA,120018.320,-3003.3894,N,-5128.9158,E,1,08,0.8,46.1,M,,,
294$GPRMC,120018.320,A,-3003.3894,N,-5128.9158,E,44.3,265.0,000070,,,A
295$GPGGA,120020.628,-3003.3912,N,-5128.9362,E,1,08,0.8,46.1,M,,,
296$GPRMC,120020.628,A,-3003.3912,N,-5128.9362,E,44.3,265.0,000070,,,A
297$GPGGA,120022.932,-3003.3924,N,-5128.9566,E,1,08,0.8,46.1,M,,,
298$GPRMC,120022.932,A,-3003.3924,N,-5128.9566,E,44.3,266.0,000070,,,A
299$GPGGA,120025.235,-3003.3936,N,-5128.9770,E,1,08,0.8,46.1,M,,,
300$GPRMC,120025.235,A,-3003.3936,N,-5128.9770,E,44.3,265.0,000070,,,A
301$GPGGA,120027.544,-3003.3954,N,-5128.9974,E,1,08,0.8,46.1,M,,,
302$GPRMC,120027.544,A,-3003.3954,N,-5128.9974,E,44.3,265.0,000070,,,A
303$GPGGA,120029.915,-3003.3966,N,-5129.0184,E,1,08,0.8,46.1,M,,,
304$GPRMC,120029.915,A,-3003.3966,N,-5129.0184,E,44.3,266.0,000070,,,A
305$GPGGA,120032.218,-3003.3978,N,-5129.0388,E,1,08,0.8,46.1,M,,,
306$GPRMC,120032.218,A,-3003.3978,N,-5129.0388,E,44.3,265.0,000070,,,A
307$GPGGA,120034.527,-3003.3996,N,-5129.0592,E,1,08,0.8,46.1,M,,,
308$GPRMC,120034.527,A,-3003.3996,N,-5129.0592,E,44.3,265.0,000070,,,A
309$GPGGA,120036.830,-3003.4008,N,-5129.0796,E,1,08,0.8,46.1,M,,,
310$GPRMC,120036.830,A,-3003.4008,N,-5129.0796,E,44.3,265.0,000070,,,A
311$GPGGA,120039.206,-3003.4026,N,-5129.1006,E,1,08,0.8,46.1,M,,,
312$GPRMC,120039.206,A,-3003.4026,N,-5129.1006,E,44.3,265.0,000070,,,A
313$GPGGA,120041.510,-3003.4038,N,-5129.1210,E,1,08,0.8,46.1,M,,,
314$GPRMC,120041.510,A,-3003.4038,N,-5129.1210,E,44.3,266.0,000070,,,A
315$GPGGA,120043.813,-3003.4050,N,-5129.1414,E,1,08,0.8,46.1,M,,,
316$GPRMC,120043.813,A,-3003.4050,N,-5129.1414,E,44.3,265.0,000070,,,A
317$GPGGA,120046.122,-3003.4068,N,-5129.1618,E,1,08,0.8,46.1,M,,,
318$GPRMC,120046.122,A,-3003.4068,N,-5129.1618,E,44.3,265.0,000070,,,A
319$GPGGA,120048.425,-3003.4080,N,-5129.1822,E,1,08,0.8,46.1,M,,,
320$GPRMC,120048.425,A,-3003.4080,N,-5129.1822,E,44.3,266.0,000070,,,A
321$GPGGA,120050.796,-3003.4092,N,-5129.2032,E,1,08,0.8,46.1,M,,,
322$GPRMC,120050.796,A,-3003.4092,N,-5129.2032,E,44.3,265.0,000070,,,A
323$GPGGA,120053.105,-3003.4110,N,-5129.2236,E,1,08,0.8,46.1,M,,,
324$GPRMC,120053.105,A,-3003.4110,N,-5129.2236,E,44.3,265.0,000070,,,A
325$GPGGA,120055.408,-3003.4122,N,-5129.2440,E,1,08,0.8,46.1,M,,,
326$GPRMC,120055.408,A,-3003.4122,N,-5129.2440,E,44.3,266.0,000070,,,A
327$GPGGA,120057.712,-3003.4134,N,-5129.2644,E,1,08,0.8,46.1,M,,,
328$GPRMC,120057.712,A,-3003.4134,N,-5129.2644,E,44.3,265.0,000070,,,A
329$GPGGA,120100.020,-3003.4152,N,-5129.2848,E,1,08,0.8,46.1,M,,,
330$GPRMC,120100.020,A,-3003.4152,N,-5129.2848,E,44.3,265.0,000070,,,A
331$GPGGA,120102.391,-3003.4164,N,-5129.3058,E,1,08,0.8,46.1,M,,,
332$GPRMC,120102.391,A,-3003.4164,N,-5129.3058,E,44.3,266.0,000070,,,A
333$GPGGA,120104.695,-3003.4176,N,-5129.3262,E,1,08,0.8,46.1,M,,,
334$GPRMC,120104.695,A,-3003.4176,N,-5129.3262,E,44.3,265.0,000070,,,A
335$GPGGA,120107.003,-3003.4194,N,-5129.3466,E,1,08,0.8,46.1,M,,,
336$GPRMC,120107.003,A,-3003.4194,N,-5129.3466,E,44.3,265.0,000070,,,A
337$GPGGA,120109.306,-3003.4206,N,-5129.3670,E,1,08,0.8,46.1,M,,,
338$GPRMC,120109.306,A,-3003.4206,N,-5129.3670,E,44.3,265.0,000070,,,A
339$GPGGA,120111.615,-3003.4224,N,-5129.3874,E,1,08,0.8,46.1,M,,,
340$GPRMC,120111.615,A,-3003.4224,N,-5129.3874,E,44.3,265.0,000070,,,A
341$GPGGA,120113.986,-3003.4236,N,-5129.4084,E,1,08,0.8,46.1,M,,,
342$GPRMC,120113.986,A,-3003.4236,N,-5129.4084,E,44.3,265.0,000070,,,A
343$GPGGA,120116.294,-3003.4254,N,-5129.4288,E,1,08,0.8,46.1,M,,,
344$GPRMC,120116.294,A,-3003.4254,N,-5129.4288,E,44.3,264.0,000070,,,A
345$GPGGA,120118.603,-3003.4272,N,-5129.4492,E,1,08,0.8,46.1,M,,,
346$GPRMC,120118.603,A,-3003.4272,N,-5129.4492,E,44.3,265.0,000070,,,A
347$GPGGA,120120.906,-3003.4284,N,-5129.4696,E,1,08,0.8,46.1,M,,,
348$GPRMC,120120.906,A,-3003.4284,N,-5129.4696,E,44.3,265.0,000070,,,A
349$GPGGA,120123.215,-3003.4302,N,-5129.4900,E,1,08,0.8,46.1,M,,,
350$GPRMC,120123.215,A,-3003.4302,N,-5129.4900,E,44.3,265.0,000070,,,A
351$GPGGA,120125.586,-3003.4314,N,-5129.5110,E,1,08,0.8,46.1,M,,,
352$GPRMC,120125.586,A,-3003.4314,N,-5129.5110,E,44.3,265.0,000070,,,A
353$GPGGA,120127.894,-3003.4332,N,-5129.5314,E,1,08,0.8,46.1,M,,,
354$GPRMC,120127.894,A,-3003.4332,N,-5129.5314,E,44.3,265.0,000070,,,A
355$GPGGA,120130.198,-3003.4344,N,-5129.5518,E,1,08,0.8,46.1,M,,,
356$GPRMC,120130.198,A,-3003.4344,N,-5129.5518,E,44.3,265.0,000070,,,A
357$GPGGA,120132.506,-3003.4362,N,-5129.5722,E,1,08,0.8,46.1,M,,,
358$GPRMC,120132.506,A,-3003.4362,N,-5129.5722,E,44.3,265.0,000070,,,A
359$GPGGA,120134.810,-3003.4374,N,-5129.5926,E,1,08,0.8,46.1,M,,,
360$GPRMC,120134.810,A,-3003.4374,N,-5129.5926,E,44.3,265.0,000070,,,A
361$GPGGA,120137.118,-3003.4392,N,-5129.6130,E,1,08,0.8,46.1,M,,,
362$GPRMC,120137.118,A,-3003.4392,N,-5129.6130,E,44.3,264.0,000070,,,A
363$GPGGA,120139.494,-3003.4410,N,-5129.6340,E,1,08,0.8,46.1,M,,,
364$GPRMC,120139.494,A,-3003.4410,N,-5129.6340,E,44.3,265.0,000070,,,A
365$GPGGA,120141.797,-3003.4422,N,-5129.6544,E,1,08,0.8,46.1,M,,,
366$GPRMC,120141.797,A,-3003.4422,N,-5129.6544,E,44.3,265.0,000070,,,A
367$GPGGA,120144.106,-3003.4440,N,-5129.6748,E,1,08,0.8,46.1,M,,,
368$GPRMC,120144.106,A,-3003.4440,N,-5129.6748,E,44.3,265.0,000070,,,A
369$GPGGA,120146.409,-3003.4452,N,-5129.6952,E,1,08,0.8,46.1,M,,,
370$GPRMC,120146.409,A,-3003.4452,N,-5129.6952,E,44.3,265.0,000070,,,A
371$GPGGA,120148.718,-3003.4470,N,-5129.7156,E,1,08,0.8,46.1,M,,,
372$GPRMC,120148.718,A,-3003.4470,N,-5129.7156,E,44.3,265.0,000070,,,A
373$GPGGA,120151.089,-3003.4482,N,-5129.7366,E,1,08,0.8,46.1,M,,,
374$GPRMC,120151.089,A,-3003.4482,N,-5129.7366,E,44.3,265.0,000070,,,A
375$GPGGA,120153.397,-3003.4500,N,-5129.7570,E,1,08,0.8,46.1,M,,,
376$GPRMC,120153.397,A,-3003.4500,N,-5129.7570,E,44.3,265.0,000070,,,A
377$GPGGA,120155.701,-3003.4512,N,-5129.7774,E,1,08,0.8,46.1,M,,,
378$GPRMC,120155.701,A,-3003.4512,N,-5129.7774,E,44.3,265.0,000070,,,A
379$GPGGA,120158.009,-3003.4530,N,-5129.7978,E,1,08,0.8,46.1,M,,,
380$GPRMC,120158.009,A,-3003.4530,N,-5129.7978,E,44.3,265.0,000070,,,A
381$GPGGA,120200.313,-3003.4542,N,-5129.8182,E,1,08,0.8,46.1,M,,,
382$GPRMC,120200.313,A,-3003.4542,N,-5129.8182,E,44.3,266.0,000070,,,A
383$GPGGA,120202.616,-3003.4554,N,-5129.8386,E,1,08,0.8,46.1,M,,,
384$GPRMC,120202.616,A,-3003.4554,N,-5129.8386,E,44.3,266.0,000070,,,A
385$GPGGA,120204.987,-3003.4566,N,-5129.8596,E,1,08,0.8,46.1,M,,,
386$GPRMC,120204.987,A,-3003.4566,N,-5129.8596,E,44.3,265.0,000070,,,A
387$GPGGA,120207.296,-3003.4584,N,-5129.8800,E,1,08,0.8,46.1,M,,,
388$GPRMC,120207.296,A,-3003.4584,N,-5129.8800,E,44.3,265.0,000070,,,A
389$GPGGA,120209.599,-3003.4596,N,-5129.9004,E,1,08,0.8,46.1,M,,,
390$GPRMC,120209.599,A,-3003.4596,N,-5129.9004,E,44.3,266.0,000070,,,A
391$GPGGA,120211.903,-3003.4608,N,-5129.9208,E,1,08,0.8,46.1,M,,,
392$GPRMC,120211.903,A,-3003.4608,N,-5129.9208,E,44.3,266.0,000070,,,A
393$GPGGA,120214.206,-3003.4620,N,-5129.9412,E,1,08,0.8,46.1,M,,,
394$GPRMC,120214.206,A,-3003.4620,N,-5129.9412,E,44.3,265.0,000070,,,A
395$GPGGA,120216.515,-3003.4638,N,-5129.9616,E,1,08,0.8,46.1,M,,,
396$GPRMC,120216.515,A,-3003.4638,N,-5129.9616,E,44.3,265.0,000070,,,A
397$GPGGA,120218.886,-3003.4650,N,-5129.9826,E,1,08,0.8,46.1,M,,,
398$GPRMC,120218.886,A,-3003.4650,N,-5129.9826,E,44.3,266.0,000070,,,A
399$GPGGA,120221.189,-3003.4662,N,-5130.0030,E,1,08,0.8,46.1,M,,,
400$GPRMC,120221.189,A,-3003.4662,N,-5130.0030,E,44.3,266.0,000070,,,A
401$GPGGA,120223.493,-3003.4674,N,-5130.0234,E,1,08,0.8,46.1,M,,,
402$GPRMC,120223.493,A,-3003.4674,N,-5130.0234,E,44.3,265.0,000070,,,A
403$GPGGA,120225.801,-3003.4692,N,-5130.0438,E,1,08,0.8,46.1,M,,,
404$GPRMC,120225.801,A,-3003.4692,N,-5130.0438,E,44.3,265.0,000070,,,A
405$GPGGA,120228.105,-3003.4704,N,-5130.0642,E,1,08,0.8,46.1,M,,,
406$GPRMC,120228.105,A,-3003.4704,N,-5130.0642,E,44.3,266.0,000070,,,A
407$GPGGA,120230.408,-3003.4716,N,-5130.0846,E,1,08,0.8,46.1,M,,,
408$GPRMC,120230.408,A,-3003.4716,N,-5130.0846,E,44.3,265.0,000070,,,A
409$GPGGA,120232.784,-3003.4734,N,-5130.1056,E,1,08,0.8,46.1,M,,,
410$GPRMC,120232.784,A,-3003.4734,N,-5130.1056,E,44.3,266.0,000070,,,A
411$GPGGA,120235.084,-3003.4740,N,-5130.1260,E,1,08,0.8,46.1,M,,,
412$GPRMC,120235.084,A,-3003.4740,N,-5130.1260,E,44.3,267.0,000070,,,A
413$GPGGA,120237.388,-3003.4752,N,-5130.1464,E,1,08,0.8,46.1,M,,,
414$GPRMC,120237.388,A,-3003.4752,N,-5130.1464,E,44.3,266.0,000070,,,A
415$GPGGA,120239.691,-3003.4764,N,-5130.1668,E,1,08,0.8,46.1,M,,,
416$GPRMC,120239.691,A,-3003.4764,N,-5130.1668,E,44.3,266.0,000070,,,A
417$GPGGA,120241.995,-3003.4776,N,-5130.1872,E,1,08,0.8,46.1,M,,,
418$GPRMC,120241.995,A,-3003.4776,N,-5130.1872,E,44.3,266.0,000070,,,A
419$GPGGA,120244.298,-3003.4788,N,-5130.2076,E,1,08,0.8,46.1,M,,,
420$GPRMC,120244.298,A,-3003.4788,N,-5130.2076,E,44.3,266.0,000070,,,A
421$GPGGA,120246.602,-3003.4800,N,-5130.2280,E,1,08,0.8,46.1,M,,,
422$GPRMC,120246.602,A,-3003.4800,N,-5130.2280,E,44.3,266.0,000070,,,A
423$GPGGA,120248.973,-3003.4812,N,-5130.2490,E,1,08,0.8,46.1,M,,,
424$GPRMC,120248.973,A,-3003.4812,N,-5130.2490,E,44.3,266.0,000070,,,A
425$GPGGA,120251.276,-3003.4824,N,-5130.2694,E,1,08,0.8,46.1,M,,,
426$GPRMC,120251.276,A,-3003.4824,N,-5130.2694,E,44.3,266.0,000070,,,A
427$GPGGA,120253.580,-3003.4836,N,-5130.2898,E,1,08,0.8,46.1,M,,,
428$GPRMC,120253.580,A,-3003.4836,N,-5130.2898,E,44.3,266.0,000070,,,A
429$GPGGA,120255.883,-3003.4848,N,-5130.3102,E,1,08,0.8,46.1,M,,,
430$GPRMC,120255.883,A,-3003.4848,N,-5130.3102,E,44.3,266.0,000070,,,A
431$GPGGA,120258.187,-3003.4860,N,-5130.3306,E,1,08,0.8,46.1,M,,,
432$GPRMC,120258.187,A,-3003.4860,N,-5130.3306,E,44.3,266.0,000070,,,A
433$GPGGA,120300.490,-3003.4872,N,-5130.3510,E,1,08,0.8,46.1,M,,,
434$GPRMC,120300.490,A,-3003.4872,N,-5130.3510,E,44.3,266.0,000070,,,A
435$GPGGA,120302.861,-3003.4884,N,-5130.3720,E,1,08,0.8,46.1,M,,,
436$GPRMC,120302.861,A,-3003.4884,N,-5130.3720,E,44.3,267.0,000070,,,A
437$GPGGA,120305.162,-3003.4890,N,-5130.3924,E,1,08,0.8,46.1,M,,,
438$GPRMC,120305.162,A,-3003.4890,N,-5130.3924,E,44.3,267.0,000070,,,A
439$GPGGA,120307.465,-3003.4902,N,-5130.4128,E,1,08,0.8,46.1,M,,,
440$GPRMC,120307.465,A,-3003.4902,N,-5130.4128,E,44.3,267.0,000070,,,A
441$GPGGA,120309.766,-3003.4908,N,-5130.4332,E,1,08,0.8,46.1,M,,,
442$GPRMC,120309.766,A,-3003.4908,N,-5130.4332,E,44.3,267.0,000070,,,A
443$GPGGA,120312.137,-3003.4920,N,-5130.4542,E,1,08,0.8,46.1,M,,,
444$GPRMC,120312.137,A,-3003.4920,N,-5130.4542,E,44.3,267.0,000070,,,A
445$GPGGA,120314.437,-3003.4926,N,-5130.4746,E,1,08,0.8,46.1,M,,,
446$GPRMC,120314.437,A,-3003.4926,N,-5130.4746,E,44.3,267.0,000070,,,A
447$GPGGA,120316.741,-3003.4938,N,-5130.4950,E,1,08,0.8,46.1,M,,,
448$GPRMC,120316.741,A,-3003.4938,N,-5130.4950,E,44.3,266.0,000070,,,A
449$GPGGA,120319.044,-3003.4950,N,-5130.5154,E,1,08,0.8,46.1,M,,,
450$GPRMC,120319.044,A,-3003.4950,N,-5130.5154,E,44.3,266.0,000070,,,A
451$GPGGA,120321.348,-3003.4962,N,-5130.5358,E,1,08,0.8,46.1,M,,,
452$GPRMC,120321.348,A,-3003.4962,N,-5130.5358,E,44.3,265.0,000070,,,A
453$GPGGA,120323.656,-3003.4980,N,-5130.5562,E,1,08,0.8,46.1,M,,,
454$GPRMC,120323.656,A,-3003.4980,N,-5130.5562,E,44.3,264.0,000070,,,A
455$GPGGA,120325.965,-3003.4998,N,-5130.5766,E,1,08,0.8,46.1,M,,,
456$GPRMC,120325.965,A,-3003.4998,N,-5130.5766,E,44.3,265.0,000070,,,A
457$GPGGA,120328.268,-3003.5010,N,-5130.5970,E,1,08,0.8,46.1,M,,,
458$GPRMC,120328.268,A,-3003.5010,N,-5130.5970,E,44.3,265.0,000070,,,A
459$GPGGA,120330.644,-3003.5028,N,-5130.6180,E,1,08,0.8,46.1,M,,,
460$GPRMC,120330.644,A,-3003.5028,N,-5130.6180,E,44.3,265.0,000070,,,A
461$GPGGA,120332.948,-3003.5040,N,-5130.6384,E,1,08,0.8,46.1,M,,,
462$GPRMC,120332.948,A,-3003.5040,N,-5130.6384,E,44.3,265.0,000070,,,A
463$GPGGA,120335.256,-3003.5058,N,-5130.6588,E,1,08,0.8,46.1,M,,,
464$GPRMC,120335.256,A,-3003.5058,N,-5130.6588,E,44.3,264.0,000070,,,A
465$GPGGA,120337.564,-3003.5076,N,-5130.6792,E,1,08,0.8,46.1,M,,,
466$GPRMC,120337.564,A,-3003.5076,N,-5130.6792,E,44.3,265.0,000070,,,A
467$GPGGA,120339.868,-3003.5088,N,-5130.6996,E,1,08,0.8,46.1,M,,,
468$GPRMC,120339.868,A,-3003.5088,N,-5130.6996,E,44.3,263.0,000070,,,A
469$GPGGA,120342.192,-3003.5118,N,-5130.7200,E,1,08,0.8,46.1,M,,,
470$GPRMC,120342.192,A,-3003.5118,N,-5130.7200,E,44.3,259.0,000070,,,A
471$GPGGA,120344.461,-3003.5154,N,-5130.7398,E,1,08,0.8,46.1,M,,,
472$GPRMC,120344.461,A,-3003.5154,N,-5130.7398,E,44.3,257.0,000070,,,A
473$GPGGA,120346.808,-3003.5196,N,-5130.7602,E,1,08,0.8,46.1,M,,,
474$GPRMC,120346.808,A,-3003.5196,N,-5130.7602,E,44.3,256.0,000070,,,A
475$GPGGA,120349.090,-3003.5238,N,-5130.7800,E,1,08,0.8,46.1,M,,,
476$GPRMC,120349.090,A,-3003.5238,N,-5130.7800,E,44.3,257.0,000070,,,A
477$GPGGA,120351.358,-3003.5274,N,-5130.7998,E,1,08,0.8,46.1,M,,,
478$GPRMC,120351.358,A,-3003.5274,N,-5130.7998,E,44.3,257.0,000070,,,A
479$GPGGA,120353.706,-3003.5316,N,-5130.8202,E,1,08,0.8,46.1,M,,,
480$GPRMC,120353.706,A,-3003.5316,N,-5130.8202,E,44.3,256.0,000070,,,A
481$GPGGA,120355.988,-3003.5358,N,-5130.8400,E,1,08,0.8,46.1,M,,,
482$GPRMC,120355.988,A,-3003.5358,N,-5130.8400,E,44.3,256.0,000070,,,A
483$GPGGA,120358.335,-3003.5400,N,-5130.8604,E,1,08,0.8,46.1,M,,,
484$GPRMC,120358.335,A,-3003.5400,N,-5130.8604,E,44.3,257.0,000070,,,A
485$GPGGA,120400.604,-3003.5436,N,-5130.8802,E,1,08,0.8,46.1,M,,,
486$GPRMC,120400.604,A,-3003.5436,N,-5130.8802,E,44.3,257.0,000070,,,A
487$GPGGA,120402.885,-3003.5478,N,-5130.9000,E,1,08,0.8,46.1,M,,,
488$GPRMC,120402.885,A,-3003.5478,N,-5130.9000,E,44.3,256.0,000070,,,A
489$GPGGA,120405.233,-3003.5520,N,-5130.9204,E,1,08,0.8,46.1,M,,,
490$GPRMC,120405.233,A,-3003.5520,N,-5130.9204,E,44.3,257.0,000070,,,A
491$GPGGA,120407.502,-3003.5556,N,-5130.9402,E,1,08,0.8,46.1,M,,,
492$GPRMC,120407.502,A,-3003.5556,N,-5130.9402,E,44.3,257.0,000070,,,A
493$GPGGA,120409.849,-3003.5598,N,-5130.9606,E,1,08,0.8,46.1,M,,,
494$GPRMC,120409.849,A,-3003.5598,N,-5130.9606,E,44.3,258.0,000070,,,A
495$GPGGA,120412.107,-3003.5628,N,-5130.9804,E,1,08,0.8,46.1,M,,,
496$GPRMC,120412.107,A,-3003.5628,N,-5130.9804,E,44.3,260.0,000070,,,A
497$GPGGA,120414.431,-3003.5658,N,-5131.0008,E,1,08,0.8,46.1,M,,,
498$GPRMC,120414.431,A,-3003.5658,N,-5131.0008,E,44.3,260.0,000070,,,A
499$GPGGA,120416.755,-3003.5688,N,-5131.0212,E,1,08,0.8,46.1,M,,,
500$GPRMC,120416.755,A,-3003.5688,N,-5131.0212,E,44.3,260.0,000070,,,A
501$GPGGA,120419.080,-3003.5718,N,-5131.0416,E,1,08,0.8,46.1,M,,,
502$GPRMC,120419.080,A,-3003.5718,N,-5131.0416,E,44.3,259.0,000070,,,A
503$GPGGA,120421.348,-3003.5754,N,-5131.0614,E,1,08,0.8,46.1,M,,,
504$GPRMC,120421.348,A,-3003.5754,N,-5131.0614,E,44.3,259.0,000070,,,A
505$GPGGA,120423.672,-3003.5784,N,-5131.0818,E,1,08,0.8,46.1,M,,,
506$GPRMC,120423.672,A,-3003.5784,N,-5131.0818,E,44.3,260.0,000070,,,A
507$GPGGA,120425.997,-3003.5814,N,-5131.1022,E,1,08,0.8,46.1,M,,,
508$GPRMC,120425.997,A,-3003.5814,N,-5131.1022,E,44.3,260.0,000070,,,A
509$GPGGA,120428.321,-3003.5844,N,-5131.1226,E,1,08,0.8,46.1,M,,,
510$GPRMC,120428.321,A,-3003.5844,N,-5131.1226,E,44.3,259.0,000070,,,A
511$GPGGA,120430.656,-3003.5880,N,-5131.1430,E,1,08,0.8,46.1,M,,,
512$GPRMC,120430.656,A,-3003.5880,N,-5131.1430,E,44.3,259.0,000070,,,A
513$GPGGA,120432.913,-3003.5910,N,-5131.1628,E,1,08,0.8,46.1,M,,,
514$GPRMC,120432.913,A,-3003.5910,N,-5131.1628,E,44.3,260.0,000070,,,A
515$GPGGA,120435.237,-3003.5940,N,-5131.1832,E,1,08,0.8,46.1,M,,,
516$GPRMC,120435.237,A,-3003.5940,N,-5131.1832,E,44.3,260.0,000070,,,A
517$GPGGA,120437.562,-3003.5970,N,-5131.2036,E,1,08,0.8,46.1,M,,,
518$GPRMC,120437.562,A,-3003.5970,N,-5131.2036,E,44.3,260.0,000070,,,A
519$GPGGA,120439.886,-3003.6000,N,-5131.2240,E,1,08,0.8,46.1,M,,,
520$GPRMC,120439.886,A,-3003.6000,N,-5131.2240,E,44.3,259.0,000070,,,A
521$GPGGA,120442.154,-3003.6036,N,-5131.2438,E,1,08,0.8,46.1,M,,,
522$GPRMC,120442.154,A,-3003.6036,N,-5131.2438,E,44.3,259.0,000070,,,A
523$GPGGA,120444.479,-3003.6066,N,-5131.2642,E,1,08,0.8,46.1,M,,,
524$GPRMC,120444.479,A,-3003.6066,N,-5131.2642,E,44.3,260.0,000070,,,A
525$GPGGA,120446.803,-3003.6096,N,-5131.2846,E,1,08,0.8,46.1,M,,,
526$GPRMC,120446.803,A,-3003.6096,N,-5131.2846,E,44.3,260.0,000070,,,A
527$GPGGA,120449.127,-3003.6126,N,-5131.3050,E,1,08,0.8,46.1,M,,,
528$GPRMC,120449.127,A,-3003.6126,N,-5131.3050,E,44.3,260.0,000070,,,A
529$GPGGA,120451.385,-3003.6156,N,-5131.3248,E,1,08,0.8,46.1,M,,,
530$GPRMC,120451.385,A,-3003.6156,N,-5131.3248,E,44.3,259.0,000070,,,A
531$GPGGA,120453.720,-3003.6192,N,-5131.3452,E,1,08,0.8,46.1,M,,,
532$GPRMC,120453.720,A,-3003.6192,N,-5131.3452,E,44.3,259.0,000070,,,A
533$GPGGA,120456.044,-3003.6222,N,-5131.3656,E,1,08,0.8,46.1,M,,,
534$GPRMC,120456.044,A,-3003.6222,N,-5131.3656,E,44.3,260.0,000070,,,A
535$GPGGA,120458.368,-3003.6252,N,-5131.3860,E,1,08,0.8,46.1,M,,,
536$GPRMC,120458.368,A,-3003.6252,N,-5131.3860,E,44.3,260.0,000070,,,A
537$GPGGA,120500.692,-3003.6282,N,-5131.4064,E,1,08,0.8,46.1,M,,,
538$GPRMC,120500.692,A,-3003.6282,N,-5131.4064,E,44.3,259.0,000070,,,A
539$GPGGA,120502.961,-3003.6318,N,-5131.4262,E,1,08,0.8,46.1,M,,,
540$GPRMC,120502.961,A,-3003.6318,N,-5131.4262,E,44.3,259.0,000070,,,A
541$GPGGA,120505.285,-3003.6348,N,-5131.4466,E,1,08,0.8,46.1,M,,,
542$GPRMC,120505.285,A,-3003.6348,N,-5131.4466,E,44.3,260.0,000070,,,A
543$GPGGA,120507.609,-3003.6378,N,-5131.4670,E,1,08,0.8,46.1,M,,,
544$GPRMC,120507.609,A,-3003.6378,N,-5131.4670,E,44.3,260.0,000070,,,A
545$GPGGA,120509.934,-3003.6408,N,-5131.4874,E,1,08,0.8,46.1,M,,,
546$GPRMC,120509.934,A,-3003.6408,N,-5131.4874,E,44.3,260.0,000070,,,A
547$GPGGA,120512.191,-3003.6438,N,-5131.5072,E,1,08,0.8,46.1,M,,,
548$GPRMC,120512.191,A,-3003.6438,N,-5131.5072,E,44.3,259.0,000070,,,A
549$GPGGA,120514.526,-3003.6474,N,-5131.5276,E,1,08,0.8,46.1,M,,,
550$GPRMC,120514.526,A,-3003.6474,N,-5131.5276,E,44.3,259.0,000070,,,A
551$GPGGA,120516.850,-3003.6504,N,-5131.5480,E,1,08,0.8,46.1,M,,,
552$GPRMC,120516.850,A,-3003.6504,N,-5131.5480,E,44.3,260.0,000070,,,A
553$GPGGA,120519.174,-3003.6534,N,-5131.5684,E,1,08,0.8,46.1,M,,,
554$GPRMC,120519.174,A,-3003.6534,N,-5131.5684,E,44.3,260.0,000070,,,A
555$GPGGA,120521.432,-3003.6564,N,-5131.5882,E,1,08,0.8,46.1,M,,,
556$GPRMC,120521.432,A,-3003.6564,N,-5131.5882,E,44.3,259.0,000070,,,A
557$GPGGA,120523.767,-3003.6600,N,-5131.6086,E,1,08,0.8,46.1,M,,,
558$GPRMC,120523.767,A,-3003.6600,N,-5131.6086,E,44.3,259.0,000070,,,A
559$GPGGA,120526.091,-3003.6630,N,-5131.6290,E,1,08,0.8,46.1,M,,,
560$GPRMC,120526.091,A,-3003.6630,N,-5131.6290,E,44.3,260.0,000070,,,A
561$GPGGA,120528.415,-3003.6660,N,-5131.6494,E,1,08,0.8,46.1,M,,,
562$GPRMC,120528.415,A,-3003.6660,N,-5131.6494,E,44.3,260.0,000070,,,A
563$GPGGA,120530.673,-3003.6690,N,-5131.6692,E,1,08,0.8,46.1,M,,,
564$GPRMC,120530.673,A,-3003.6690,N,-5131.6692,E,44.3,260.0,000070,,,A
565$GPGGA,120532.997,-3003.6720,N,-5131.6896,E,1,08,0.8,46.1,M,,,
566$GPRMC,120532.997,A,-3003.6720,N,-5131.6896,E,44.3,259.0,000070,,,A
567$GPGGA,120535.332,-3003.6756,N,-5131.7100,E,1,08,0.8,46.1,M,,,
568$GPRMC,120535.332,A,-3003.6756,N,-5131.7100,E,44.3,259.0,000070,,,A
569$GPGGA,120537.656,-3003.6786,N,-5131.7304,E,1,08,0.8,46.1,M,,,
570$GPRMC,120537.656,A,-3003.6786,N,-5131.7304,E,44.3,260.0,000070,,,A
571$GPGGA,120539.980,-3003.6816,N,-5131.7508,E,1,08,0.8,46.1,M,,,
572$GPRMC,120539.980,A,-3003.6816,N,-5131.7508,E,44.3,260.0,000070,,,A
573$GPGGA,120542.238,-3003.6846,N,-5131.7706,E,1,08,0.8,46.1,M,,,
574$GPRMC,120542.238,A,-3003.6846,N,-5131.7706,E,44.3,259.0,000070,,,A
575$GPGGA,120544.573,-3003.6882,N,-5131.7910,E,1,08,0.8,46.1,M,,,
576$GPRMC,120544.573,A,-3003.6882,N,-5131.7910,E,44.3,259.0,000070,,,A
577$GPGGA,120546.897,-3003.6912,N,-5131.8114,E,1,08,0.8,46.1,M,,,
578$GPRMC,120546.897,A,-3003.6912,N,-5131.8114,E,44.3,259.0,000070,,,A
579$GPGGA,120549.166,-3003.6948,N,-5131.8312,E,1,08,0.8,46.1,M,,,
580$GPRMC,120549.166,A,-3003.6948,N,-5131.8312,E,44.3,258.0,000070,,,A
581$GPGGA,120551.501,-3003.6984,N,-5131.8516,E,1,08,0.8,46.1,M,,,
582$GPRMC,120551.501,A,-3003.6984,N,-5131.8516,E,44.3,259.0,000070,,,A
583$GPGGA,120553.825,-3003.7014,N,-5131.8720,E,1,08,0.8,46.1,M,,,
584$GPRMC,120553.825,A,-3003.7014,N,-5131.8720,E,44.3,259.0,000070,,,A
585$GPGGA,120556.093,-3003.7050,N,-5131.8918,E,1,08,0.8,46.1,M,,,
586$GPRMC,120556.093,A,-3003.7050,N,-5131.8918,E,44.3,258.0,000070,,,A
587$GPGGA,120558.428,-3003.7086,N,-5131.9122,E,1,08,0.8,46.1,M,,,
588$GPRMC,120558.428,A,-3003.7086,N,-5131.9122,E,44.3,259.0,000070,,,A
589$GPGGA,120600.753,-3003.7116,N,-5131.9326,E,1,08,0.8,46.1,M,,,
590$GPRMC,120600.753,A,-3003.7116,N,-5131.9326,E,44.3,259.0,000070,,,A
591$GPGGA,120603.021,-3003.7152,N,-5131.9524,E,1,08,0.8,46.1,M,,,
592$GPRMC,120603.021,A,-3003.7152,N,-5131.9524,E,44.3,258.0,000070,,,A
593$GPGGA,120605.356,-3003.7188,N,-5131.9728,E,1,08,0.8,46.1,M,,,
594$GPRMC,120605.356,A,-3003.7188,N,-5131.9728,E,44.3,259.0,000070,,,A
595$GPGGA,120607.680,-3003.7218,N,-5131.9932,E,1,08,0.8,46.1,M,,,
596$GPRMC,120607.680,A,-3003.7218,N,-5131.9932,E,44.3,259.0,000070,,,A
597$GPGGA,120609.949,-3003.7254,N,-5132.0130,E,1,08,0.8,46.1,M,,,
598$GPRMC,120609.949,A,-3003.7254,N,-5132.0130,E,44.3,258.0,000070,,,A
599$GPGGA,120612.284,-3003.7290,N,-5132.0334,E,1,08,0.8,46.1,M,,,
600$GPRMC,120612.284,A,-3003.7290,N,-5132.0334,E,44.3,259.0,000070,,,A
601$GPGGA,120614.619,-3003.7326,N,-5132.0538,E,1,08,0.8,46.1,M,,,
602$GPRMC,120614.619,A,-3003.7326,N,-5132.0538,E,44.3,259.0,000070,,,A
603$GPGGA,120616.876,-3003.7356,N,-5132.0736,E,1,08,0.8,46.1,M,,,
604$GPRMC,120616.876,A,-3003.7356,N,-5132.0736,E,44.3,259.0,000070,,,A
605$GPGGA,120619.211,-3003.7392,N,-5132.0940,E,1,08,0.8,46.1,M,,,
606$GPRMC,120619.211,A,-3003.7392,N,-5132.0940,E,44.3,259.0,000070,,,A
607$GPGGA,120621.546,-3003.7428,N,-5132.1144,E,1,08,0.8,46.1,M,,,
608$GPRMC,120621.546,A,-3003.7428,N,-5132.1144,E,44.3,259.0,000070,,,A
609$GPGGA,120623.804,-3003.7458,N,-5132.1342,E,1,08,0.8,46.1,M,,,
610$GPRMC,120623.804,A,-3003.7458,N,-5132.1342,E,44.3,259.0,000070,,,A
611$GPGGA,120626.139,-3003.7494,N,-5132.1546,E,1,08,0.8,46.1,M,,,
612$GPRMC,120626.139,A,-3003.7494,N,-5132.1546,E,44.3,259.0,000070,,,A
613$GPGGA,120628.474,-3003.7530,N,-5132.1750,E,1,08,0.8,46.1,M,,,
614$GPRMC,120628.474,A,-3003.7530,N,-5132.1750,E,44.3,259.0,000070,,,A
615$GPGGA,120630.731,-3003.7560,N,-5132.1948,E,1,08,0.8,46.1,M,,,
616$GPRMC,120630.731,A,-3003.7560,N,-5132.1948,E,44.3,259.0,000070,,,A
617$GPGGA,120633.066,-3003.7596,N,-5132.2152,E,1,08,0.8,46.1,M,,,
618$GPRMC,120633.066,A,-3003.7596,N,-5132.2152,E,44.3,259.0,000070,,,A
619$GPGGA,120635.401,-3003.7632,N,-5132.2356,E,1,08,0.8,46.1,M,,,
620$GPRMC,120635.401,A,-3003.7632,N,-5132.2356,E,44.3,259.0,000070,,,A
621$GPGGA,120637.659,-3003.7662,N,-5132.2554,E,1,08,0.8,46.1,M,,,
622$GPRMC,120637.659,A,-3003.7662,N,-5132.2554,E,44.3,259.0,000070,,,A
623$GPGGA,120639.994,-3003.7698,N,-5132.2758,E,1,08,0.8,46.1,M,,,
624$GPRMC,120639.994,A,-3003.7698,N,-5132.2758,E,44.3,259.0,000070,,,A
625$GPGGA,120642.329,-3003.7734,N,-5132.2962,E,1,08,0.8,46.1,M,,,
626$GPRMC,120642.329,A,-3003.7734,N,-5132.2962,E,44.3,259.0,000070,,,A
627$GPGGA,120644.586,-3003.7764,N,-5132.3160,E,1,08,0.8,46.1,M,,,
628$GPRMC,120644.586,A,-3003.7764,N,-5132.3160,E,44.3,259.0,000070,,,A
629$GPGGA,120646.921,-3003.7800,N,-5132.3364,E,1,08,0.8,46.1,M,,,
630$GPRMC,120646.921,A,-3003.7800,N,-5132.3364,E,44.3,259.0,000070,,,A
631$GPGGA,120649.256,-3003.7836,N,-5132.3568,E,1,08,0.8,46.1,M,,,
632$GPRMC,120649.256,A,-3003.7836,N,-5132.3568,E,44.3,259.0,000070,,,A
633$GPGGA,120651.514,-3003.7866,N,-5132.3766,E,1,08,0.8,46.1,M,,,
634$GPRMC,120651.514,A,-3003.7866,N,-5132.3766,E,44.3,259.0,000070,,,A
635$GPGGA,120653.849,-3003.7902,N,-5132.3970,E,1,08,0.8,46.1,M,,,
636$GPRMC,120653.849,A,-3003.7902,N,-5132.3970,E,44.3,259.0,000070,,,A
637$GPGGA,120656.184,-3003.7938,N,-5132.4174,E,1,08,0.8,46.1,M,,,
638$GPRMC,120656.184,A,-3003.7938,N,-5132.4174,E,44.3,259.0,000070,,,A
639$GPGGA,120658.441,-3003.7968,N,-5132.4372,E,1,08,0.8,46.1,M,,,
640$GPRMC,120658.441,A,-3003.7968,N,-5132.4372,E,44.3,259.0,000070,,,A
641$GPGGA,120700.776,-3003.8004,N,-5132.4576,E,1,08,0.8,46.1,M,,,
642$GPRMC,120700.776,A,-3003.8004,N,-5132.4576,E,44.3,259.0,000070,,,A
643$GPGGA,120703.100,-3003.8034,N,-5132.4780,E,1,08,0.8,46.1,M,,,
644$GPRMC,120703.100,A,-3003.8034,N,-5132.4780,E,44.3,260.0,000070,,,A
645$GPGGA,120705.425,-3003.8064,N,-5132.4984,E,1,08,0.8,46.1,M,,,
646$GPRMC,120705.425,A,-3003.8064,N,-5132.4984,E,44.3,259.0,000070,,,A
647$GPGGA,120707.693,-3003.8100,N,-5132.5182,E,1,08,0.8,46.1,M,,,
648$GPRMC,120707.693,A,-3003.8100,N,-5132.5182,E,44.3,259.0,000070,,,A
649$GPGGA,120710.017,-3003.8130,N,-5132.5386,E,1,08,0.8,46.1,M,,,
650$GPRMC,120710.017,A,-3003.8130,N,-5132.5386,E,44.3,260.0,000070,,,A
651$GPGGA,120712.342,-3003.8160,N,-5132.5590,E,1,08,0.8,46.1,M,,,
652$GPRMC,120712.342,A,-3003.8160,N,-5132.5590,E,44.3,260.0,000070,,,A
653$GPGGA,120714.666,-3003.8190,N,-5132.5794,E,1,08,0.8,46.1,M,,,
654$GPRMC,120714.666,A,-3003.8190,N,-5132.5794,E,44.3,260.0,000070,,,A
655$GPGGA,120716.923,-3003.8220,N,-5132.5992,E,1,08,0.8,46.1,M,,,
656$GPRMC,120716.923,A,-3003.8220,N,-5132.5992,E,44.3,260.0,000070,,,A
657$GPGGA,120719.247,-3003.8250,N,-5132.6196,E,1,08,0.8,46.1,M,,,
658$GPRMC,120719.247,A,-3003.8250,N,-5132.6196,E,44.3,260.0,000070,,,A
659$GPGGA,120721.572,-3003.8280,N,-5132.6400,E,1,08,0.8,46.1,M,,,
660$GPRMC,120721.572,A,-3003.8280,N,-5132.6400,E,44.3,260.0,000070,,,A
661$GPGGA,120723.896,-3003.8310,N,-5132.6604,E,1,08,0.8,46.1,M,,,
662$GPRMC,120723.896,A,-3003.8310,N,-5132.6604,E,44.3,260.0,000070,,,A
663$GPGGA,120726.220,-3003.8340,N,-5132.6808,E,1,08,0.8,46.1,M,,,
664$GPRMC,120726.220,A,-3003.8340,N,-5132.6808,E,44.3,260.0,000070,,,A
665$GPGGA,120728.478,-3003.8370,N,-5132.7006,E,1,08,0.8,46.1,M,,,
666$GPRMC,120728.478,A,-3003.8370,N,-5132.7006,E,44.3,260.0,000070,,,A
667$GPGGA,120730.802,-3003.8400,N,-5132.7210,E,1,08,0.8,46.1,M,,,
668$GPRMC,120730.802,A,-3003.8400,N,-5132.7210,E,44.3,260.0,000070,,,A
669$GPGGA,120733.126,-3003.8430,N,-5132.7414,E,1,08,0.8,46.1,M,,,
670$GPRMC,120733.126,A,-3003.8430,N,-5132.7414,E,44.3,260.0,000070,,,A
671$GPGGA,120735.450,-3003.8460,N,-5132.7618,E,1,08,0.8,46.1,M,,,
672$GPRMC,120735.450,A,-3003.8460,N,-5132.7618,E,44.3,259.0,000070,,,A
673$GPGGA,120737.719,-3003.8496,N,-5132.7816,E,1,08,0.8,46.1,M,,,
674$GPRMC,120737.719,A,-3003.8496,N,-5132.7816,E,44.3,259.0,000070,,,A
675$GPGGA,120740.043,-3003.8526,N,-5132.8020,E,1,08,0.8,46.1,M,,,
676$GPRMC,120740.043,A,-3003.8526,N,-5132.8020,E,44.3,260.0,000070,,,A
677$GPGGA,120742.367,-3003.8556,N,-5132.8224,E,1,08,0.8,46.1,M,,,
678$GPRMC,120742.367,A,-3003.8556,N,-5132.8224,E,44.3,260.0,000070,,,A
679$GPGGA,120744.692,-3003.8586,N,-5132.8428,E,1,08,0.8,46.1,M,,,
680$GPRMC,120744.692,A,-3003.8586,N,-5132.8428,E,44.3,260.0,000070,,,A
681$GPGGA,120746.949,-3003.8616,N,-5132.8626,E,1,08,0.8,46.1,M,,,
682$GPRMC,120746.949,A,-3003.8616,N,-5132.8626,E,44.3,260.0,000070,,,A
683$GPGGA,120749.273,-3003.8646,N,-5132.8830,E,1,08,0.8,46.1,M,,,
684$GPRMC,120749.273,A,-3003.8646,N,-5132.8830,E,44.3,260.0,000070,,,A
685$GPGGA,120751.597,-3003.8676,N,-5132.9034,E,1,08,0.8,46.1,M,,,
686$GPRMC,120751.597,A,-3003.8676,N,-5132.9034,E,44.3,260.0,000070,,,A
687$GPGGA,120753.922,-3003.8706,N,-5132.9238,E,1,08,0.8,46.1,M,,,
688$GPRMC,120753.922,A,-3003.8706,N,-5132.9238,E,44.3,260.0,000070,,,A
689$GPGGA,120756.246,-3003.8736,N,-5132.9442,E,1,08,0.8,46.1,M,,,
690$GPRMC,120756.246,A,-3003.8736,N,-5132.9442,E,44.3,260.0,000070,,,A
691$GPGGA,120758.503,-3003.8766,N,-5132.9640,E,1,08,0.8,46.1,M,,,
692$GPRMC,120758.503,A,-3003.8766,N,-5132.9640,E,44.3,260.0,000070,,,A
693$GPGGA,120800.828,-3003.8796,N,-5132.9844,E,1,08,0.8,46.1,M,,,
694$GPRMC,120800.828,A,-3003.8796,N,-5132.9844,E,44.3,260.0,000070,,,A
695$GPGGA,120803.152,-3003.8826,N,-5133.0048,E,1,08,0.8,46.1,M,,,
696$GPRMC,120803.152,A,-3003.8826,N,-5133.0048,E,44.3,260.0,000070,,,A
697$GPGGA,120805.476,-3003.8856,N,-5133.0252,E,1,08,0.8,46.1,M,,,
698$GPRMC,120805.476,A,-3003.8856,N,-5133.0252,E,44.3,259.0,000070,,,A
699$GPGGA,120807.744,-3003.8892,N,-5133.0450,E,1,08,0.8,46.1,M,,,
700$GPRMC,120807.744,A,-3003.8892,N,-5133.0450,E,44.3,259.0,000070,,,A
701$GPGGA,120810.069,-3003.8922,N,-5133.0654,E,1,08,0.8,46.1,M,,,
702$GPRMC,120810.069,A,-3003.8922,N,-5133.0654,E,44.3,260.0,000070,,,A
703$GPGGA,120812.393,-3003.8952,N,-5133.0858,E,1,08,0.8,46.1,M,,,
704$GPRMC,120812.393,A,-3003.8952,N,-5133.0858,E,44.3,260.0,000070,,,A
705$GPGGA,120814.717,-3003.8982,N,-5133.1062,E,1,08,0.8,46.1,M,,,
706$GPRMC,120814.717,A,-3003.8982,N,-5133.1062,E,44.3,259.0,000070,,,A
707$GPGGA,120817.052,-3003.9018,N,-5133.1266,E,1,08,0.8,46.1,M,,,
708$GPRMC,120817.052,A,-3003.9018,N,-5133.1266,E,44.3,259.0,000070,,,A
709$GPGGA,120819.310,-3003.9048,N,-5133.1464,E,1,08,0.8,46.1,M,,,
710$GPRMC,120819.310,A,-3003.9048,N,-5133.1464,E,44.3,260.0,000070,,,A
711$GPGGA,120821.634,-3003.9078,N,-5133.1668,E,1,08,0.8,46.1,M,,,
712$GPRMC,120821.634,A,-3003.9078,N,-5133.1668,E,44.3,259.0,000070,,,A
713$GPGGA,120823.969,-3003.9114,N,-5133.1872,E,1,08,0.8,46.1,M,,,
714$GPRMC,120823.969,A,-3003.9114,N,-5133.1872,E,44.3,259.0,000070,,,A
715$GPGGA,120826.293,-3003.9144,N,-5133.2076,E,1,08,0.8,46.1,M,,,
716$GPRMC,120826.293,A,-3003.9144,N,-5133.2076,E,44.3,260.0,000070,,,A
717$GPGGA,120828.551,-3003.9174,N,-5133.2274,E,1,08,0.8,46.1,M,,,
718$GPRMC,120828.551,A,-3003.9174,N,-5133.2274,E,44.3,259.0,000070,,,A
719$GPGGA,120830.886,-3003.9210,N,-5133.2478,E,1,08,0.8,46.1,M,,,
720$GPRMC,120830.886,A,-3003.9210,N,-5133.2478,E,44.3,259.0,000070,,,A
721$GPGGA,120833.210,-3003.9240,N,-5133.2682,E,1,08,0.8,46.1,M,,,
722$GPRMC,120833.210,A,-3003.9240,N,-5133.2682,E,44.3,260.0,000070,,,A
723$GPGGA,120835.534,-3003.9270,N,-5133.2886,E,1,08,0.8,46.1,M,,,
724$GPRMC,120835.534,A,-3003.9270,N,-5133.2886,E,44.3,259.0,000070,,,A
725$GPGGA,120837.803,-3003.9306,N,-5133.3084,E,1,08,0.8,46.1,M,,,
726$GPRMC,120837.803,A,-3003.9306,N,-5133.3084,E,44.3,259.0,000070,,,A
727$GPGGA,120840.127,-3003.9336,N,-5133.3288,E,1,08,0.8,46.1,M,,,
728$GPRMC,120840.127,A,-3003.9336,N,-5133.3288,E,44.3,260.0,000070,,,A
729$GPGGA,120842.451,-3003.9366,N,-5133.3492,E,1,08,0.8,46.1,M,,,
730$GPRMC,120842.451,A,-3003.9366,N,-5133.3492,E,44.3,259.0,000070,,,A
731$GPGGA,120844.786,-3003.9402,N,-5133.3696,E,1,08,0.8,46.1,M,,,
732$GPRMC,120844.786,A,-3003.9402,N,-5133.3696,E,44.3,259.0,000070,,,A
733$GPGGA,120847.043,-3003.9432,N,-5133.3894,E,1,08,0.8,46.1,M,,,
734$GPRMC,120847.043,A,-3003.9432,N,-5133.3894,E,44.3,260.0,000070,,,A
735$GPGGA,120849.368,-3003.9462,N,-5133.4098,E,1,08,0.8,46.1,M,,,
736$GPRMC,120849.368,A,-3003.9462,N,-5133.4098,E,44.3,259.0,000070,,,A
737$GPGGA,120851.703,-3003.9498,N,-5133.4302,E,1,08,0.8,46.1,M,,,
738$GPRMC,120851.703,A,-3003.9498,N,-5133.4302,E,44.3,259.0,000070,,,A
739$GPGGA,120854.027,-3003.9528,N,-5133.4506,E,1,08,0.8,46.1,M,,,
740$GPRMC,120854.027,A,-3003.9528,N,-5133.4506,E,44.3,260.0,000070,,,A
741$GPGGA,120856.284,-3003.9558,N,-5133.4704,E,1,08,0.8,46.1,M,,,
742$GPRMC,120856.284,A,-3003.9558,N,-5133.4704,E,44.3,259.0,000070,,,A
743$GPGGA,120858.619,-3003.9594,N,-5133.4908,E,1,08,0.8,46.1,M,,,
744$GPRMC,120858.619,A,-3003.9594,N,-5133.4908,E,44.3,259.0,000070,,,A
745$GPGGA,120900.944,-3003.9624,N,-5133.5112,E,1,08,0.8,46.1,M,,,
746$GPRMC,120900.944,A,-3003.9624,N,-5133.5112,E,44.3,260.0,000070,,,A
747$GPGGA,120903.268,-3003.9654,N,-5133.5316,E,1,08,0.8,46.1,M,,,
748$GPRMC,120903.268,A,-3003.9654,N,-5133.5316,E,44.3,259.0,000070,,,A
749$GPGGA,120905.536,-3003.9690,N,-5133.5514,E,1,08,0.8,46.1,M,,,
750$GPRMC,120905.536,A,-3003.9690,N,-5133.5514,E,44.3,259.0,000070,,,A
751$GPGGA,120907.861,-3003.9720,N,-5133.5718,E,1,08,0.8,46.1,M,,,
752$GPRMC,120907.861,A,-3003.9720,N,-5133.5718,E,44.3,260.0,000070,,,A
753$GPGGA,120910.185,-3003.9750,N,-5133.5922,E,1,08,0.8,46.1,M,,,
754$GPRMC,120910.185,A,-3003.9750,N,-5133.5922,E,44.3,259.0,000070,,,A
755$GPGGA,120912.520,-3003.9786,N,-5133.6126,E,1,08,0.8,46.1,M,,,
756$GPRMC,120912.520,A,-3003.9786,N,-5133.6126,E,44.3,259.0,000070,,,A
757$GPGGA,120914.844,-3003.9816,N,-5133.6330,E,1,08,0.8,46.1,M,,,
758$GPRMC,120914.844,A,-3003.9816,N,-5133.6330,E,44.3,259.0,000070,,,A
759$GPGGA,120917.113,-3003.9852,N,-5133.6528,E,1,08,0.8,46.1,M,,,
760$GPRMC,120917.113,A,-3003.9852,N,-5133.6528,E,44.3,259.0,000070,,,A
761$GPGGA,120919.437,-3003.9882,N,-5133.6732,E,1,08,0.8,46.1,M,,,
762$GPRMC,120919.437,A,-3003.9882,N,-5133.6732,E,44.3,260.0,000070,,,A
763$GPGGA,120921.761,-3003.9912,N,-5133.6936,E,1,08,0.8,46.1,M,,,
764$GPRMC,120921.761,A,-3003.9912,N,-5133.6936,E,44.3,259.0,000070,,,A
765$GPGGA,120924.096,-3003.9948,N,-5133.7140,E,1,08,0.8,46.1,M,,,
766$GPRMC,120924.096,A,-3003.9948,N,-5133.7140,E,44.3,259.0,000070,,,A
767$GPGGA,120926.354,-3003.9978,N,-5133.7338,E,1,08,0.8,46.1,M,,,
768$GPRMC,120926.354,A,-3003.9978,N,-5133.7338,E,44.3,260.0,000070,,,A
769$GPGGA,120928.678,-3004.0008,N,-5133.7542,E,1,08,0.8,46.1,M,,,
770$GPRMC,120928.678,A,-3004.0008,N,-5133.7542,E,44.3,259.0,000070,,,A
771$GPGGA,120931.013,-3004.0044,N,-5133.7746,E,1,08,0.8,46.1,M,,,
772$GPRMC,120931.013,A,-3004.0044,N,-5133.7746,E,44.3,259.0,000070,,,A
773$GPGGA,120933.337,-3004.0074,N,-5133.7950,E,1,08,0.8,46.1,M,,,
774$GPRMC,120933.337,A,-3004.0074,N,-5133.7950,E,44.3,260.0,000070,,,A
775$GPGGA,120935.594,-3004.0104,N,-5133.8148,E,1,08,0.8,46.1,M,,,
776$GPRMC,120935.594,A,-3004.0104,N,-5133.8148,E,44.3,259.0,000070,,,A
777$GPGGA,120937.930,-3004.0140,N,-5133.8352,E,1,08,0.8,46.1,M,,,
778$GPRMC,120937.930,A,-3004.0140,N,-5133.8352,E,44.3,259.0,000070,,,A
779$GPGGA,120940.254,-3004.0170,N,-5133.8556,E,1,08,0.8,46.1,M,,,
780$GPRMC,120940.254,A,-3004.0170,N,-5133.8556,E,44.3,260.0,000070,,,A
781$GPGGA,120942.578,-3004.0200,N,-5133.8760,E,1,08,0.8,46.1,M,,,
782$GPRMC,120942.578,A,-3004.0200,N,-5133.8760,E,44.3,259.0,000070,,,A
783$GPGGA,120944.846,-3004.0236,N,-5133.8958,E,1,08,0.8,46.1,M,,,
784$GPRMC,120944.846,A,-3004.0236,N,-5133.8958,E,44.3,259.0,000070,,,A
785$GPGGA,120947.171,-3004.0266,N,-5133.9162,E,1,08,0.8,46.1,M,,,
786$GPRMC,120947.171,A,-3004.0266,N,-5133.9162,E,44.3,260.0,000070,,,A
787$GPGGA,120949.495,-3004.0296,N,-5133.9366,E,1,08,0.8,46.1,M,,,
788$GPRMC,120949.495,A,-3004.0296,N,-5133.9366,E,44.3,259.0,000070,,,A
789$GPGGA,120951.830,-3004.0332,N,-5133.9570,E,1,08,0.8,46.1,M,,,
790$GPRMC,120951.830,A,-3004.0332,N,-5133.9570,E,44.3,259.0,000070,,,A
791$GPGGA,120954.087,-3004.0362,N,-5133.9768,E,1,08,0.8,46.1,M,,,
792$GPRMC,120954.087,A,-3004.0362,N,-5133.9768,E,44.3,260.0,000070,,,A
793$GPGGA,120956.412,-3004.0392,N,-5133.9972,E,1,08,0.8,46.1,M,,,
794$GPRMC,120956.412,A,-3004.0392,N,-5133.9972,E,44.3,259.0,000070,,,A
795$GPGGA,120958.747,-3004.0428,N,-5134.0176,E,1,08,0.8,46.1,M,,,
796$GPRMC,120958.747,A,-3004.0428,N,-5134.0176,E,44.3,259.0,000070,,,A
797$GPGGA,121001.071,-3004.0458,N,-5134.0380,E,1,08,0.8,46.1,M,,,
798$GPRMC,121001.071,A,-3004.0458,N,-5134.0380,E,44.3,260.0,000070,,,A
799$GPGGA,121003.328,-3004.0488,N,-5134.0578,E,1,08,0.8,46.1,M,,,
800$GPRMC,121003.328,A,-3004.0488,N,-5134.0578,E,44.3,259.0,000070,,,A
801$GPGGA,121005.663,-3004.0524,N,-5134.0782,E,1,08,0.8,46.1,M,,,
802$GPRMC,121005.663,A,-3004.0524,N,-5134.0782,E,44.3,259.0,000070,,,A
803$GPGGA,121007.988,-3004.0554,N,-5134.0986,E,1,08,0.8,46.1,M,,,
804$GPRMC,121007.988,A,-3004.0554,N,-5134.0986,E,44.3,259.0,000070,,,A
805$GPGGA,121010.323,-3004.0590,N,-5134.1190,E,1,08,0.8,46.1,M,,,
806$GPRMC,121010.323,A,-3004.0590,N,-5134.1190,E,44.3,258.0,000070,,,A
807$GPGGA,121012.591,-3004.0626,N,-5134.1388,E,1,08,0.8,46.1,M,,,
808$GPRMC,121012.591,A,-3004.0626,N,-5134.1388,E,44.3,259.0,000070,,,A
809$GPGGA,121014.915,-3004.0656,N,-5134.1592,E,1,08,0.8,46.1,M,,,
810$GPRMC,121014.915,A,-3004.0656,N,-5134.1592,E,44.3,259.0,000070,,,A
811$GPGGA,121017.250,-3004.0692,N,-5134.1796,E,1,08,0.8,46.1,M,,,
812$GPRMC,121017.250,A,-3004.0692,N,-5134.1796,E,44.3,258.0,000070,,,A
813$GPGGA,121019.519,-3004.0728,N,-5134.1994,E,1,08,0.8,46.1,M,,,
814$GPRMC,121019.519,A,-3004.0728,N,-5134.1994,E,44.3,258.0,000070,,,A
815$GPGGA,121021.854,-3004.0764,N,-5134.2198,E,1,08,0.8,46.1,M,,,
816$GPRMC,121021.854,A,-3004.0764,N,-5134.2198,E,44.3,259.0,000070,,,A
817$GPGGA,121024.178,-3004.0794,N,-5134.2402,E,1,08,0.8,46.1,M,,,
818$GPRMC,121024.178,A,-3004.0794,N,-5134.2402,E,44.3,259.0,000070,,,A
819$GPGGA,121026.447,-3004.0830,N,-5134.2600,E,1,08,0.8,46.1,M,,,
820$GPRMC,121026.447,A,-3004.0830,N,-5134.2600,E,44.3,258.0,000070,,,A
821$GPGGA,121028.782,-3004.0866,N,-5134.2804,E,1,08,0.8,46.1,M,,,
822$GPRMC,121028.782,A,-3004.0866,N,-5134.2804,E,44.3,259.0,000070,,,A
823$GPGGA,121031.106,-3004.0896,N,-5134.3008,E,1,08,0.8,46.1,M,,,
824$GPRMC,121031.106,A,-3004.0896,N,-5134.3008,E,44.3,259.0,000070,,,A
825$GPGGA,121033.374,-3004.0932,N,-5134.3206,E,1,08,0.8,46.1,M,,,
826$GPRMC,121033.374,A,-3004.0932,N,-5134.3206,E,44.3,258.0,000070,,,A
827$GPGGA,121035.709,-3004.0968,N,-5134.3410,E,1,08,0.8,46.1,M,,,
828$GPRMC,121035.709,A,-3004.0968,N,-5134.3410,E,44.3,259.0,000070,,,A
829$GPGGA,121038.034,-3004.0998,N,-5134.3614,E,1,08,0.8,46.1,M,,,
830$GPRMC,121038.034,A,-3004.0998,N,-5134.3614,E,44.3,260.0,000070,,,A
831$GPGGA,121040.358,-3004.1028,N,-5134.3818,E,1,08,0.8,46.1,M,,,
832$GPRMC,121040.358,A,-3004.1028,N,-5134.3818,E,44.3,260.0,000070,,,A
833$GPGGA,121042.615,-3004.1058,N,-5134.4016,E,1,08,0.8,46.1,M,,,
834$GPRMC,121042.615,A,-3004.1058,N,-5134.4016,E,44.3,259.0,000070,,,A
835$GPGGA,121044.950,-3004.1094,N,-5134.4220,E,1,08,0.8,46.1,M,,,
836$GPRMC,121044.950,A,-3004.1094,N,-5134.4220,E,44.3,259.0,000070,,,A
837$GPGGA,121047.275,-3004.1124,N,-5134.4424,E,1,08,0.8,46.1,M,,,
838$GPRMC,121047.275,A,-3004.1124,N,-5134.4424,E,44.3,260.0,000070,,,A
839$GPGGA,121049.532,-3004.1154,N,-5134.4622,E,1,08,0.8,46.1,M,,,
840$GPRMC,121049.532,A,-3004.1154,N,-5134.4622,E,44.3,260.0,000070,,,A
841$GPGGA,121051.856,-3004.1184,N,-5134.4826,E,1,08,0.8,46.1,M,,,
842$GPRMC,121051.856,A,-3004.1184,N,-5134.4826,E,44.3,260.0,000070,,,A
843$GPGGA,121054.180,-3004.1214,N,-5134.5030,E,1,08,0.8,46.1,M,,,
844$GPRMC,121054.180,A,-3004.1214,N,-5134.5030,E,44.3,260.0,000070,,,A
845$GPGGA,121056.505,-3004.1244,N,-5134.5234,E,1,08,0.8,46.1,M,,,
846$GPRMC,121056.505,A,-3004.1244,N,-5134.5234,E,44.3,260.0,000070,,,A
847$GPGGA,121058.762,-3004.1274,N,-5134.5432,E,1,08,0.8,46.1,M,,,
848$GPRMC,121058.762,A,-3004.1274,N,-5134.5432,E,44.3,260.0,000070,,,A
849$GPGGA,121101.086,-3004.1304,N,-5134.5636,E,1,08,0.8,46.1,M,,,
850$GPRMC,121101.086,A,-3004.1304,N,-5134.5636,E,44.3,259.0,000070,,,A
851$GPGGA,121103.421,-3004.1340,N,-5134.5840,E,1,08,0.8,46.1,M,,,
852$GPRMC,121103.421,A,-3004.1340,N,-5134.5840,E,44.3,259.0,000070,,,A
853$GPGGA,121105.679,-3004.1370,N,-5134.6038,E,1,08,0.8,46.1,M,,,
854$GPRMC,121105.679,A,-3004.1370,N,-5134.6038,E,44.3,260.0,000070,,,A
855$GPGGA,121108.003,-3004.1400,N,-5134.6242,E,1,08,0.8,46.1,M,,,
856$GPRMC,121108.003,A,-3004.1400,N,-5134.6242,E,44.3,260.0,000070,,,A
857$GPGGA,121110.327,-3004.1430,N,-5134.6446,E,1,08,0.8,46.1,M,,,
858$GPRMC,121110.327,A,-3004.1430,N,-5134.6446,E,44.3,260.0,000070,,,A
859$GPGGA,121112.651,-3004.1460,N,-5134.6650,E,1,08,0.8,46.1,M,,,
860$GPRMC,121112.651,A,-3004.1460,N,-5134.6650,E,44.3,260.0,000070,,,A
861$GPGGA,121114.909,-3004.1490,N,-5134.6848,E,1,08,0.8,46.1,M,,,
862$GPRMC,121114.909,A,-3004.1490,N,-5134.6848,E,44.3,259.0,000070,,,A
863$GPGGA,121117.244,-3004.1526,N,-5134.7052,E,1,08,0.8,46.1,M,,,
864$GPRMC,121117.244,A,-3004.1526,N,-5134.7052,E,44.3,258.0,000070,,,A
865$GPGGA,121119.512,-3004.1562,N,-5134.7250,E,1,08,0.8,46.1,M,,,
866$GPRMC,121119.512,A,-3004.1562,N,-5134.7250,E,44.3,258.0,000070,,,A
867$GPGGA,121121.847,-3004.1598,N,-5134.7454,E,1,08,0.8,46.1,M,,,
868$GPRMC,121121.847,A,-3004.1598,N,-5134.7454,E,44.3,257.0,000070,,,A
869$GPGGA,121124.129,-3004.1640,N,-5134.7652,E,1,08,0.8,46.1,M,,,
870$GPRMC,121124.129,A,-3004.1640,N,-5134.7652,E,44.3,257.0,000070,,,A
871$GPGGA,121126.464,-3004.1676,N,-5134.7856,E,1,08,0.8,46.1,M,,,
872$GPRMC,121126.464,A,-3004.1676,N,-5134.7856,E,44.3,258.0,000070,,,A
873$GPGGA,121128.732,-3004.1712,N,-5134.8054,E,1,08,0.8,46.1,M,,,
874$GPRMC,121128.732,A,-3004.1712,N,-5134.8054,E,44.3,254.0,000070,,,A
875$GPGGA,121131.065,-3004.1772,N,-5134.8252,E,1,08,0.8,46.1,M,,,
876$GPRMC,121131.065,A,-3004.1772,N,-5134.8252,E,44.3,249.0,000070,,,A
877$GPGGA,121133.289,-3004.1838,N,-5134.8438,E,1,08,0.8,46.1,M,,,
878$GPRMC,121133.289,A,-3004.1838,N,-5134.8438,E,44.3,248.0,000070,,,A
879$GPGGA,121135.578,-3004.1904,N,-5134.8630,E,1,08,0.8,46.1,M,,,
880$GPRMC,121135.578,A,-3004.1904,N,-5134.8630,E,44.3,248.0,000070,,,A
881$GPGGA,121137.866,-3004.1970,N,-5134.8822,E,1,08,0.8,46.1,M,,,
882$GPRMC,121137.866,A,-3004.1970,N,-5134.8822,E,44.3,247.0,000070,,,A
883$GPGGA,121140.115,-3004.2042,N,-5134.9008,E,1,08,0.8,46.1,M,,,
884$GPRMC,121140.115,A,-3004.2042,N,-5134.9008,E,44.3,241.0,000070,,,A
885$GPGGA,121142.355,-3004.2138,N,-5134.9182,E,1,08,0.8,46.1,M,,,
886$GPRMC,121142.355,A,-3004.2138,N,-5134.9182,E,44.3,238.0,000070,,,A
887$GPGGA,121144.595,-3004.2234,N,-5134.9356,E,1,08,0.8,46.1,M,,,
888$GPRMC,121144.595,A,-3004.2234,N,-5134.9356,E,44.3,237.0,000070,,,A
889$GPGGA,121146.776,-3004.2330,N,-5134.9524,E,1,08,0.8,46.1,M,,,
890$GPRMC,121146.776,A,-3004.2330,N,-5134.9524,E,44.3,237.0,000070,,,A
891$GPGGA,121149.016,-3004.2426,N,-5134.9698,E,1,08,0.8,46.1,M,,,
892$GPRMC,121149.016,A,-3004.2426,N,-5134.9698,E,44.3,238.0,000070,,,A
893$GPGGA,121151.256,-3004.2522,N,-5134.9872,E,1,08,0.8,46.1,M,,,
894$GPRMC,121151.256,A,-3004.2522,N,-5134.9872,E,44.3,236.0,000070,,,A
895$GPGGA,121153.471,-3004.2624,N,-5135.0040,E,1,08,0.8,46.1,M,,,
896$GPRMC,121153.471,A,-3004.2624,N,-5135.0040,E,44.3,235.0,000070,,,A
897$GPGGA,121155.687,-3004.2726,N,-5135.0208,E,1,08,0.8,46.1,M,,,
898$GPRMC,121155.687,A,-3004.2726,N,-5135.0208,E,44.3,235.0,000070,,,A
899$GPGGA,121157.902,-3004.2828,N,-5135.0376,E,1,08,0.8,46.1,M,,,
900$GPRMC,121157.902,A,-3004.2828,N,-5135.0376,E,44.3,235.0,000070,,,A
901$GPGGA,121200.118,-3004.2930,N,-5135.0544,E,1,08,0.8,46.1,M,,,
902$GPRMC,121200.118,A,-3004.2930,N,-5135.0544,E,44.3,235.0,000070,,,A
903$GPGGA,121202.333,-3004.3032,N,-5135.0712,E,1,08,0.8,46.1,M,,,
904$GPRMC,121202.333,A,-3004.3032,N,-5135.0712,E,44.3,235.0,000070,,,A
905$GPGGA,121204.549,-3004.3134,N,-5135.0880,E,1,08,0.8,46.1,M,,,
906$GPRMC,121204.549,A,-3004.3134,N,-5135.0880,E,44.3,235.0,000070,,,A
907$GPGGA,121206.764,-3004.3236,N,-5135.1048,E,1,08,0.8,46.1,M,,,
908$GPRMC,121206.764,A,-3004.3236,N,-5135.1048,E,44.3,235.0,000070,,,A
909$GPGGA,121208.979,-3004.3338,N,-5135.1216,E,1,08,0.8,46.1,M,,,
910$GPRMC,121208.979,A,-3004.3338,N,-5135.1216,E,44.3,234.0,000070,,,A
911$GPGGA,121211.231,-3004.3446,N,-5135.1384,E,1,08,0.8,46.1,M,,,
912$GPRMC,121211.231,A,-3004.3446,N,-5135.1384,E,44.3,234.0,000070,,,A
913$GPGGA,121213.446,-3004.3548,N,-5135.1552,E,1,08,0.8,46.1,M,,,
914$GPRMC,121213.446,A,-3004.3548,N,-5135.1552,E,44.3,235.0,000070,,,A
915$GPGGA,121215.662,-3004.3650,N,-5135.1720,E,1,08,0.8,46.1,M,,,
916$GPRMC,121215.662,A,-3004.3650,N,-5135.1720,E,44.3,235.0,000070,,,A
917$GPGGA,121217.877,-3004.3752,N,-5135.1888,E,1,08,0.8,46.1,M,,,
918$GPRMC,121217.877,A,-3004.3752,N,-5135.1888,E,44.3,235.0,000070,,,A
919$GPGGA,121220.092,-3004.3854,N,-5135.2056,E,1,08,0.8,46.1,M,,,
920$GPRMC,121220.092,A,-3004.3854,N,-5135.2056,E,44.3,235.0,000070,,,A
921$GPGGA,121222.308,-3004.3956,N,-5135.2224,E,1,08,0.8,46.1,M,,,
922$GPRMC,121222.308,A,-3004.3956,N,-5135.2224,E,44.3,235.0,000070,,,A
923$GPGGA,121224.523,-3004.4058,N,-5135.2392,E,1,08,0.8,46.1,M,,,
924$GPRMC,121224.523,A,-3004.4058,N,-5135.2392,E,44.3,235.0,000070,,,A
925$GPGGA,121226.739,-3004.4160,N,-5135.2560,E,1,08,0.8,46.1,M,,,
926$GPRMC,121226.739,A,-3004.4160,N,-5135.2560,E,44.3,235.0,000070,,,A
927$GPGGA,121228.954,-3004.4262,N,-5135.2728,E,1,08,0.8,46.1,M,,,
928$GPRMC,121228.954,A,-3004.4262,N,-5135.2728,E,44.3,234.0,000070,,,A
929$GPGGA,121231.205,-3004.4370,N,-5135.2896,E,1,08,0.8,46.1,M,,,
930$GPRMC,121231.205,A,-3004.4370,N,-5135.2896,E,44.3,234.0,000070,,,A
931$GPGGA,121233.421,-3004.4472,N,-5135.3064,E,1,08,0.8,46.1,M,,,
932$GPRMC,121233.421,A,-3004.4472,N,-5135.3064,E,44.3,235.0,000070,,,A
933$GPGGA,121235.636,-3004.4574,N,-5135.3232,E,1,08,0.8,46.1,M,,,
934$GPRMC,121235.636,A,-3004.4574,N,-5135.3232,E,44.3,238.0,000070,,,A
935$GPGGA,121237.905,-3004.4664,N,-5135.3412,E,1,08,0.8,46.1,M,,,
936$GPRMC,121237.905,A,-3004.4664,N,-5135.3412,E,44.3,241.0,000070,,,A
937$GPGGA,121240.116,-3004.4742,N,-5135.3592,E,1,08,0.8,46.1,M,,,
938$GPRMC,121240.116,A,-3004.4742,N,-5135.3592,E,44.3,242.0,000070,,,A
939$GPGGA,121242.355,-3004.4826,N,-5135.3772,E,1,08,0.8,46.1,M,,,
940$GPRMC,121242.355,A,-3004.4826,N,-5135.3772,E,44.3,241.0,000070,,,A
941$GPGGA,121244.594,-3004.4910,N,-5135.3952,E,1,08,0.8,46.1,M,,,
942$GPRMC,121244.594,A,-3004.4910,N,-5135.3952,E,44.3,241.0,000070,,,A
943$GPGGA,121246.833,-3004.4994,N,-5135.4132,E,1,08,0.8,46.1,M,,,
944$GPRMC,121246.833,A,-3004.4994,N,-5135.4132,E,44.3,243.0,000070,,,A
945$GPGGA,121249.107,-3004.5072,N,-5135.4318,E,1,08,0.8,46.1,M,,,
946$GPRMC,121249.107,A,-3004.5072,N,-5135.4318,E,44.3,245.0,000070,,,A
947$GPGGA,121251.355,-3004.5144,N,-5135.4504,E,1,08,0.8,46.1,M,,,
948$GPRMC,121251.355,A,-3004.5144,N,-5135.4504,E,44.3,245.0,000070,,,A
949$GPGGA,121253.628,-3004.5222,N,-5135.4690,E,1,08,0.8,46.1,M,,,
950$GPRMC,121253.628,A,-3004.5222,N,-5135.4690,E,44.3,245.0,000070,,,A
951$GPGGA,121255.877,-3004.5294,N,-5135.4876,E,1,08,0.8,46.1,M,,,
952$GPRMC,121255.877,A,-3004.5294,N,-5135.4876,E,44.3,245.0,000070,,,A
953$GPGGA,121258.150,-3004.5372,N,-5135.5062,E,1,08,0.8,46.1,M,,,
954$GPRMC,121258.150,A,-3004.5372,N,-5135.5062,E,44.3,245.0,000070,,,A
955$GPGGA,121300.398,-3004.5444,N,-5135.5248,E,1,08,0.8,46.1,M,,,
956$GPRMC,121300.398,A,-3004.5444,N,-5135.5248,E,44.3,245.0,000070,,,A
957$GPGGA,121302.672,-3004.5522,N,-5135.5434,E,1,08,0.8,46.1,M,,,
958$GPRMC,121302.672,A,-3004.5522,N,-5135.5434,E,44.3,244.0,000070,,,A
959$GPGGA,121304.945,-3004.5600,N,-5135.5620,E,1,08,0.8,46.1,M,,,
960$GPRMC,121304.945,A,-3004.5600,N,-5135.5620,E,44.3,245.0,000070,,,A
961$GPGGA,121307.194,-3004.5672,N,-5135.5806,E,1,08,0.8,46.1,M,,,
962$GPRMC,121307.194,A,-3004.5672,N,-5135.5806,E,44.3,245.0,000070,,,A
963$GPGGA,121309.467,-3004.5750,N,-5135.5992,E,1,08,0.8,46.1,M,,,
964$GPRMC,121309.467,A,-3004.5750,N,-5135.5992,E,44.3,245.0,000070,,,A
965$GPGGA,121311.715,-3004.5822,N,-5135.6178,E,1,08,0.8,46.1,M,,,
966$GPRMC,121311.715,A,-3004.5822,N,-5135.6178,E,44.3,246.0,000070,,,A
967$GPGGA,121313.963,-3004.5894,N,-5135.6364,E,1,08,0.8,46.1,M,,,
968$GPRMC,121313.963,A,-3004.5894,N,-5135.6364,E,44.3,246.0,000070,,,A
969$GPGGA,121316.275,-3004.5966,N,-5135.6556,E,1,08,0.8,46.1,M,,,
970$GPRMC,121316.275,A,-3004.5966,N,-5135.6556,E,44.3,246.0,000070,,,A
971$GPGGA,121318.523,-3004.6038,N,-5135.6742,E,1,08,0.8,46.1,M,,,
972$GPRMC,121318.523,A,-3004.6038,N,-5135.6742,E,44.3,246.0,000070,,,A
973$GPGGA,121320.835,-3004.6110,N,-5135.6934,E,1,08,0.8,46.1,M,,,
974$GPRMC,121320.835,A,-3004.6110,N,-5135.6934,E,44.3,246.0,000070,,,A
975$GPGGA,121323.083,-3004.6182,N,-5135.7120,E,1,08,0.8,46.1,M,,,
976$GPRMC,121323.083,A,-3004.6182,N,-5135.7120,E,44.3,247.0,000070,,,A
977$GPGGA,121325.307,-3004.6248,N,-5135.7306,E,1,08,0.8,46.1,M,,,
978$GPRMC,121325.307,A,-3004.6248,N,-5135.7306,E,44.3,247.0,000070,,,A
979$GPGGA,121327.619,-3004.6320,N,-5135.7498,E,1,08,0.8,46.1,M,,,
980$GPRMC,121327.619,A,-3004.6320,N,-5135.7498,E,44.3,246.0,000070,,,A
981$GPGGA,121329.867,-3004.6392,N,-5135.7684,E,1,08,0.8,46.1,M,,,
982$GPRMC,121329.867,A,-3004.6392,N,-5135.7684,E,44.3,246.0,000070,,,A
983$GPGGA,121332.179,-3004.6464,N,-5135.7876,E,1,08,0.8,46.1,M,,,
984$GPRMC,121332.179,A,-3004.6464,N,-5135.7876,E,44.3,246.0,000070,,,A
985$GPGGA,121334.427,-3004.6536,N,-5135.8062,E,1,08,0.8,46.1,M,,,
986$GPRMC,121334.427,A,-3004.6536,N,-5135.8062,E,44.3,246.0,000070,,,A
987$GPGGA,121336.738,-3004.6608,N,-5135.8254,E,1,08,0.8,46.1,M,,,
988$GPRMC,121336.738,A,-3004.6608,N,-5135.8254,E,44.3,246.0,000070,,,A
989$GPGGA,121338.986,-3004.6680,N,-5135.8440,E,1,08,0.8,46.1,M,,,
990$GPRMC,121338.986,A,-3004.6680,N,-5135.8440,E,44.3,246.0,000070,,,A
991$GPGGA,121341.235,-3004.6752,N,-5135.8626,E,1,08,0.8,46.1,M,,,
992$GPRMC,121341.235,A,-3004.6752,N,-5135.8626,E,44.3,247.0,000070,,,A
993$GPGGA,121343.523,-3004.6818,N,-5135.8818,E,1,08,0.8,46.1,M,,,
994$GPRMC,121343.523,A,-3004.6818,N,-5135.8818,E,44.3,247.0,000070,,,A
995$GPGGA,121345.771,-3004.6890,N,-5135.9004,E,1,08,0.8,46.1,M,,,
996$GPRMC,121345.771,A,-3004.6890,N,-5135.9004,E,44.3,246.0,000070,,,A
997$GPGGA,121348.083,-3004.6962,N,-5135.9196,E,1,08,0.8,46.1,M,,,
998$GPRMC,121348.083,A,-3004.6962,N,-5135.9196,E,44.3,246.0,000070,,,A
999$GPGGA,121350.331,-3004.7034,N,-5135.9382,E,1,08,0.8,46.1,M,,,
1000$GPRMC,121350.331,A,-3004.7034,N,-5135.9382,E,44.3,246.0,000070,,,A
1001$GPGGA,121352.642,-3004.7106,N,-5135.9574,E,1,08,0.8,46.1,M,,,
1002$GPRMC,121352.642,A,-3004.7106,N,-5135.9574,E,44.3,246.0,000070,,,A
1003$GPGGA,121354.891,-3004.7178,N,-5135.9760,E,1,08,0.8,46.1,M,,,
1004$GPRMC,121354.891,A,-3004.7178,N,-5135.9760,E,44.3,246.0,000070,,,A
1005$GPGGA,121357.139,-3004.7250,N,-5135.9946,E,1,08,0.8,46.1,M,,,
1006$GPRMC,121357.139,A,-3004.7250,N,-5135.9946,E,44.3,246.0,000070,,,A
1007$GPGGA,121359.450,-3004.7322,N,-5136.0138,E,1,08,0.8,46.1,M,,,
1008$GPRMC,121359.450,A,-3004.7322,N,-5136.0138,E,44.3,247.0,000070,,,A
1009$GPGGA,121401.675,-3004.7388,N,-5136.0324,E,1,08,0.8,46.1,M,,,
1010$GPRMC,121401.675,A,-3004.7388,N,-5136.0324,E,44.3,247.0,000070,,,A
1011$GPGGA,121403.986,-3004.7460,N,-5136.0516,E,1,08,0.8,46.1,M,,,
1012$GPRMC,121403.986,A,-3004.7460,N,-5136.0516,E,44.3,246.0,000070,,,A
1013$GPGGA,121406.235,-3004.7532,N,-5136.0702,E,1,08,0.8,46.1,M,,,
1014$GPRMC,121406.235,A,-3004.7532,N,-5136.0702,E,44.3,246.0,000070,,,A
1015$GPGGA,121408.546,-3004.7604,N,-5136.0894,E,1,08,0.8,46.1,M,,,
1016$GPRMC,121408.546,A,-3004.7604,N,-5136.0894,E,44.3,246.0,000070,,,A
1017$GPGGA,121410.794,-3004.7676,N,-5136.1080,E,1,08,0.8,46.1,M,,,
1018$GPRMC,121410.794,A,-3004.7676,N,-5136.1080,E,44.3,246.0,000070,,,A
1019$GPGGA,121413.043,-3004.7748,N,-5136.1266,E,1,08,0.8,46.1,M,,,
1020$GPRMC,121413.043,A,-3004.7748,N,-5136.1266,E,44.3,246.0,000070,,,A
1021$GPGGA,121415.354,-3004.7820,N,-5136.1458,E,1,08,0.8,46.1,M,,,
1022$GPRMC,121415.354,A,-3004.7820,N,-5136.1458,E,44.3,246.0,000070,,,A
1023$GPGGA,121417.602,-3004.7892,N,-5136.1644,E,1,08,0.8,46.1,M,,,
1024$GPRMC,121417.602,A,-3004.7892,N,-5136.1644,E,44.3,247.0,000070,,,A
1025$GPGGA,121419.891,-3004.7958,N,-5136.1836,E,1,08,0.8,46.1,M,,,
1026$GPRMC,121419.891,A,-3004.7958,N,-5136.1836,E,44.3,247.0,000070,,,A
1027$GPGGA,121422.139,-3004.8030,N,-5136.2022,E,1,08,0.8,46.1,M,,,
1028$GPRMC,121422.139,A,-3004.8030,N,-5136.2022,E,44.3,246.0,000070,,,A
1029$GPGGA,121424.450,-3004.8102,N,-5136.2214,E,1,08,0.8,46.1,M,,,
1030$GPRMC,121424.450,A,-3004.8102,N,-5136.2214,E,44.3,246.0,000070,,,A
1031$GPGGA,121426.699,-3004.8174,N,-5136.2400,E,1,08,0.8,46.1,M,,,
1032$GPRMC,121426.699,A,-3004.8174,N,-5136.2400,E,44.3,246.0,000070,,,A
1033$GPGGA,121428.947,-3004.8246,N,-5136.2586,E,1,08,0.8,46.1,M,,,
1034$GPRMC,121428.947,A,-3004.8246,N,-5136.2586,E,44.3,246.0,000070,,,A
1035$GPGGA,121431.258,-3004.8318,N,-5136.2778,E,1,08,0.8,46.1,M,,,
1036$GPRMC,121431.258,A,-3004.8318,N,-5136.2778,E,44.3,246.0,000070,,,A
1037$GPGGA,121433.506,-3004.8390,N,-5136.2964,E,1,08,0.8,46.1,M,,,
1038$GPRMC,121433.506,A,-3004.8390,N,-5136.2964,E,44.3,246.0,000070,,,A
1039$GPGGA,121435.755,-3004.8462,N,-5136.3150,E,1,08,0.8,46.1,M,,,
1040$GPRMC,121435.755,A,-3004.8462,N,-5136.3150,E,44.3,246.0,000070,,,A
1041$GPGGA,121438.066,-3004.8534,N,-5136.3342,E,1,08,0.8,46.1,M,,,
1042$GPRMC,121438.066,A,-3004.8534,N,-5136.3342,E,44.3,246.0,000070,,,A
1043$GPGGA,121440.314,-3004.8606,N,-5136.3528,E,1,08,0.8,46.1,M,,,
1044$GPRMC,121440.314,A,-3004.8606,N,-5136.3528,E,44.3,245.0,000070,,,A
1045$GPGGA,121442.588,-3004.8684,N,-5136.3714,E,1,08,0.8,46.1,M,,,
1046$GPRMC,121442.588,A,-3004.8684,N,-5136.3714,E,44.3,245.0,000070,,,A
1047$GPGGA,121444.899,-3004.8756,N,-5136.3906,E,1,08,0.8,46.1,M,,,
1048$GPRMC,121444.899,A,-3004.8756,N,-5136.3906,E,44.3,246.0,000070,,,A
1049$GPGGA,121447.147,-3004.8828,N,-5136.4092,E,1,08,0.8,46.1,M,,,
1050$GPRMC,121447.147,A,-3004.8828,N,-5136.4092,E,44.3,246.0,000070,,,A
1051$GPGGA,121449.396,-3004.8900,N,-5136.4278,E,1,08,0.8,46.1,M,,,
1052$GPRMC,121449.396,A,-3004.8900,N,-5136.4278,E,44.3,246.0,000070,,,A
1053$GPGGA,121451.707,-3004.8972,N,-5136.4470,E,1,08,0.8,46.1,M,,,
1054$GPRMC,121451.707,A,-3004.8972,N,-5136.4470,E,44.3,246.0,000070,,,A
1055$GPGGA,121453.955,-3004.9044,N,-5136.4656,E,1,08,0.8,46.1,M,,,
1056$GPRMC,121453.955,A,-3004.9044,N,-5136.4656,E,44.3,246.0,000070,,,A
1057$GPGGA,121456.204,-3004.9116,N,-5136.4842,E,1,08,0.8,46.1,M,,,
1058$GPRMC,121456.204,A,-3004.9116,N,-5136.4842,E,44.3,246.0,000070,,,A
1059$GPGGA,121458.515,-3004.9188,N,-5136.5034,E,1,08,0.8,46.1,M,,,
1060$GPRMC,121458.515,A,-3004.9188,N,-5136.5034,E,44.3,246.0,000070,,,A
1061$GPGGA,121500.763,-3004.9260,N,-5136.5220,E,1,08,0.8,46.1,M,,,
1062$GPRMC,121500.763,A,-3004.9260,N,-5136.5220,E,44.3,246.0,000070,,,A
1063$GPGGA,121503.075,-3004.9332,N,-5136.5412,E,1,08,0.8,46.1,M,,,
1064$GPRMC,121503.075,A,-3004.9332,N,-5136.5412,E,44.3,246.0,000070,,,A
1065$GPGGA,121505.323,-3004.9404,N,-5136.5598,E,1,08,0.8,46.1,M,,,
1066$GPRMC,121505.323,A,-3004.9404,N,-5136.5598,E,44.3,246.0,000070,,,A
1067$GPGGA,121507.571,-3004.9476,N,-5136.5784,E,1,08,0.8,46.1,M,,,
1068$GPRMC,121507.571,A,-3004.9476,N,-5136.5784,E,44.3,246.0,000070,,,A
1069$GPGGA,121509.882,-3004.9548,N,-5136.5976,E,1,08,0.8,46.1,M,,,
1070$GPRMC,121509.882,A,-3004.9548,N,-5136.5976,E,44.3,246.0,000070,,,A
1071$GPGGA,121512.131,-3004.9620,N,-5136.6162,E,1,08,0.8,46.1,M,,,
1072$GPRMC,121512.131,A,-3004.9620,N,-5136.6162,E,44.3,246.0,000070,,,A
1073$GPGGA,121514.379,-3004.9692,N,-5136.6348,E,1,08,0.8,46.1,M,,,
1074$GPRMC,121514.379,A,-3004.9692,N,-5136.6348,E,44.3,246.0,000070,,,A
1075$GPGGA,121516.690,-3004.9764,N,-5136.6540,E,1,08,0.8,46.1,M,,,
1076$GPRMC,121516.690,A,-3004.9764,N,-5136.6540,E,44.3,246.0,000070,,,A
1077$GPGGA,121518.939,-3004.9836,N,-5136.6726,E,1,08,0.8,46.1,M,,,
1078$GPRMC,121518.939,A,-3004.9836,N,-5136.6726,E,44.3,246.0,000070,,,A
1079$GPGGA,121521.187,-3004.9908,N,-5136.6912,E,1,08,0.8,46.1,M,,,
1080$GPRMC,121521.187,A,-3004.9908,N,-5136.6912,E,44.3,246.0,000070,,,A
1081$GPGGA,121523.498,-3004.9980,N,-5136.7104,E,1,08,0.8,46.1,M,,,
1082$GPRMC,121523.498,A,-3004.9980,N,-5136.7104,E,44.3,246.0,000070,,,A
1083$GPGGA,121525.746,-3005.0052,N,-5136.7290,E,1,08,0.8,46.1,M,,,
1084$GPRMC,121525.746,A,-3005.0052,N,-5136.7290,E,44.3,246.0,000070,,,A
1085$GPGGA,121527.995,-3005.0124,N,-5136.7476,E,1,08,0.8,46.1,M,,,
1086$GPRMC,121527.995,A,-3005.0124,N,-5136.7476,E,44.3,245.0,000070,,,A
1087$GPGGA,121530.331,-3005.0202,N,-5136.7668,E,1,08,0.8,46.1,M,,,
1088$GPRMC,121530.331,A,-3005.0202,N,-5136.7668,E,44.3,245.0,000070,,,A
1089$GPGGA,121532.579,-3005.0274,N,-5136.7854,E,1,08,0.8,46.1,M,,,
1090$GPRMC,121532.579,A,-3005.0274,N,-5136.7854,E,44.3,246.0,000070,,,A
1091$GPGGA,121534.827,-3005.0346,N,-5136.8040,E,1,08,0.8,46.1,M,,,
1092$GPRMC,121534.827,A,-3005.0346,N,-5136.8040,E,44.3,246.0,000070,,,A
1093$GPGGA,121537.139,-3005.0418,N,-5136.8232,E,1,08,0.8,46.1,M,,,
1094$GPRMC,121537.139,A,-3005.0418,N,-5136.8232,E,44.3,246.0,000070,,,A
1095$GPGGA,121539.387,-3005.0490,N,-5136.8418,E,1,08,0.8,46.1,M,,,
1096$GPRMC,121539.387,A,-3005.0490,N,-5136.8418,E,44.3,246.0,000070,,,A
1097$GPGGA,121541.635,-3005.0562,N,-5136.8604,E,1,08,0.8,46.1,M,,,
1098$GPRMC,121541.635,A,-3005.0562,N,-5136.8604,E,44.3,246.0,000070,,,A
1099$GPGGA,121543.946,-3005.0634,N,-5136.8796,E,1,08,0.8,46.1,M,,,
1100$GPRMC,121543.946,A,-3005.0634,N,-5136.8796,E,44.3,246.0,000070,,,A
1101$GPGGA,121546.195,-3005.0706,N,-5136.8982,E,1,08,0.8,46.1,M,,,
1102$GPRMC,121546.195,A,-3005.0706,N,-5136.8982,E,44.3,246.0,000070,,,A
1103$GPGGA,121548.506,-3005.0778,N,-5136.9174,E,1,08,0.8,46.1,M,,,
1104$GPRMC,121548.506,A,-3005.0778,N,-5136.9174,E,44.3,246.0,000070,,,A
1105$GPGGA,121550.754,-3005.0850,N,-5136.9360,E,1,08,0.8,46.1,M,,,
1106$GPRMC,121550.754,A,-3005.0850,N,-5136.9360,E,44.3,246.0,000070,,,A
1107$GPGGA,121553.002,-3005.0922,N,-5136.9546,E,1,08,0.8,46.1,M,,,
1108$GPRMC,121553.002,A,-3005.0922,N,-5136.9546,E,44.3,246.0,000070,,,A
1109$GPGGA,121555.314,-3005.0994,N,-5136.9738,E,1,08,0.8,46.1,M,,,
1110$GPRMC,121555.314,A,-3005.0994,N,-5136.9738,E,44.3,246.0,000070,,,A
1111$GPGGA,121557.562,-3005.1066,N,-5136.9924,E,1,08,0.8,46.1,M,,,
1112$GPRMC,121557.562,A,-3005.1066,N,-5136.9924,E,44.3,246.0,000070,,,A
1113$GPGGA,121559.810,-3005.1138,N,-5137.0110,E,1,08,0.8,46.1,M,,,
1114$GPRMC,121559.810,A,-3005.1138,N,-5137.0110,E,44.3,246.0,000070,,,A
1115$GPGGA,121602.122,-3005.1210,N,-5137.0302,E,1,08,0.8,46.1,M,,,
1116$GPRMC,121602.122,A,-3005.1210,N,-5137.0302,E,44.3,246.0,000070,,,A
1117$GPGGA,121604.370,-3005.1282,N,-5137.0488,E,1,08,0.8,46.1,M,,,
1118$GPRMC,121604.370,A,-3005.1282,N,-5137.0488,E,44.3,246.0,000070,,,A
1119$GPGGA,121606.618,-3005.1354,N,-5137.0674,E,1,08,0.8,46.1,M,,,
1120$GPRMC,121606.618,A,-3005.1354,N,-5137.0674,E,44.3,246.0,000070,,,A
1121$GPGGA,121608.930,-3005.1426,N,-5137.0866,E,1,08,0.8,46.1,M,,,
1122$GPRMC,121608.930,A,-3005.1426,N,-5137.0866,E,44.3,246.0,000070,,,A
1123$GPGGA,121611.178,-3005.1498,N,-5137.1052,E,1,08,0.8,46.1,M,,,
1124$GPRMC,121611.178,A,-3005.1498,N,-5137.1052,E,44.3,246.0,000070,,,A
1125$GPGGA,121613.489,-3005.1570,N,-5137.1244,E,1,08,0.8,46.1,M,,,
1126$GPRMC,121613.489,A,-3005.1570,N,-5137.1244,E,44.3,246.0,000070,,,A
1127$GPGGA,121615.737,-3005.1642,N,-5137.1430,E,1,08,0.8,46.1,M,,,
1128$GPRMC,121615.737,A,-3005.1642,N,-5137.1430,E,44.3,246.0,000070,,,A
1129$GPGGA,121617.986,-3005.1714,N,-5137.1616,E,1,08,0.8,46.1,M,,,
1130$GPRMC,121617.986,A,-3005.1714,N,-5137.1616,E,44.3,247.0,000070,,,A
1131$GPGGA,121620.274,-3005.1780,N,-5137.1808,E,1,08,0.8,46.1,M,,,
1132$GPRMC,121620.274,A,-3005.1780,N,-5137.1808,E,44.3,247.0,000070,,,A
1133$GPGGA,121622.522,-3005.1852,N,-5137.1994,E,1,08,0.8,46.1,M,,,
1134$GPRMC,121622.522,A,-3005.1852,N,-5137.1994,E,44.3,246.0,000070,,,A
1135$GPGGA,121624.834,-3005.1924,N,-5137.2186,E,1,08,0.8,46.1,M,,,
1136$GPRMC,121624.834,A,-3005.1924,N,-5137.2186,E,44.3,246.0,000070,,,A
1137$GPGGA,121627.082,-3005.1996,N,-5137.2372,E,1,08,0.8,46.1,M,,,
1138$GPRMC,121627.082,A,-3005.1996,N,-5137.2372,E,44.3,246.0,000070,,,A
1139$GPGGA,121629.330,-3005.2068,N,-5137.2558,E,1,08,0.8,46.1,M,,,
1140$GPRMC,121629.330,A,-3005.2068,N,-5137.2558,E,44.3,246.0,000070,,,A
1141$GPGGA,121631.642,-3005.2140,N,-5137.2750,E,1,08,0.8,46.1,M,,,
1142$GPRMC,121631.642,A,-3005.2140,N,-5137.2750,E,44.3,246.0,000070,,,A
1143$GPGGA,121633.890,-3005.2212,N,-5137.2936,E,1,08,0.8,46.1,M,,,
1144$GPRMC,121633.890,A,-3005.2212,N,-5137.2936,E,44.3,246.0,000070,,,A
1145$GPGGA,121636.138,-3005.2284,N,-5137.3122,E,1,08,0.8,46.1,M,,,
1146$GPRMC,121636.138,A,-3005.2284,N,-5137.3122,E,44.3,246.0,000070,,,A
1147$GPGGA,121638.450,-3005.2356,N,-5137.3314,E,1,08,0.8,46.1,M,,,
1148$GPRMC,121638.450,A,-3005.2356,N,-5137.3314,E,44.3,246.0,000070,,,A
1149$GPGGA,121640.698,-3005.2428,N,-5137.3500,E,1,08,0.8,46.1,M,,,
1150$GPRMC,121640.698,A,-3005.2428,N,-5137.3500,E,44.3,246.0,000070,,,A
1151$GPGGA,121642.946,-3005.2500,N,-5137.3686,E,1,08,0.8,46.1,M,,,
1152$GPRMC,121642.946,A,-3005.2500,N,-5137.3686,E,44.3,246.0,000070,,,A
1153$GPGGA,121645.257,-3005.2572,N,-5137.3878,E,1,08,0.8,46.1,M,,,
1154$GPRMC,121645.257,A,-3005.2572,N,-5137.3878,E,44.3,246.0,000070,,,A
1155$GPGGA,121647.506,-3005.2644,N,-5137.4064,E,1,08,0.8,46.1,M,,,
1156$GPRMC,121647.506,A,-3005.2644,N,-5137.4064,E,44.3,246.0,000070,,,A
1157$GPGGA,121649.754,-3005.2716,N,-5137.4250,E,1,08,0.8,46.1,M,,,
1158$GPRMC,121649.754,A,-3005.2716,N,-5137.4250,E,44.3,246.0,000070,,,A
1159$GPGGA,121652.002,-3005.2788,N,-5137.4436,E,1,08,0.8,46.1,M,,,
1160$GPRMC,121652.002,A,-3005.2788,N,-5137.4436,E,44.3,246.0,000070,,,A
1161$GPGGA,121654.314,-3005.2860,N,-5137.4628,E,1,08,0.8,46.1,M,,,
1162$GPRMC,121654.314,A,-3005.2860,N,-5137.4628,E,44.3,246.0,000070,,,A
1163$GPGGA,121656.562,-3005.2932,N,-5137.4814,E,1,08,0.8,46.1,M,,,
1164$GPRMC,121656.562,A,-3005.2932,N,-5137.4814,E,44.3,246.0,000070,,,A
1165$GPGGA,121658.810,-3005.3004,N,-5137.5000,E,1,08,0.8,46.1,M,,,
1166$GPRMC,121658.810,A,-3005.3004,N,-5137.5000,E,44.3,246.0,000070,,,A
1167$GPGGA,121701.121,-3005.3076,N,-5137.5192,E,1,08,0.8,46.1,M,,,
1168$GPRMC,121701.121,A,-3005.3076,N,-5137.5192,E,44.3,246.0,000070,,,A
1169$GPGGA,121703.370,-3005.3148,N,-5137.5378,E,1,08,0.8,46.1,M,,,
1170$GPRMC,121703.370,A,-3005.3148,N,-5137.5378,E,44.3,246.0,000070,,,A
1171$GPGGA,121705.618,-3005.3220,N,-5137.5564,E,1,08,0.8,46.1,M,,,
1172$GPRMC,121705.618,A,-3005.3220,N,-5137.5564,E,44.3,246.0,000070,,,A
1173$GPGGA,121707.929,-3005.3292,N,-5137.5756,E,1,08,0.8,46.1,M,,,
1174$GPRMC,121707.929,A,-3005.3292,N,-5137.5756,E,44.3,246.0,000070,,,A
1175$GPGGA,121710.177,-3005.3364,N,-5137.5942,E,1,08,0.8,46.1,M,,,
1176$GPRMC,121710.177,A,-3005.3364,N,-5137.5942,E,44.3,246.0,000070,,,A
1177$GPGGA,121712.426,-3005.3436,N,-5137.6128,E,1,08,0.8,46.1,M,,,
1178$GPRMC,121712.426,A,-3005.3436,N,-5137.6128,E,44.3,246.0,000070,,,A
1179$GPGGA,121714.737,-3005.3508,N,-5137.6320,E,1,08,0.8,46.1,M,,,
1180$GPRMC,121714.737,A,-3005.3508,N,-5137.6320,E,44.3,246.0,000070,,,A
1181$GPGGA,121716.985,-3005.3580,N,-5137.6506,E,1,08,0.8,46.1,M,,,
1182$GPRMC,121716.985,A,-3005.3580,N,-5137.6506,E,44.3,246.0,000070,,,A
1183$GPGGA,121719.234,-3005.3652,N,-5137.6692,E,1,08,0.8,46.1,M,,,
1184$GPRMC,121719.234,A,-3005.3652,N,-5137.6692,E,44.3,246.0,000070,,,A
1185$GPGGA,121721.545,-3005.3724,N,-5137.6884,E,1,08,0.8,46.1,M,,,
1186$GPRMC,121721.545,A,-3005.3724,N,-5137.6884,E,44.3,246.0,000070,,,A
1187$GPGGA,121723.793,-3005.3796,N,-5137.7070,E,1,08,0.8,46.1,M,,,
1188$GPRMC,121723.793,A,-3005.3796,N,-5137.7070,E,44.3,246.0,000070,,,A
1189$GPGGA,121726.041,-3005.3868,N,-5137.7256,E,1,08,0.8,46.1,M,,,
1190$GPRMC,121726.041,A,-3005.3868,N,-5137.7256,E,44.3,246.0,000070,,,A
1191$GPGGA,121728.353,-3005.3940,N,-5137.7448,E,1,08,0.8,46.1,M,,,
1192$GPRMC,121728.353,A,-3005.3940,N,-5137.7448,E,44.3,246.0,000070,,,A
1193$GPGGA,121730.601,-3005.4012,N,-5137.7634,E,1,08,0.8,46.1,M,,,
1194$GPRMC,121730.601,A,-3005.4012,N,-5137.7634,E,44.3,246.0,000070,,,A
1195$GPGGA,121732.849,-3005.4084,N,-5137.7820,E,1,08,0.8,46.1,M,,,
1196$GPRMC,121732.849,A,-3005.4084,N,-5137.7820,E,44.3,246.0,000070,,,A
1197$GPGGA,121735.161,-3005.4156,N,-5137.8012,E,1,08,0.8,46.1,M,,,
1198$GPRMC,121735.161,A,-3005.4156,N,-5137.8012,E,44.3,246.0,000070,,,A
1199$GPGGA,121737.409,-3005.4228,N,-5137.8198,E,1,08,0.8,46.1,M,,,
1200$GPRMC,121737.409,A,-3005.4228,N,-5137.8198,E,44.3,246.0,000070,,,A
1201$GPGGA,121739.720,-3005.4300,N,-5137.8390,E,1,08,0.8,46.1,M,,,
1202$GPRMC,121739.720,A,-3005.4300,N,-5137.8390,E,44.3,246.0,000070,,,A
1203$GPGGA,121741.969,-3005.4372,N,-5137.8576,E,1,08,0.8,46.1,M,,,
1204$GPRMC,121741.969,A,-3005.4372,N,-5137.8576,E,44.3,246.0,000070,,,A
1205$GPGGA,121744.217,-3005.4444,N,-5137.8762,E,1,08,0.8,46.1,M,,,
1206$GPRMC,121744.217,A,-3005.4444,N,-5137.8762,E,44.3,246.0,000070,,,A
1207$GPGGA,121746.465,-3005.4516,N,-5137.8948,E,1,08,0.8,46.1,M,,,
1208$GPRMC,121746.465,A,-3005.4516,N,-5137.8948,E,44.3,246.0,000070,,,A
1209$GPGGA,121748.776,-3005.4588,N,-5137.9140,E,1,08,0.8,46.1,M,,,
1210$GPRMC,121748.776,A,-3005.4588,N,-5137.9140,E,44.3,246.0,000070,,,A
1211$GPGGA,121751.025,-3005.4660,N,-5137.9326,E,1,08,0.8,46.1,M,,,
1212$GPRMC,121751.025,A,-3005.4660,N,-5137.9326,E,44.3,246.0,000070,,,A
1213$GPGGA,121753.336,-3005.4732,N,-5137.9518,E,1,08,0.8,46.1,M,,,
1214$GPRMC,121753.336,A,-3005.4732,N,-5137.9518,E,44.3,246.0,000070,,,A
1215$GPGGA,121755.584,-3005.4804,N,-5137.9704,E,1,08,0.8,46.1,M,,,
1216$GPRMC,121755.584,A,-3005.4804,N,-5137.9704,E,44.3,246.0,000070,,,A
1217$GPGGA,121757.833,-3005.4876,N,-5137.9890,E,1,08,0.8,46.1,M,,,
1218$GPRMC,121757.833,A,-3005.4876,N,-5137.9890,E,44.3,246.0,000070,,,A
1219$GPGGA,121800.144,-3005.4948,N,-5138.0082,E,1,08,0.8,46.1,M,,,
1220$GPRMC,121800.144,A,-3005.4948,N,-5138.0082,E,44.3,246.0,000070,,,A
1221$GPGGA,121802.392,-3005.5020,N,-5138.0268,E,1,08,0.8,46.1,M,,,
1222$GPRMC,121802.392,A,-3005.5020,N,-5138.0268,E,44.3,246.0,000070,,,A
1223$GPGGA,121804.704,-3005.5092,N,-5138.0460,E,1,08,0.8,46.1,M,,,
1224$GPRMC,121804.704,A,-3005.5092,N,-5138.0460,E,44.3,246.0,000070,,,A
1225$GPGGA,121806.952,-3005.5164,N,-5138.0646,E,1,08,0.8,46.1,M,,,
1226$GPRMC,121806.952,A,-3005.5164,N,-5138.0646,E,44.3,246.0,000070,,,A
1227$GPGGA,121809.200,-3005.5236,N,-5138.0832,E,1,08,0.8,46.1,M,,,
1228$GPRMC,121809.200,A,-3005.5236,N,-5138.0832,E,44.3,246.0,000070,,,A
1229$GPGGA,121811.511,-3005.5308,N,-5138.1024,E,1,08,0.8,46.1,M,,,
1230$GPRMC,121811.511,A,-3005.5308,N,-5138.1024,E,44.3,246.0,000070,,,A
1231$GPGGA,121813.760,-3005.5380,N,-5138.1210,E,1,08,0.8,46.1,M,,,
1232$GPRMC,121813.760,A,-3005.5380,N,-5138.1210,E,44.3,246.0,000070,,,A
1233$GPGGA,121816.071,-3005.5452,N,-5138.1402,E,1,08,0.8,46.1,M,,,
1234$GPRMC,121816.071,A,-3005.5452,N,-5138.1402,E,44.3,246.0,000070,,,A
1235$GPGGA,121818.319,-3005.5524,N,-5138.1588,E,1,08,0.8,46.1,M,,,
1236$GPRMC,121818.319,A,-3005.5524,N,-5138.1588,E,44.3,246.0,000070,,,A
1237$GPGGA,121820.568,-3005.5596,N,-5138.1774,E,1,08,0.8,46.1,M,,,
1238$GPRMC,121820.568,A,-3005.5596,N,-5138.1774,E,44.3,246.0,000070,,,A
1239$GPGGA,121822.879,-3005.5668,N,-5138.1966,E,1,08,0.8,46.1,M,,,
1240$GPRMC,121822.879,A,-3005.5668,N,-5138.1966,E,44.3,246.0,000070,,,A
1241$GPGGA,121825.127,-3005.5740,N,-5138.2152,E,1,08,0.8,46.1,M,,,
1242$GPRMC,121825.127,A,-3005.5740,N,-5138.2152,E,44.3,246.0,000070,,,A
1243$GPGGA,121827.375,-3005.5812,N,-5138.2338,E,1,08,0.8,46.1,M,,,
1244$GPRMC,121827.375,A,-3005.5812,N,-5138.2338,E,44.3,246.0,000070,,,A
1245$GPGGA,121829.687,-3005.5884,N,-5138.2530,E,1,08,0.8,46.1,M,,,
1246$GPRMC,121829.687,A,-3005.5884,N,-5138.2530,E,44.3,246.0,000070,,,A
1247$GPGGA,121831.935,-3005.5956,N,-5138.2716,E,1,08,0.8,46.1,M,,,
1248$GPRMC,121831.935,A,-3005.5956,N,-5138.2716,E,44.3,246.0,000070,,,A
1249$GPGGA,121834.183,-3005.6028,N,-5138.2902,E,1,08,0.8,46.1,M,,,
1250$GPRMC,121834.183,A,-3005.6028,N,-5138.2902,E,44.3,246.0,000070,,,A
1251$GPGGA,121836.495,-3005.6100,N,-5138.3094,E,1,08,0.8,46.1,M,,,
1252$GPRMC,121836.495,A,-3005.6100,N,-5138.3094,E,44.3,246.0,000070,,,A
1253$GPGGA,121838.743,-3005.6172,N,-5138.3280,E,1,08,0.8,46.1,M,,,
1254$GPRMC,121838.743,A,-3005.6172,N,-5138.3280,E,44.3,246.0,000070,,,A
1255$GPGGA,121841.054,-3005.6244,N,-5138.3472,E,1,08,0.8,46.1,M,,,
1256$GPRMC,121841.054,A,-3005.6244,N,-5138.3472,E,44.3,247.0,000070,,,A
1257$GPGGA,121843.279,-3005.6310,N,-5138.3658,E,1,08,0.8,46.1,M,,,
1258$GPRMC,121843.279,A,-3005.6310,N,-5138.3658,E,44.3,247.0,000070,,,A
1259$GPGGA,121845.527,-3005.6382,N,-5138.3844,E,1,08,0.8,46.1,M,,,
1260$GPRMC,121845.527,A,-3005.6382,N,-5138.3844,E,44.3,246.0,000070,,,A
1261$GPGGA,121847.775,-3005.6454,N,-5138.4030,E,1,08,0.8,46.1,M,,,
1262$GPRMC,121847.775,A,-3005.6454,N,-5138.4030,E,44.3,246.0,000070,,,A
1263$GPGGA,121850.087,-3005.6526,N,-5138.4222,E,1,08,0.8,46.1,M,,,
1264$GPRMC,121850.087,A,-3005.6526,N,-5138.4222,E,44.3,246.0,000070,,,A
1265$GPGGA,121852.335,-3005.6598,N,-5138.4408,E,1,08,0.8,46.1,M,,,
1266$GPRMC,121852.335,A,-3005.6598,N,-5138.4408,E,44.3,246.0,000070,,,A
1267$GPGGA,121854.583,-3005.6670,N,-5138.4594,E,1,08,0.8,46.1,M,,,
1268$GPRMC,121854.583,A,-3005.6670,N,-5138.4594,E,44.3,246.0,000070,,,A
1269$GPGGA,121856.895,-3005.6742,N,-5138.4786,E,1,08,0.8,46.1,M,,,
1270$GPRMC,121856.895,A,-3005.6742,N,-5138.4786,E,44.3,246.0,000070,,,A
1271$GPGGA,121859.143,-3005.6814,N,-5138.4972,E,1,08,0.8,46.1,M,,,
1272$GPRMC,121859.143,A,-3005.6814,N,-5138.4972,E,44.3,246.0,000070,,,A
1273$GPGGA,121901.391,-3005.6886,N,-5138.5158,E,1,08,0.8,46.1,M,,,
1274$GPRMC,121901.391,A,-3005.6886,N,-5138.5158,E,44.3,246.0,000070,,,A
1275$GPGGA,121903.639,-3005.6958,N,-5138.5344,E,1,08,0.8,46.1,M,,,
1276$GPRMC,121903.639,A,-3005.6958,N,-5138.5344,E,44.3,246.0,000070,,,A
1277$GPGGA,121905.951,-3005.7030,N,-5138.5536,E,1,08,0.8,46.1,M,,,
1278$GPRMC,121905.951,A,-3005.7030,N,-5138.5536,E,44.3,246.0,000070,,,A
1279$GPGGA,121908.199,-3005.7102,N,-5138.5722,E,1,08,0.8,46.1,M,,,
1280$GPRMC,121908.199,A,-3005.7102,N,-5138.5722,E,44.3,246.0,000070,,,A
1281$GPGGA,121910.447,-3005.7174,N,-5138.5908,E,1,08,0.8,46.1,M,,,
1282$GPRMC,121910.447,A,-3005.7174,N,-5138.5908,E,44.3,247.0,000070,,,A
1283$GPGGA,121912.672,-3005.7240,N,-5138.6094,E,1,08,0.8,46.1,M,,,
1284$GPRMC,121912.672,A,-3005.7240,N,-5138.6094,E,44.3,247.0,000070,,,A
1285$GPGGA,121914.983,-3005.7312,N,-5138.6286,E,1,08,0.8,46.1,M,,,
1286$GPRMC,121914.983,A,-3005.7312,N,-5138.6286,E,44.3,246.0,000070,,,A
1287$GPGGA,121917.232,-3005.7384,N,-5138.6472,E,1,08,0.8,46.1,M,,,
1288$GPRMC,121917.232,A,-3005.7384,N,-5138.6472,E,44.3,246.0,000070,,,A
1289$GPGGA,121919.480,-3005.7456,N,-5138.6658,E,1,08,0.8,46.1,M,,,
1290$GPRMC,121919.480,A,-3005.7456,N,-5138.6658,E,44.3,246.0,000070,,,A
1291$GPGGA,121921.791,-3005.7528,N,-5138.6850,E,1,08,0.8,46.1,M,,,
1292$GPRMC,121921.791,A,-3005.7528,N,-5138.6850,E,44.3,246.0,000070,,,A
1293$GPGGA,121924.039,-3005.7600,N,-5138.7036,E,1,08,0.8,46.1,M,,,
1294$GPRMC,121924.039,A,-3005.7600,N,-5138.7036,E,44.3,246.0,000070,,,A
1295$GPGGA,121926.351,-3005.7672,N,-5138.7228,E,1,08,0.8,46.1,M,,,
1296$GPRMC,121926.351,A,-3005.7672,N,-5138.7228,E,44.3,246.0,000070,,,A
1297$GPGGA,121928.599,-3005.7744,N,-5138.7414,E,1,08,0.8,46.1,M,,,
1298$GPRMC,121928.599,A,-3005.7744,N,-5138.7414,E,44.3,246.0,000070,,,A
1299$GPGGA,121930.847,-3005.7816,N,-5138.7600,E,1,08,0.8,46.1,M,,,
1300$GPRMC,121930.847,A,-3005.7816,N,-5138.7600,E,44.3,246.0,000070,,,A
1301$GPGGA,121933.159,-3005.7888,N,-5138.7792,E,1,08,0.8,46.1,M,,,
1302$GPRMC,121933.159,A,-3005.7888,N,-5138.7792,E,44.3,246.0,000070,,,A
1303$GPGGA,121935.407,-3005.7960,N,-5138.7978,E,1,08,0.8,46.1,M,,,
1304$GPRMC,121935.407,A,-3005.7960,N,-5138.7978,E,44.3,246.0,000070,,,A
1305$GPGGA,121937.655,-3005.8032,N,-5138.8164,E,1,08,0.8,46.1,M,,,
1306$GPRMC,121937.655,A,-3005.8032,N,-5138.8164,E,44.3,246.0,000070,,,A
1307$GPGGA,121939.967,-3005.8104,N,-5138.8356,E,1,08,0.8,46.1,M,,,
1308$GPRMC,121939.967,A,-3005.8104,N,-5138.8356,E,44.3,246.0,000070,,,A
1309$GPGGA,121942.215,-3005.8176,N,-5138.8542,E,1,08,0.8,46.1,M,,,
1310$GPRMC,121942.215,A,-3005.8176,N,-5138.8542,E,44.3,246.0,000070,,,A
1311$GPGGA,121944.463,-3005.8248,N,-5138.8728,E,1,08,0.8,46.1,M,,,
1312$GPRMC,121944.463,A,-3005.8248,N,-5138.8728,E,44.3,246.0,000070,,,A
1313$GPGGA,121946.774,-3005.8320,N,-5138.8920,E,1,08,0.8,46.1,M,,,
1314$GPRMC,121946.774,A,-3005.8320,N,-5138.8920,E,44.3,246.0,000070,,,A
1315$GPGGA,121949.023,-3005.8392,N,-5138.9106,E,1,08,0.8,46.1,M,,,
1316$GPRMC,121949.023,A,-3005.8392,N,-5138.9106,E,44.3,246.0,000070,,,A
1317$GPGGA,121951.334,-3005.8464,N,-5138.9298,E,1,08,0.8,46.1,M,,,
1318$GPRMC,121951.334,A,-3005.8464,N,-5138.9298,E,44.3,246.0,000070,,,A
1319$GPGGA,121953.582,-3005.8536,N,-5138.9484,E,1,08,0.8,46.1,M,,,
1320$GPRMC,121953.582,A,-3005.8536,N,-5138.9484,E,44.3,246.0,000070,,,A
1321$GPGGA,121955.831,-3005.8608,N,-5138.9670,E,1,08,0.8,46.1,M,,,
1322$GPRMC,121955.831,A,-3005.8608,N,-5138.9670,E,44.3,246.0,000070,,,A
1323$GPGGA,121958.142,-3005.8680,N,-5138.9862,E,1,08,0.8,46.1,M,,,
1324$GPRMC,121958.142,A,-3005.8680,N,-5138.9862,E,44.3,246.0,000070,,,A
1325$GPGGA,122000.390,-3005.8752,N,-5139.0048,E,1,08,0.8,46.1,M,,,
1326$GPRMC,122000.390,A,-3005.8752,N,-5139.0048,E,44.3,246.0,000070,,,A
1327$GPGGA,122002.702,-3005.8824,N,-5139.0240,E,1,08,0.8,46.1,M,,,
1328$GPRMC,122002.702,A,-3005.8824,N,-5139.0240,E,44.3,246.0,000070,,,A
1329$GPGGA,122004.950,-3005.8896,N,-5139.0426,E,1,08,0.8,46.1,M,,,
1330$GPRMC,122004.950,A,-3005.8896,N,-5139.0426,E,44.3,246.0,000070,,,A
1331$GPGGA,122007.198,-3005.8968,N,-5139.0612,E,1,08,0.8,46.1,M,,,
1332$GPRMC,122007.198,A,-3005.8968,N,-5139.0612,E,44.3,246.0,000070,,,A
1333$GPGGA,122009.446,-3005.9040,N,-5139.0798,E,1,08,0.8,46.1,M,,,
1334$GPRMC,122009.446,A,-3005.9040,N,-5139.0798,E,44.3,246.0,000070,,,A
1335$GPGGA,122011.694,-3005.9112,N,-5139.0984,E,1,08,0.8,46.1,M,,,
1336$GPRMC,122011.694,A,-3005.9112,N,-5139.0984,E,44.3,246.0,000070,,,A
1337$GPGGA,122014.006,-3005.9184,N,-5139.1176,E,1,08,0.8,46.1,M,,,
1338$GPRMC,122014.006,A,-3005.9184,N,-5139.1176,E,44.3,247.0,000070,,,A
1339$GPGGA,122016.317,-3005.9256,N,-5139.1368,E,1,08,0.8,46.1,M,,,
1340$GPRMC,122016.317,A,-3005.9256,N,-5139.1368,E,44.3,246.0,000070,,,A
1341$GPGGA,122018.566,-3005.9328,N,-5139.1554,E,1,08,0.8,46.1,M,,,
1342$GPRMC,122018.566,A,-3005.9328,N,-5139.1554,E,44.3,246.0,000070,,,A
1343$GPGGA,122020.877,-3005.9400,N,-5139.1746,E,1,08,0.8,46.1,M,,,
1344$GPRMC,122020.877,A,-3005.9400,N,-5139.1746,E,44.3,245.0,000070,,,A
1345$GPGGA,122023.150,-3005.9478,N,-5139.1932,E,1,08,0.8,46.1,M,,,
1346$GPRMC,122023.150,A,-3005.9478,N,-5139.1932,E,44.3,245.0,000070,,,A
1347$GPGGA,122025.399,-3005.9550,N,-5139.2118,E,1,08,0.8,46.1,M,,,
1348$GPRMC,122025.399,A,-3005.9550,N,-5139.2118,E,44.3,246.0,000070,,,A
1349$GPGGA,122027.710,-3005.9622,N,-5139.2310,E,1,08,0.8,46.1,M,,,
1350$GPRMC,122027.710,A,-3005.9622,N,-5139.2310,E,44.3,246.0,000070,,,A
1351$GPGGA,122029.958,-3005.9694,N,-5139.2496,E,1,08,0.8,46.1,M,,,
1352$GPRMC,122029.958,A,-3005.9694,N,-5139.2496,E,44.3,246.0,000070,,,A
1353$GPGGA,122032.270,-3005.9766,N,-5139.2688,E,1,08,0.8,46.1,M,,,
1354$GPRMC,122032.270,A,-3005.9766,N,-5139.2688,E,44.3,246.0,000070,,,A
1355$GPGGA,122034.518,-3005.9838,N,-5139.2874,E,1,08,0.8,46.1,M,,,
1356$GPRMC,122034.518,A,-3005.9838,N,-5139.2874,E,44.3,246.0,000070,,,A
1357$GPGGA,122036.766,-3005.9910,N,-5139.3060,E,1,08,0.8,46.1,M,,,
1358$GPRMC,122036.766,A,-3005.9910,N,-5139.3060,E,44.3,246.0,000070,,,A
1359$GPGGA,122039.078,-3005.9982,N,-5139.3252,E,1,08,0.8,46.1,M,,,
1360$GPRMC,122039.078,A,-3005.9982,N,-5139.3252,E,44.3,246.0,000070,,,A
1361$GPGGA,122041.326,-3006.0054,N,-5139.3438,E,1,08,0.8,46.1,M,,,
1362$GPRMC,122041.326,A,-3006.0054,N,-5139.3438,E,44.3,246.0,000070,,,A
1363$GPGGA,122043.574,-3006.0126,N,-5139.3624,E,1,08,0.8,46.1,M,,,
1364$GPRMC,122043.574,A,-3006.0126,N,-5139.3624,E,44.3,245.0,000070,,,A
1365$GPGGA,122045.910,-3006.0204,N,-5139.3816,E,1,08,0.8,46.1,M,,,
1366$GPRMC,122045.910,A,-3006.0204,N,-5139.3816,E,44.3,246.0,000070,,,A
1367$GPGGA,122048.071,-3006.0270,N,-5139.3996,E,1,08,0.8,46.1,M,,,
1368$GPRMC,122048.071,A,-3006.0270,N,-5139.3996,E,44.3,246.0,000070,,,A
1369$GPGGA,122050.319,-3006.0342,N,-5139.4182,E,1,08,0.8,46.1,M,,,
1370$GPRMC,122050.319,A,-3006.0342,N,-5139.4182,E,44.3,246.0,000070,,,A
1371$GPGGA,122052.631,-3006.0414,N,-5139.4374,E,1,08,0.8,46.1,M,,,
1372$GPRMC,122052.631,A,-3006.0414,N,-5139.4374,E,44.3,246.0,000070,,,A
1373$GPGGA,122054.816,-3006.0486,N,-5139.4554,E,1,08,0.8,46.1,M,,,
1374$GPRMC,122054.816,A,-3006.0486,N,-5139.4554,E,44.3,245.0,000070,,,A
1375$GPGGA,122057.064,-3006.0558,N,-5139.4740,E,1,08,0.8,46.1,M,,,
1376$GPRMC,122057.064,A,-3006.0558,N,-5139.4740,E,44.3,246.0,000070,,,A
1377$GPGGA,122059.225,-3006.0624,N,-5139.4920,E,1,08,0.8,46.1,M,,,
1378$GPRMC,122059.225,A,-3006.0624,N,-5139.4920,E,44.3,246.0,000070,,,A
1379$GPGGA,122101.561,-3006.0702,N,-5139.5112,E,1,08,0.8,46.1,M,,,
1380$GPRMC,122101.561,A,-3006.0702,N,-5139.5112,E,44.3,246.0,000070,,,A
1381$GPGGA,122103.786,-3006.0768,N,-5139.5298,E,1,08,0.8,46.1,M,,,
1382$GPRMC,122103.786,A,-3006.0768,N,-5139.5298,E,44.3,247.0,000070,,,A
1383$GPGGA,122106.034,-3006.0840,N,-5139.5484,E,1,08,0.8,46.1,M,,,
1384$GPRMC,122106.034,A,-3006.0840,N,-5139.5484,E,44.3,246.0,000070,,,A
1385$GPGGA,122108.283,-3006.0912,N,-5139.5670,E,1,08,0.8,46.1,M,,,
1386$GPRMC,122108.283,A,-3006.0912,N,-5139.5670,E,44.3,246.0,000070,,,A
1387$GPGGA,122110.594,-3006.0984,N,-5139.5862,E,1,08,0.8,46.1,M,,,
1388$GPRMC,122110.594,A,-3006.0984,N,-5139.5862,E,44.3,246.0,000070,,,A
1389$GPGGA,122112.842,-3006.1056,N,-5139.6048,E,1,08,0.8,46.1,M,,,
1390$GPRMC,122112.842,A,-3006.1056,N,-5139.6048,E,44.3,246.0,000070,,,A
1391$GPGGA,122115.090,-3006.1128,N,-5139.6234,E,1,08,0.8,46.1,M,,,
1392$GPRMC,122115.090,A,-3006.1128,N,-5139.6234,E,44.3,246.0,000070,,,A
1393$GPGGA,122117.402,-3006.1200,N,-5139.6426,E,1,08,0.8,46.1,M,,,
1394$GPRMC,122117.402,A,-3006.1200,N,-5139.6426,E,44.3,246.0,000070,,,A
1395$GPGGA,122119.650,-3006.1272,N,-5139.6612,E,1,08,0.8,46.1,M,,,
1396$GPRMC,122119.650,A,-3006.1272,N,-5139.6612,E,44.3,245.0,000070,,,A
1397$GPGGA,122121.986,-3006.1350,N,-5139.6804,E,1,08,0.8,46.1,M,,,
1398$GPRMC,122121.986,A,-3006.1350,N,-5139.6804,E,44.3,245.0,000070,,,A
1399$GPGGA,122124.234,-3006.1422,N,-5139.6990,E,1,08,0.8,46.1,M,,,
1400$GPRMC,122124.234,A,-3006.1422,N,-5139.6990,E,44.3,246.0,000070,,,A
1401$GPGGA,122126.546,-3006.1494,N,-5139.7182,E,1,08,0.8,46.1,M,,,
1402$GPRMC,122126.546,A,-3006.1494,N,-5139.7182,E,44.3,246.0,000070,,,A
1403$GPGGA,122128.794,-3006.1566,N,-5139.7368,E,1,08,0.8,46.1,M,,,
1404$GPRMC,122128.794,A,-3006.1566,N,-5139.7368,E,44.3,246.0,000070,,,A
1405$GPGGA,122131.042,-3006.1638,N,-5139.7554,E,1,08,0.8,46.1,M,,,
1406$GPRMC,122131.042,A,-3006.1638,N,-5139.7554,E,44.3,246.0,000070,,,A
1407$GPGGA,122133.354,-3006.1710,N,-5139.7746,E,1,08,0.8,46.1,M,,,
1408$GPRMC,122133.354,A,-3006.1710,N,-5139.7746,E,44.3,246.0,000070,,,A
1409$GPGGA,122135.602,-3006.1782,N,-5139.7932,E,1,08,0.8,46.1,M,,,
1410$GPRMC,122135.602,A,-3006.1782,N,-5139.7932,E,44.3,246.0,000070,,,A
1411$GPGGA,122137.850,-3006.1854,N,-5139.8118,E,1,08,0.8,46.1,M,,,
1412$GPRMC,122137.850,A,-3006.1854,N,-5139.8118,E,44.3,246.0,000070,,,A
1413$GPGGA,122140.161,-3006.1926,N,-5139.8310,E,1,08,0.8,46.1,M,,,
1414$GPRMC,122140.161,A,-3006.1926,N,-5139.8310,E,44.3,246.0,000070,,,A
1415$GPGGA,122142.410,-3006.1998,N,-5139.8496,E,1,08,0.8,46.1,M,,,
1416$GPRMC,122142.410,A,-3006.1998,N,-5139.8496,E,44.3,246.0,000070,,,A
1417$GPGGA,122144.658,-3006.2070,N,-5139.8682,E,1,08,0.8,46.1,M,,,
1418$GPRMC,122144.658,A,-3006.2070,N,-5139.8682,E,44.3,246.0,000070,,,A
1419$GPGGA,122146.906,-3006.2142,N,-5139.8868,E,1,08,0.8,46.1,M,,,
1420$GPRMC,122146.906,A,-3006.2142,N,-5139.8868,E,44.3,246.0,000070,,,A
1421$GPGGA,122149.218,-3006.2214,N,-5139.9060,E,1,08,0.8,46.1,M,,,
1422$GPRMC,122149.218,A,-3006.2214,N,-5139.9060,E,44.3,247.0,000070,,,A
1423$GPGGA,122151.442,-3006.2280,N,-5139.9246,E,1,08,0.8,46.1,M,,,
1424$GPRMC,122151.442,A,-3006.2280,N,-5139.9246,E,44.3,247.0,000070,,,A
1425$GPGGA,122153.690,-3006.2352,N,-5139.9432,E,1,08,0.8,46.1,M,,,
1426$GPRMC,122153.690,A,-3006.2352,N,-5139.9432,E,44.3,246.0,000070,,,A
1427$GPGGA,122156.002,-3006.2424,N,-5139.9624,E,1,08,0.8,46.1,M,,,
1428$GPRMC,122156.002,A,-3006.2424,N,-5139.9624,E,44.3,246.0,000070,,,A
1429$GPGGA,122158.250,-3006.2496,N,-5139.9810,E,1,08,0.8,46.1,M,,,
1430$GPRMC,122158.250,A,-3006.2496,N,-5139.9810,E,44.3,246.0,000070,,,A
1431$GPGGA,122200.498,-3006.2568,N,-5139.9996,E,1,08,0.8,46.1,M,,,
1432$GPRMC,122200.498,A,-3006.2568,N,-5139.9996,E,44.3,247.0,000070,,,A
1433$GPGGA,122202.723,-3006.2634,N,-5140.0182,E,1,08,0.8,46.1,M,,,
1434$GPRMC,122202.723,A,-3006.2634,N,-5140.0182,E,44.3,247.0,000070,,,A
1435$GPGGA,122204.971,-3006.2706,N,-5140.0368,E,1,08,0.8,46.1,M,,,
1436$GPRMC,122204.971,A,-3006.2706,N,-5140.0368,E,44.3,246.0,000070,,,A
1437$GPGGA,122207.283,-3006.2778,N,-5140.0560,E,1,08,0.8,46.1,M,,,
1438$GPRMC,122207.283,A,-3006.2778,N,-5140.0560,E,44.3,246.0,000070,,,A
1439$GPGGA,122209.531,-3006.2850,N,-5140.0746,E,1,08,0.8,46.1,M,,,
1440$GPRMC,122209.531,A,-3006.2850,N,-5140.0746,E,44.3,245.0,000070,,,A
1441$GPGGA,122211.867,-3006.2928,N,-5140.0938,E,1,08,0.8,46.1,M,,,
1442$GPRMC,122211.867,A,-3006.2928,N,-5140.0938,E,44.3,245.0,000070,,,A
1443$GPGGA,122214.115,-3006.3000,N,-5140.1124,E,1,08,0.8,46.1,M,,,
1444$GPRMC,122214.115,A,-3006.3000,N,-5140.1124,E,44.3,246.0,000070,,,A
1445$GPGGA,122216.363,-3006.3072,N,-5140.1310,E,1,08,0.8,46.1,M,,,
1446$GPRMC,122216.363,A,-3006.3072,N,-5140.1310,E,44.3,246.0,000070,,,A
1447$GPGGA,122218.675,-3006.3144,N,-5140.1502,E,1,08,0.8,46.1,M,,,
1448$GPRMC,122218.675,A,-3006.3144,N,-5140.1502,E,44.3,246.0,000070,,,A
1449$GPGGA,122220.923,-3006.3216,N,-5140.1688,E,1,08,0.8,46.1,M,,,
1450$GPRMC,122220.923,A,-3006.3216,N,-5140.1688,E,44.3,246.0,000070,,,A
1451$GPGGA,122223.234,-3006.3288,N,-5140.1880,E,1,08,0.8,46.1,M,,,
1452$GPRMC,122223.234,A,-3006.3288,N,-5140.1880,E,44.3,246.0,000070,,,A
1453$GPGGA,122225.483,-3006.3360,N,-5140.2066,E,1,08,0.8,46.1,M,,,
1454$GPRMC,122225.483,A,-3006.3360,N,-5140.2066,E,44.3,246.0,000070,,,A
1455$GPGGA,122227.731,-3006.3432,N,-5140.2252,E,1,08,0.8,46.1,M,,,
1456$GPRMC,122227.731,A,-3006.3432,N,-5140.2252,E,44.3,246.0,000070,,,A
1457$GPGGA,122230.042,-3006.3504,N,-5140.2444,E,1,08,0.8,46.1,M,,,
1458$GPRMC,122230.042,A,-3006.3504,N,-5140.2444,E,44.3,252.0,000070,,,A
1459$GPGGA,122232.311,-3006.3540,N,-5140.2642,E,1,08,0.8,46.1,M,,,
1460$GPRMC,122232.311,A,-3006.3540,N,-5140.2642,E,44.3,259.0,000070,,,A
1461$GPGGA,122234.635,-3006.3570,N,-5140.2846,E,1,08,0.8,46.1,M,,,
1462$GPRMC,122234.635,A,-3006.3570,N,-5140.2846,E,44.3,260.0,000070,,,A
1463$GPGGA,122236.959,-3006.3600,N,-5140.3050,E,1,08,0.8,46.1,M,,,
1464$GPRMC,122236.959,A,-3006.3600,N,-5140.3050,E,44.3,260.0,000070,,,A
1465$GPGGA,122239.283,-3006.3630,N,-5140.3254,E,1,08,0.8,46.1,M,,,
1466$GPRMC,122239.283,A,-3006.3630,N,-5140.3254,E,44.3,260.0,000070,,,A
1467$GPGGA,122241.541,-3006.3660,N,-5140.3452,E,1,08,0.8,46.1,M,,,
1468$GPRMC,122241.541,A,-3006.3660,N,-5140.3452,E,44.3,260.0,000070,,,A
1469$GPGGA,122243.865,-3006.3690,N,-5140.3656,E,1,08,0.8,46.1,M,,,
1470$GPRMC,122243.865,A,-3006.3690,N,-5140.3656,E,44.3,260.0,000070,,,A
1471$GPGGA,122246.189,-3006.3720,N,-5140.3860,E,1,08,0.8,46.1,M,,,
1472$GPRMC,122246.189,A,-3006.3720,N,-5140.3860,E,44.3,260.0,000070,,,A
1473$GPGGA,122248.514,-3006.3750,N,-5140.4064,E,1,08,0.8,46.1,M,,,
1474$GPRMC,122248.514,A,-3006.3750,N,-5140.4064,E,44.3,260.0,000070,,,A
1475$GPGGA,122250.838,-3006.3780,N,-5140.4268,E,1,08,0.8,46.1,M,,,
1476$GPRMC,122250.838,A,-3006.3780,N,-5140.4268,E,44.3,260.0,000070,,,A
1477$GPGGA,122253.162,-3006.3810,N,-5140.4472,E,1,08,0.8,46.1,M,,,
1478$GPRMC,122253.162,A,-3006.3810,N,-5140.4472,E,44.3,260.0,000070,,,A
1479$GPGGA,122255.419,-3006.3840,N,-5140.4670,E,1,08,0.8,46.1,M,,,
1480$GPRMC,122255.419,A,-3006.3840,N,-5140.4670,E,44.3,260.0,000070,,,A
1481$GPGGA,122257.744,-3006.3870,N,-5140.4874,E,1,08,0.8,46.1,M,,,
1482$GPRMC,122257.744,A,-3006.3870,N,-5140.4874,E,44.3,260.0,000070,,,A
1483$GPGGA,122300.068,-3006.3900,N,-5140.5078,E,1,08,0.8,46.1,M,,,
1484$GPRMC,122300.068,A,-3006.3900,N,-5140.5078,E,44.3,260.0,000070,,,A
1485$GPGGA,122302.392,-3006.3930,N,-5140.5282,E,1,08,0.8,46.1,M,,,
1486$GPRMC,122302.392,A,-3006.3930,N,-5140.5282,E,44.3,260.0,000070,,,A
1487$GPGGA,122304.716,-3006.3960,N,-5140.5486,E,1,08,0.8,46.1,M,,,
1488$GPRMC,122304.716,A,-3006.3960,N,-5140.5486,E,44.3,260.0,000070,,,A
1489$GPGGA,122307.041,-3006.3990,N,-5140.5690,E,1,08,0.8,46.1,M,,,
1490$GPRMC,122307.041,A,-3006.3990,N,-5140.5690,E,44.3,260.0,000070,,,A
1491$GPGGA,122309.298,-3006.4020,N,-5140.5888,E,1,08,0.8,46.1,M,,,
1492$GPRMC,122309.298,A,-3006.4020,N,-5140.5888,E,44.3,260.0,000070,,,A
1493$GPGGA,122311.622,-3006.4050,N,-5140.6092,E,1,08,0.8,46.1,M,,,
1494$GPRMC,122311.622,A,-3006.4050,N,-5140.6092,E,44.3,260.0,000070,,,A
1495$GPGGA,122313.947,-3006.4080,N,-5140.6296,E,1,08,0.8,46.1,M,,,
1496$GPRMC,122313.947,A,-3006.4080,N,-5140.6296,E,44.3,259.0,000070,,,A
1497$GPGGA,122316.282,-3006.4116,N,-5140.6500,E,1,08,0.8,46.1,M,,,
1498$GPRMC,122316.282,A,-3006.4116,N,-5140.6500,E,44.3,259.0,000070,,,A
1499$GPGGA,122318.606,-3006.4146,N,-5140.6704,E,1,08,0.8,46.1,M,,,
1500$GPRMC,122318.606,A,-3006.4146,N,-5140.6704,E,44.3,260.0,000070,,,A
1501$GPGGA,122320.863,-3006.4176,N,-5140.6902,E,1,08,0.8,46.1,M,,,
1502$GPRMC,122320.863,A,-3006.4176,N,-5140.6902,E,44.3,260.0,000070,,,A
1503$GPGGA,122323.187,-3006.4206,N,-5140.7106,E,1,08,0.8,46.1,M,,,
1504$GPRMC,122323.187,A,-3006.4206,N,-5140.7106,E,44.3,260.0,000070,,,A
1505$GPGGA,122325.512,-3006.4236,N,-5140.7310,E,1,08,0.8,46.1,M,,,
1506$GPRMC,122325.512,A,-3006.4236,N,-5140.7310,E,44.3,260.0,000070,,,A
1507$GPGGA,122327.836,-3006.4266,N,-5140.7514,E,1,08,0.8,46.1,M,,,
1508$GPRMC,122327.836,A,-3006.4266,N,-5140.7514,E,44.3,260.0,000070,,,A
1509$GPGGA,122330.160,-3006.4296,N,-5140.7718,E,1,08,0.8,46.1,M,,,
1510$GPRMC,122330.160,A,-3006.4296,N,-5140.7718,E,44.3,260.0,000070,,,A
1511$GPGGA,122332.484,-3006.4326,N,-5140.7922,E,1,08,0.8,46.1,M,,,
1512$GPRMC,122332.484,A,-3006.4326,N,-5140.7922,E,44.3,260.0,000070,,,A
1513$GPGGA,122334.742,-3006.4356,N,-5140.8120,E,1,08,0.8,46.1,M,,,
1514$GPRMC,122334.742,A,-3006.4356,N,-5140.8120,E,44.3,260.0,000070,,,A
1515$GPGGA,122337.066,-3006.4386,N,-5140.8324,E,1,08,0.8,46.1,M,,,
1516$GPRMC,122337.066,A,-3006.4386,N,-5140.8324,E,44.3,260.0,000070,,,A
1517$GPGGA,122339.390,-3006.4416,N,-5140.8528,E,1,08,0.8,46.1,M,,,
1518$GPRMC,122339.390,A,-3006.4416,N,-5140.8528,E,44.3,260.0,000070,,,A
1519$GPGGA,122341.715,-3006.4446,N,-5140.8732,E,1,08,0.8,46.1,M,,,
1520$GPRMC,122341.715,A,-3006.4446,N,-5140.8732,E,44.3,260.0,000070,,,A
1521$GPGGA,122344.039,-3006.4476,N,-5140.8936,E,1,08,0.8,46.1,M,,,
1522$GPRMC,122344.039,A,-3006.4476,N,-5140.8936,E,44.3,260.0,000070,,,A
1523$GPGGA,122346.296,-3006.4506,N,-5140.9134,E,1,08,0.8,46.1,M,,,
1524$GPRMC,122346.296,A,-3006.4506,N,-5140.9134,E,44.3,260.0,000070,,,A
1525$GPGGA,122348.620,-3006.4536,N,-5140.9338,E,1,08,0.8,46.1,M,,,
1526$GPRMC,122348.620,A,-3006.4536,N,-5140.9338,E,44.3,260.0,000070,,,A
1527$GPGGA,122350.945,-3006.4566,N,-5140.9542,E,1,08,0.8,46.1,M,,,
1528$GPRMC,122350.945,A,-3006.4566,N,-5140.9542,E,44.3,260.0,000070,,,A
1529$GPGGA,122353.269,-3006.4596,N,-5140.9746,E,1,08,0.8,46.1,M,,,
1530$GPRMC,122353.269,A,-3006.4596,N,-5140.9746,E,44.3,260.0,000070,,,A
1531$GPGGA,122355.593,-3006.4626,N,-5140.9950,E,1,08,0.8,46.1,M,,,
1532$GPRMC,122355.593,A,-3006.4626,N,-5140.9950,E,44.3,260.0,000070,,,A
1533$GPGGA,122357.917,-3006.4656,N,-5141.0154,E,1,08,0.8,46.1,M,,,
1534$GPRMC,122357.917,A,-3006.4656,N,-5141.0154,E,44.3,260.0,000070,,,A
1535$GPGGA,122400.175,-3006.4686,N,-5141.0352,E,1,08,0.8,46.1,M,,,
1536$GPRMC,122400.175,A,-3006.4686,N,-5141.0352,E,44.3,260.0,000070,,,A
1537$GPGGA,122402.499,-3006.4716,N,-5141.0556,E,1,08,0.8,46.1,M,,,
1538$GPRMC,122402.499,A,-3006.4716,N,-5141.0556,E,44.3,260.0,000070,,,A
1539$GPGGA,122404.823,-3006.4746,N,-5141.0760,E,1,08,0.8,46.1,M,,,
1540$GPRMC,122404.823,A,-3006.4746,N,-5141.0760,E,44.3,260.0,000070,,,A
1541$GPGGA,122407.147,-3006.4776,N,-5141.0964,E,1,08,0.8,46.1,M,,,
1542$GPRMC,122407.147,A,-3006.4776,N,-5141.0964,E,44.3,260.0,000070,,,A
1543$GPGGA,122409.472,-3006.4806,N,-5141.1168,E,1,08,0.8,46.1,M,,,
1544$GPRMC,122409.472,A,-3006.4806,N,-5141.1168,E,44.3,259.0,000070,,,A
1545$GPGGA,122411.807,-3006.4842,N,-5141.1372,E,1,08,0.8,46.1,M,,,
1546$GPRMC,122411.807,A,-3006.4842,N,-5141.1372,E,44.3,265.0,000070,,,A
1547$GPGGA,122414.107,-3006.4836,N,-5141.1576,E,1,08,0.8,46.1,M,,,
1548$GPRMC,122414.107,A,-3006.4836,N,-5141.1576,E,44.3,273.0,000070,,,A
1549$GPGGA,122416.411,-3006.4824,N,-5141.1780,E,1,08,0.8,46.1,M,,,
1550$GPRMC,122416.411,A,-3006.4824,N,-5141.1780,E,44.3,274.0,000070,,,A
1551$GPGGA,122418.714,-3006.4812,N,-5141.1984,E,1,08,0.8,46.1,M,,,
1552$GPRMC,122418.714,A,-3006.4812,N,-5141.1984,E,44.3,274.0,000070,,,A
1553$GPGGA,122421.018,-3006.4800,N,-5141.2188,E,1,08,0.8,46.1,M,,,
1554$GPRMC,122421.018,A,-3006.4800,N,-5141.2188,E,44.3,274.0,000070,,,A
1555$GPGGA,122423.389,-3006.4788,N,-5141.2398,E,1,08,0.8,46.1,M,,,
1556$GPRMC,122423.389,A,-3006.4788,N,-5141.2398,E,44.3,274.0,000070,,,A
1557$GPGGA,122425.692,-3006.4776,N,-5141.2602,E,1,08,0.8,46.1,M,,,
1558$GPRMC,122425.692,A,-3006.4776,N,-5141.2602,E,44.3,274.0,000070,,,A
1559$GPGGA,122427.996,-3006.4764,N,-5141.2806,E,1,08,0.8,46.1,M,,,
1560$GPRMC,122427.996,A,-3006.4764,N,-5141.2806,E,44.3,274.0,000070,,,A
1561$GPGGA,122430.299,-3006.4752,N,-5141.3010,E,1,08,0.8,46.1,M,,,
1562$GPRMC,122430.299,A,-3006.4752,N,-5141.3010,E,44.3,274.0,000070,,,A
1563$GPGGA,122432.670,-3006.4740,N,-5141.3220,E,1,08,0.8,46.1,M,,,
1564$GPRMC,122432.670,A,-3006.4740,N,-5141.3220,E,44.3,274.0,000070,,,A
1565$GPGGA,122434.974,-3006.4728,N,-5141.3424,E,1,08,0.8,46.1,M,,,
1566$GPRMC,122434.974,A,-3006.4728,N,-5141.3424,E,44.3,274.0,000070,,,A
1567$GPGGA,122437.277,-3006.4716,N,-5141.3628,E,1,08,0.8,46.1,M,,,
1568$GPRMC,122437.277,A,-3006.4716,N,-5141.3628,E,44.3,274.0,000070,,,A
1569$GPGGA,122439.581,-3006.4704,N,-5141.3832,E,1,08,0.8,46.1,M,,,
1570$GPRMC,122439.581,A,-3006.4704,N,-5141.3832,E,44.3,275.0,000070,,,A
1571$GPGGA,122441.957,-3006.4686,N,-5141.4042,E,1,08,0.8,46.1,M,,,
1572$GPRMC,122441.957,A,-3006.4686,N,-5141.4042,E,44.3,275.0,000070,,,A
1573$GPGGA,122444.260,-3006.4674,N,-5141.4246,E,1,08,0.8,46.1,M,,,
1574$GPRMC,122444.260,A,-3006.4674,N,-5141.4246,E,44.3,274.0,000070,,,A
1575$GPGGA,122446.564,-3006.4662,N,-5141.4450,E,1,08,0.8,46.1,M,,,
1576$GPRMC,122446.564,A,-3006.4662,N,-5141.4450,E,44.3,274.0,000070,,,A
1577$GPGGA,122448.867,-3006.4650,N,-5141.4654,E,1,08,0.8,46.1,M,,,
1578$GPRMC,122448.867,A,-3006.4650,N,-5141.4654,E,44.3,274.0,000070,,,A
1579$GPGGA,122451.171,-3006.4638,N,-5141.4858,E,1,08,0.8,46.1,M,,,
1580$GPRMC,122451.171,A,-3006.4638,N,-5141.4858,E,44.3,274.0,000070,,,A
1581$GPGGA,122453.542,-3006.4626,N,-5141.5068,E,1,08,0.8,46.1,M,,,
1582$GPRMC,122453.542,A,-3006.4626,N,-5141.5068,E,44.3,274.0,000070,,,A
1583$GPGGA,122455.845,-3006.4614,N,-5141.5272,E,1,08,0.8,46.1,M,,,
1584$GPRMC,122455.845,A,-3006.4614,N,-5141.5272,E,44.3,274.0,000070,,,A
1585$GPGGA,122458.149,-3006.4602,N,-5141.5476,E,1,08,0.8,46.1,M,,,
1586$GPRMC,122458.149,A,-3006.4602,N,-5141.5476,E,44.3,274.0,000070,,,A
1587$GPGGA,122500.452,-3006.4590,N,-5141.5680,E,1,08,0.8,46.1,M,,,
1588$GPRMC,122500.452,A,-3006.4590,N,-5141.5680,E,44.3,275.0,000070,,,A
1589$GPGGA,122502.760,-3006.4572,N,-5141.5884,E,1,08,0.8,46.1,M,,,
1590$GPRMC,122502.760,A,-3006.4572,N,-5141.5884,E,44.3,275.0,000070,,,A
1591$GPGGA,122505.064,-3006.4560,N,-5141.6088,E,1,08,0.8,46.1,M,,,
1592$GPRMC,122505.064,A,-3006.4560,N,-5141.6088,E,44.3,274.0,000070,,,A
1593$GPGGA,122507.435,-3006.4548,N,-5141.6298,E,1,08,0.8,46.1,M,,,
1594$GPRMC,122507.435,A,-3006.4548,N,-5141.6298,E,44.3,274.0,000070,,,A
1595$GPGGA,122509.738,-3006.4536,N,-5141.6502,E,1,08,0.8,46.1,M,,,
1596$GPRMC,122509.738,A,-3006.4536,N,-5141.6502,E,44.3,274.0,000070,,,A
1597$GPGGA,122512.042,-3006.4524,N,-5141.6706,E,1,08,0.8,46.1,M,,,
1598$GPRMC,122512.042,A,-3006.4524,N,-5141.6706,E,44.3,274.0,000070,,,A
1599$GPGGA,122514.345,-3006.4512,N,-5141.6910,E,1,08,0.8,46.1,M,,,
1600$GPRMC,122514.345,A,-3006.4512,N,-5141.6910,E,44.3,274.0,000070,,,A
1601$GPGGA,122516.649,-3006.4500,N,-5141.7114,E,1,08,0.8,46.1,M,,,
1602$GPRMC,122516.649,A,-3006.4500,N,-5141.7114,E,44.3,274.0,000070,,,A
1603$GPGGA,122518.952,-3006.4488,N,-5141.7318,E,1,08,0.8,46.1,M,,,
1604$GPRMC,122518.952,A,-3006.4488,N,-5141.7318,E,44.3,274.0,000070,,,A
1605$GPGGA,122521.323,-3006.4476,N,-5141.7528,E,1,08,0.8,46.1,M,,,
1606$GPRMC,122521.323,A,-3006.4476,N,-5141.7528,E,44.3,273.0,000070,,,A
1607$GPGGA,122523.624,-3006.4470,N,-5141.7732,E,1,08,0.8,46.1,M,,,
1608$GPRMC,122523.624,A,-3006.4470,N,-5141.7732,E,44.3,273.0,000070,,,A
1609$GPGGA,122525.927,-3006.4458,N,-5141.7936,E,1,08,0.8,46.1,M,,,
1610$GPRMC,122525.927,A,-3006.4458,N,-5141.7936,E,44.3,274.0,000070,,,A
1611$GPGGA,122528.231,-3006.4446,N,-5141.8140,E,1,08,0.8,46.1,M,,,
1612$GPRMC,122528.231,A,-3006.4446,N,-5141.8140,E,44.3,274.0,000070,,,A
1613$GPGGA,122530.602,-3006.4434,N,-5141.8350,E,1,08,0.8,46.1,M,,,
1614$GPRMC,122530.602,A,-3006.4434,N,-5141.8350,E,44.3,274.0,000070,,,A
1615$GPGGA,122532.905,-3006.4422,N,-5141.8554,E,1,08,0.8,46.1,M,,,
1616$GPRMC,122532.905,A,-3006.4422,N,-5141.8554,E,44.3,274.0,000070,,,A
1617$GPGGA,122535.209,-3006.4410,N,-5141.8758,E,1,08,0.8,46.1,M,,,
1618$GPRMC,122535.209,A,-3006.4410,N,-5141.8758,E,44.3,273.0,000070,,,A
1619$GPGGA,122537.509,-3006.4404,N,-5141.8962,E,1,08,0.8,46.1,M,,,
1620$GPRMC,122537.509,A,-3006.4404,N,-5141.8962,E,44.3,273.0,000070,,,A
1621$GPGGA,122539.880,-3006.4392,N,-5141.9172,E,1,08,0.8,46.1,M,,,
1622$GPRMC,122539.880,A,-3006.4392,N,-5141.9172,E,44.3,274.0,000070,,,A
1623$GPGGA,122542.184,-3006.4380,N,-5141.9376,E,1,08,0.8,46.1,M,,,
1624$GPRMC,122542.184,A,-3006.4380,N,-5141.9376,E,44.3,274.0,000070,,,A
1625$GPGGA,122544.487,-3006.4368,N,-5141.9580,E,1,08,0.8,46.1,M,,,
1626$GPRMC,122544.487,A,-3006.4368,N,-5141.9580,E,44.3,274.0,000070,,,A
1627$GPGGA,122546.791,-3006.4356,N,-5141.9784,E,1,08,0.8,46.1,M,,,
1628$GPRMC,122546.791,A,-3006.4356,N,-5141.9784,E,44.3,274.0,000070,,,A
1629$GPGGA,122549.162,-3006.4344,N,-5141.9994,E,1,08,0.8,46.1,M,,,
1630$GPRMC,122549.162,A,-3006.4344,N,-5141.9994,E,44.3,273.0,000070,,,A
1631$GPGGA,122551.462,-3006.4338,N,-5142.0198,E,1,08,0.8,46.1,M,,,
1632$GPRMC,122551.462,A,-3006.4338,N,-5142.0198,E,44.3,273.0,000070,,,A
1633$GPGGA,122553.766,-3006.4326,N,-5142.0402,E,1,08,0.8,46.1,M,,,
1634$GPRMC,122553.766,A,-3006.4326,N,-5142.0402,E,44.3,274.0,000070,,,A
1635$GPGGA,122556.137,-3006.4314,N,-5142.0612,E,1,08,0.8,46.1,M,,,
1636$GPRMC,122556.137,A,-3006.4314,N,-5142.0612,E,44.3,274.0,000070,,,A
1637$GPGGA,122558.440,-3006.4302,N,-5142.0816,E,1,08,0.8,46.1,M,,,
1638$GPRMC,122558.440,A,-3006.4302,N,-5142.0816,E,44.3,274.0,000070,,,A
1639$GPGGA,122600.744,-3006.4290,N,-5142.1020,E,1,08,0.8,46.1,M,,,
1640$GPRMC,122600.744,A,-3006.4290,N,-5142.1020,E,44.3,274.0,000070,,,A
1641$GPGGA,122603.047,-3006.4278,N,-5142.1224,E,1,08,0.8,46.1,M,,,
1642$GPRMC,122603.047,A,-3006.4278,N,-5142.1224,E,44.3,273.0,000070,,,A
1643$GPGGA,122605.416,-3006.4272,N,-5142.1434,E,1,08,0.8,46.1,M,,,
1644$GPRMC,122605.416,A,-3006.4272,N,-5142.1434,E,44.3,273.0,000070,,,A
1645$GPGGA,122607.719,-3006.4260,N,-5142.1638,E,1,08,0.8,46.1,M,,,
1646$GPRMC,122607.719,A,-3006.4260,N,-5142.1638,E,44.3,274.0,000070,,,A
1647$GPGGA,122610.023,-3006.4248,N,-5142.1842,E,1,08,0.8,46.1,M,,,
1648$GPRMC,122610.023,A,-3006.4248,N,-5142.1842,E,44.3,274.0,000070,,,A
1649$GPGGA,122612.326,-3006.4236,N,-5142.2046,E,1,08,0.8,46.1,M,,,
1650$GPRMC,122612.326,A,-3006.4236,N,-5142.2046,E,44.3,274.0,000070,,,A
1651$GPGGA,122614.697,-3006.4224,N,-5142.2256,E,1,08,0.8,46.1,M,,,
1652$GPRMC,122614.697,A,-3006.4224,N,-5142.2256,E,44.3,274.0,000070,,,A
1653$GPGGA,122617.001,-3006.4212,N,-5142.2460,E,1,08,0.8,46.1,M,,,
1654$GPRMC,122617.001,A,-3006.4212,N,-5142.2460,E,44.3,273.0,000070,,,A
1655$GPGGA,122619.301,-3006.4206,N,-5142.2664,E,1,08,0.8,46.1,M,,,
1656$GPRMC,122619.301,A,-3006.4206,N,-5142.2664,E,44.3,273.0,000070,,,A
1657$GPGGA,122621.605,-3006.4194,N,-5142.2868,E,1,08,0.8,46.1,M,,,
1658$GPRMC,122621.605,A,-3006.4194,N,-5142.2868,E,44.3,274.0,000070,,,A
1659$GPGGA,122623.976,-3006.4182,N,-5142.3078,E,1,08,0.8,46.1,M,,,
1660$GPRMC,122623.976,A,-3006.4182,N,-5142.3078,E,44.3,274.0,000070,,,A
1661$GPGGA,122626.279,-3006.4170,N,-5142.3282,E,1,08,0.8,46.1,M,,,
1662$GPRMC,122626.279,A,-3006.4170,N,-5142.3282,E,44.3,274.0,000070,,,A
1663$GPGGA,122628.583,-3006.4158,N,-5142.3486,E,1,08,0.8,46.1,M,,,
1664$GPRMC,122628.583,A,-3006.4158,N,-5142.3486,E,44.3,274.0,000070,,,A
1665$GPGGA,122630.886,-3006.4146,N,-5142.3690,E,1,08,0.8,46.1,M,,,
1666$GPRMC,122630.886,A,-3006.4146,N,-5142.3690,E,44.3,273.0,000070,,,A
1667$GPGGA,122633.254,-3006.4140,N,-5142.3900,E,1,08,0.8,46.1,M,,,
1668$GPRMC,122633.254,A,-3006.4140,N,-5142.3900,E,44.3,273.0,000070,,,A
1669$GPGGA,122635.558,-3006.4128,N,-5142.4104,E,1,08,0.8,46.1,M,,,
1670$GPRMC,122635.558,A,-3006.4128,N,-5142.4104,E,44.3,274.0,000070,,,A
1671$GPGGA,122637.861,-3006.4116,N,-5142.4308,E,1,08,0.8,46.1,M,,,
1672$GPRMC,122637.861,A,-3006.4116,N,-5142.4308,E,44.3,274.0,000070,,,A
1673$GPGGA,122640.165,-3006.4104,N,-5142.4512,E,1,08,0.8,46.1,M,,,
1674$GPRMC,122640.165,A,-3006.4104,N,-5142.4512,E,44.3,274.0,000070,,,A
1675$GPGGA,122642.536,-3006.4092,N,-5142.4722,E,1,08,0.8,46.1,M,,,
1676$GPRMC,122642.536,A,-3006.4092,N,-5142.4722,E,44.3,274.0,000070,,,A
1677$GPGGA,122644.839,-3006.4080,N,-5142.4926,E,1,08,0.8,46.1,M,,,
1678$GPRMC,122644.839,A,-3006.4080,N,-5142.4926,E,44.3,273.0,000070,,,A
1679$GPGGA,122647.140,-3006.4074,N,-5142.5130,E,1,08,0.8,46.1,M,,,
1680$GPRMC,122647.140,A,-3006.4074,N,-5142.5130,E,44.3,273.0,000070,,,A
1681$GPGGA,122649.443,-3006.4062,N,-5142.5334,E,1,08,0.8,46.1,M,,,
1682$GPRMC,122649.443,A,-3006.4062,N,-5142.5334,E,44.3,274.0,000070,,,A
1683$GPGGA,122651.814,-3006.4050,N,-5142.5544,E,1,08,0.8,46.1,M,,,
1684$GPRMC,122651.814,A,-3006.4050,N,-5142.5544,E,44.3,274.0,000070,,,A
1685$GPGGA,122654.118,-3006.4038,N,-5142.5748,E,1,08,0.8,46.1,M,,,
1686$GPRMC,122654.118,A,-3006.4038,N,-5142.5748,E,44.3,274.0,000070,,,A
1687$GPGGA,122656.421,-3006.4026,N,-5142.5952,E,1,08,0.8,46.1,M,,,
1688$GPRMC,122656.421,A,-3006.4026,N,-5142.5952,E,44.3,274.0,000070,,,A
1689$GPGGA,122658.725,-3006.4014,N,-5142.6156,E,1,08,0.8,46.1,M,,,
1690$GPRMC,122658.725,A,-3006.4014,N,-5142.6156,E,44.3,273.0,000070,,,A
1691$GPGGA,122701.093,-3006.4008,N,-5142.6366,E,1,08,0.8,46.1,M,,,
1692$GPRMC,122701.093,A,-3006.4008,N,-5142.6366,E,44.3,273.0,000070,,,A
1693$GPGGA,122703.396,-3006.3996,N,-5142.6570,E,1,08,0.8,46.1,M,,,
1694$GPRMC,122703.396,A,-3006.3996,N,-5142.6570,E,44.3,274.0,000070,,,A
1695$GPGGA,122705.700,-3006.3984,N,-5142.6774,E,1,08,0.8,46.1,M,,,
1696$GPRMC,122705.700,A,-3006.3984,N,-5142.6774,E,44.3,274.0,000070,,,A
1697$GPGGA,122708.003,-3006.3972,N,-5142.6978,E,1,08,0.8,46.1,M,,,
1698$GPRMC,122708.003,A,-3006.3972,N,-5142.6978,E,44.3,273.0,000070,,,A
1699$GPGGA,122710.304,-3006.3966,N,-5142.7182,E,1,08,0.8,46.1,M,,,
1700$GPRMC,122710.304,A,-3006.3966,N,-5142.7182,E,44.3,273.0,000070,,,A
1701$GPGGA,122712.675,-3006.3954,N,-5142.7392,E,1,08,0.8,46.1,M,,,
1702$GPRMC,122712.675,A,-3006.3954,N,-5142.7392,E,44.3,274.0,000070,,,A
1703$GPGGA,122714.978,-3006.3942,N,-5142.7596,E,1,08,0.8,46.1,M,,,
1704$GPRMC,122714.978,A,-3006.3942,N,-5142.7596,E,44.3,274.0,000070,,,A
1705$GPGGA,122717.282,-3006.3930,N,-5142.7800,E,1,08,0.8,46.1,M,,,
1706$GPRMC,122717.282,A,-3006.3930,N,-5142.7800,E,44.3,274.0,000070,,,A
1707$GPGGA,122719.585,-3006.3918,N,-5142.8004,E,1,08,0.8,46.1,M,,,
1708$GPRMC,122719.585,A,-3006.3918,N,-5142.8004,E,44.3,274.0,000070,,,A
1709$GPGGA,122721.956,-3006.3906,N,-5142.8214,E,1,08,0.8,46.1,M,,,
1710$GPRMC,122721.956,A,-3006.3906,N,-5142.8214,E,44.3,274.0,000070,,,A
1711$GPGGA,122724.260,-3006.3894,N,-5142.8418,E,1,08,0.8,46.1,M,,,
1712$GPRMC,122724.260,A,-3006.3894,N,-5142.8418,E,44.3,274.0,000070,,,A
1713$GPGGA,122726.563,-3006.3882,N,-5142.8622,E,1,08,0.8,46.1,M,,,
1714$GPRMC,122726.563,A,-3006.3882,N,-5142.8622,E,44.3,274.0,000070,,,A
1715$GPGGA,122728.867,-3006.3870,N,-5142.8826,E,1,08,0.8,46.1,M,,,
1716$GPRMC,122728.867,A,-3006.3870,N,-5142.8826,E,44.3,274.0,000070,,,A
1717$GPGGA,122731.238,-3006.3858,N,-5142.9036,E,1,08,0.8,46.1,M,,,
1718$GPRMC,122731.238,A,-3006.3858,N,-5142.9036,E,44.3,274.0,000070,,,A
1719$GPGGA,122733.541,-3006.3846,N,-5142.9240,E,1,08,0.8,46.1,M,,,
1720$GPRMC,122733.541,A,-3006.3846,N,-5142.9240,E,44.3,273.0,000070,,,A
1721$GPGGA,122735.842,-3006.3840,N,-5142.9444,E,1,08,0.8,46.1,M,,,
1722$GPRMC,122735.842,A,-3006.3840,N,-5142.9444,E,44.3,273.0,000070,,,A
1723$GPGGA,122738.145,-3006.3828,N,-5142.9648,E,1,08,0.8,46.1,M,,,
1724$GPRMC,122738.145,A,-3006.3828,N,-5142.9648,E,44.3,274.0,000070,,,A
1725$GPGGA,122740.516,-3006.3816,N,-5142.9858,E,1,08,0.8,46.1,M,,,
1726$GPRMC,122740.516,A,-3006.3816,N,-5142.9858,E,44.3,274.0,000070,,,A
1727$GPGGA,122742.820,-3006.3804,N,-5143.0062,E,1,08,0.8,46.1,M,,,
1728$GPRMC,122742.820,A,-3006.3804,N,-5143.0062,E,44.3,274.0,000070,,,A
1729$GPGGA,122745.123,-3006.3792,N,-5143.0266,E,1,08,0.8,46.1,M,,,
1730$GPRMC,122745.123,A,-3006.3792,N,-5143.0266,E,44.3,274.0,000070,,,A
1731$GPGGA,122747.494,-3006.3780,N,-5143.0476,E,1,08,0.8,46.1,M,,,
1732$GPRMC,122747.494,A,-3006.3780,N,-5143.0476,E,44.3,274.0,000070,,,A
1733$GPGGA,122749.798,-3006.3768,N,-5143.0680,E,1,08,0.8,46.1,M,,,
1734$GPRMC,122749.798,A,-3006.3768,N,-5143.0680,E,44.3,274.0,000070,,,A
1735$GPGGA,122752.101,-3006.3756,N,-5143.0884,E,1,08,0.8,46.1,M,,,
1736$GPRMC,122752.101,A,-3006.3756,N,-5143.0884,E,44.3,274.0,000070,,,A
1737$GPGGA,122754.405,-3006.3744,N,-5143.1088,E,1,08,0.8,46.1,M,,,
1738$GPRMC,122754.405,A,-3006.3744,N,-5143.1088,E,44.3,274.0,000070,,,A
1739$GPGGA,122756.776,-3006.3732,N,-5143.1298,E,1,08,0.8,46.1,M,,,
1740$GPRMC,122756.776,A,-3006.3732,N,-5143.1298,E,44.3,274.0,000070,,,A
1741$GPGGA,122759.079,-3006.3720,N,-5143.1502,E,1,08,0.8,46.1,M,,,
1742$GPRMC,122759.079,A,-3006.3720,N,-5143.1502,E,44.3,274.0,000070,,,A
1743$GPGGA,122801.383,-3006.3708,N,-5143.1706,E,1,08,0.8,46.1,M,,,
1744$GPRMC,122801.383,A,-3006.3708,N,-5143.1706,E,44.3,274.0,000070,,,A
1745$GPGGA,122803.686,-3006.3696,N,-5143.1910,E,1,08,0.8,46.1,M,,,
1746$GPRMC,122803.686,A,-3006.3696,N,-5143.1910,E,44.3,274.0,000070,,,A
1747$GPGGA,122806.057,-3006.3684,N,-5143.2120,E,1,08,0.8,46.1,M,,,
1748$GPRMC,122806.057,A,-3006.3684,N,-5143.2120,E,44.3,274.0,000070,,,A
1749$GPGGA,122808.361,-3006.3672,N,-5143.2324,E,1,08,0.8,46.1,M,,,
1750$GPRMC,122808.361,A,-3006.3672,N,-5143.2324,E,44.3,274.0,000070,,,A
1751$GPGGA,122810.664,-3006.3660,N,-5143.2528,E,1,08,0.8,46.1,M,,,
1752$GPRMC,122810.664,A,-3006.3660,N,-5143.2528,E,44.3,273.0,000070,,,A
1753$GPGGA,122812.965,-3006.3654,N,-5143.2732,E,1,08,0.8,46.1,M,,,
1754$GPRMC,122812.965,A,-3006.3654,N,-5143.2732,E,44.3,273.0,000070,,,A
1755$GPGGA,122815.336,-3006.3642,N,-5143.2942,E,1,08,0.8,46.1,M,,,
1756$GPRMC,122815.336,A,-3006.3642,N,-5143.2942,E,44.3,274.0,000070,,,A
1757$GPGGA,122817.639,-3006.3630,N,-5143.3146,E,1,08,0.8,46.1,M,,,
1758$GPRMC,122817.639,A,-3006.3630,N,-5143.3146,E,44.3,274.0,000070,,,A
1759$GPGGA,122819.943,-3006.3618,N,-5143.3350,E,1,08,0.8,46.1,M,,,
1760$GPRMC,122819.943,A,-3006.3618,N,-5143.3350,E,44.3,274.0,000070,,,A
1761$GPGGA,122822.246,-3006.3606,N,-5143.3554,E,1,08,0.8,46.1,M,,,
1762$GPRMC,122822.246,A,-3006.3606,N,-5143.3554,E,44.3,274.0,000070,,,A
1763$GPGGA,122824.617,-3006.3594,N,-5143.3764,E,1,08,0.8,46.1,M,,,
1764$GPRMC,122824.617,A,-3006.3594,N,-5143.3764,E,44.3,274.0,000070,,,A
1765$GPGGA,122826.921,-3006.3582,N,-5143.3968,E,1,08,0.8,46.1,M,,,
1766$GPRMC,122826.921,A,-3006.3582,N,-5143.3968,E,44.3,274.0,000070,,,A
1767$GPGGA,122829.224,-3006.3570,N,-5143.4172,E,1,08,0.8,46.1,M,,,
1768$GPRMC,122829.224,A,-3006.3570,N,-5143.4172,E,44.3,274.0,000070,,,A
1769$GPGGA,122831.528,-3006.3558,N,-5143.4376,E,1,08,0.8,46.1,M,,,
1770$GPRMC,122831.528,A,-3006.3558,N,-5143.4376,E,44.3,274.0,000070,,,A
1771$GPGGA,122833.899,-3006.3546,N,-5143.4586,E,1,08,0.8,46.1,M,,,
1772$GPRMC,122833.899,A,-3006.3546,N,-5143.4586,E,44.3,274.0,000070,,,A
1773$GPGGA,122836.202,-3006.3534,N,-5143.4790,E,1,08,0.8,46.1,M,,,
1774$GPRMC,122836.202,A,-3006.3534,N,-5143.4790,E,44.3,274.0,000070,,,A
1775$GPGGA,122838.506,-3006.3522,N,-5143.4994,E,1,08,0.8,46.1,M,,,
1776$GPRMC,122838.506,A,-3006.3522,N,-5143.4994,E,44.3,276.0,000070,,,A
1777$GPGGA,122840.821,-3006.3498,N,-5143.5198,E,1,08,0.8,46.1,M,,,
1778$GPRMC,122840.821,A,-3006.3498,N,-5143.5198,E,44.3,279.0,000070,,,A
1779$GPGGA,122843.078,-3006.3468,N,-5143.5396,E,1,08,0.8,46.1,M,,,
1780$GPRMC,122843.078,A,-3006.3468,N,-5143.5396,E,44.3,280.0,000070,,,A
1781$GPGGA,122845.403,-3006.3438,N,-5143.5600,E,1,08,0.8,46.1,M,,,
1782$GPRMC,122845.403,A,-3006.3438,N,-5143.5600,E,44.3,281.0,000070,,,A
1783$GPGGA,122847.671,-3006.3402,N,-5143.5798,E,1,08,0.8,46.1,M,,,
1784$GPRMC,122847.671,A,-3006.3402,N,-5143.5798,E,44.3,281.0,000070,,,A
1785$GPGGA,122849.995,-3006.3372,N,-5143.6002,E,1,08,0.8,46.1,M,,,
1786$GPRMC,122849.995,A,-3006.3372,N,-5143.6002,E,44.3,280.0,000070,,,A
1787$GPGGA,122852.253,-3006.3342,N,-5143.6200,E,1,08,0.8,46.1,M,,,
1788$GPRMC,122852.253,A,-3006.3342,N,-5143.6200,E,44.3,280.0,000070,,,A
1789$GPGGA,122854.577,-3006.3312,N,-5143.6404,E,1,08,0.8,46.1,M,,,
1790$GPRMC,122854.577,A,-3006.3312,N,-5143.6404,E,44.3,281.0,000070,,,A
1791$GPGGA,122856.912,-3006.3276,N,-5143.6608,E,1,08,0.8,46.1,M,,,
1792$GPRMC,122856.912,A,-3006.3276,N,-5143.6608,E,44.3,281.0,000070,,,A
1793$GPGGA,122859.169,-3006.3246,N,-5143.6806,E,1,08,0.8,46.1,M,,,
1794$GPRMC,122859.169,A,-3006.3246,N,-5143.6806,E,44.3,280.0,000070,,,A
1795$GPGGA,122901.494,-3006.3216,N,-5143.7010,E,1,08,0.8,46.1,M,,,
1796$GPRMC,122901.494,A,-3006.3216,N,-5143.7010,E,44.3,280.0,000070,,,A
1797$GPGGA,122903.751,-3006.3186,N,-5143.7208,E,1,08,0.8,46.1,M,,,
1798$GPRMC,122903.751,A,-3006.3186,N,-5143.7208,E,44.3,280.0,000070,,,A
1799$GPGGA,122906.075,-3006.3156,N,-5143.7412,E,1,08,0.8,46.1,M,,,
1800$GPRMC,122906.075,A,-3006.3156,N,-5143.7412,E,44.3,278.0,000070,,,A
1801$GPGGA,122908.384,-3006.3138,N,-5143.7616,E,1,08,0.8,46.1,M,,,
1802$GPRMC,122908.384,A,-3006.3138,N,-5143.7616,E,44.3,276.0,000070,,,A
1803$GPGGA,122910.760,-3006.3120,N,-5143.7826,E,1,08,0.8,46.1,M,,,
1804$GPRMC,122910.760,A,-3006.3120,N,-5143.7826,E,44.3,275.0,000070,,,A
1805$GPGGA,122913.063,-3006.3108,N,-5143.8030,E,1,08,0.8,46.1,M,,,
1806$GPRMC,122913.063,A,-3006.3108,N,-5143.8030,E,44.3,275.0,000070,,,A
1807$GPGGA,122915.371,-3006.3090,N,-5143.8234,E,1,08,0.8,46.1,M,,,
1808$GPRMC,122915.371,A,-3006.3090,N,-5143.8234,E,44.3,276.0,000070,,,A
1809$GPGGA,122917.680,-3006.3072,N,-5143.8438,E,1,08,0.8,46.1,M,,,
1810$GPRMC,122917.680,A,-3006.3072,N,-5143.8438,E,44.3,276.0,000070,,,A
1811$GPGGA,122919.988,-3006.3054,N,-5143.8642,E,1,08,0.8,46.1,M,,,
1812$GPRMC,122919.988,A,-3006.3054,N,-5143.8642,E,44.3,274.0,000070,,,A
1813$GPGGA,122922.356,-3006.3048,N,-5143.8852,E,1,08,0.8,46.1,M,,,
1814$GPRMC,122922.356,A,-3006.3048,N,-5143.8852,E,44.3,271.0,000070,,,A
1815$GPGGA,122924.656,-3006.3048,N,-5143.9056,E,1,08,0.8,46.1,M,,,
1816$GPRMC,122924.656,A,-3006.3048,N,-5143.9056,E,44.3,270.0,000070,,,A
1817$GPGGA,122926.955,-3006.3048,N,-5143.9260,E,1,08,0.8,46.1,M,,,
1818$GPRMC,122926.955,A,-3006.3048,N,-5143.9260,E,44.3,270.0,000070,,,A
1819$GPGGA,122929.323,-3006.3048,N,-5143.9470,E,1,08,0.8,46.1,M,,,
1820$GPRMC,122929.323,A,-3006.3048,N,-5143.9470,E,44.3,270.0,000070,,,A
1821$GPGGA,122931.622,-3006.3048,N,-5143.9674,E,1,08,0.8,46.1,M,,,
1822$GPRMC,122931.622,A,-3006.3048,N,-5143.9674,E,44.3,267.0,000070,,,A
1823$GPGGA,122933.863,-3006.3066,N,-5143.9872,E,1,08,0.8,46.1,M,,,
1824$GPRMC,122933.863,A,-3006.3066,N,-5143.9872,E,44.3,264.0,000070,,,A
1825$GPGGA,122936.172,-3006.3084,N,-5144.0076,E,1,08,0.8,46.1,M,,,
1826$GPRMC,122936.172,A,-3006.3084,N,-5144.0076,E,44.3,263.0,000070,,,A
1827$GPGGA,122938.554,-3006.3108,N,-5144.0286,E,1,08,0.8,46.1,M,,,
1828$GPRMC,122938.554,A,-3006.3108,N,-5144.0286,E,44.3,263.0,000070,,,A
1829$GPGGA,122940.863,-3006.3126,N,-5144.0490,E,1,08,0.8,46.1,M,,,
1830$GPRMC,122940.863,A,-3006.3126,N,-5144.0490,E,44.3,263.0,000070,,,A
1831$GPGGA,122943.178,-3006.3150,N,-5144.0694,E,1,08,0.8,46.1,M,,,
1832$GPRMC,122943.178,A,-3006.3150,N,-5144.0694,E,44.3,263.0,000070,,,A
1833$GPGGA,122945.487,-3006.3168,N,-5144.0898,E,1,08,0.8,46.1,M,,,
1834$GPRMC,122945.487,A,-3006.3168,N,-5144.0898,E,44.3,263.0,000070,,,A
1835$GPGGA,122947.735,-3006.3192,N,-5144.1096,E,1,08,0.8,46.1,M,,,
1836$GPRMC,122947.735,A,-3006.3192,N,-5144.1096,E,44.3,260.0,000070,,,A
1837$GPGGA,122950.003,-3006.3228,N,-5144.1294,E,1,08,0.8,46.1,M,,,
1838$GPRMC,122950.003,A,-3006.3228,N,-5144.1294,E,44.3,258.0,000070,,,A
1839$GPGGA,122952.272,-3006.3264,N,-5144.1492,E,1,08,0.8,46.1,M,,,
1840$GPRMC,122952.272,A,-3006.3264,N,-5144.1492,E,44.3,257.0,000070,,,A
1841$GPGGA,122954.553,-3006.3306,N,-5144.1690,E,1,08,0.8,46.1,M,,,
1842$GPRMC,122954.553,A,-3006.3306,N,-5144.1690,E,44.3,257.0,000070,,,A
1843$GPGGA,122956.822,-3006.3342,N,-5144.1888,E,1,08,0.8,46.1,M,,,
1844$GPRMC,122956.822,A,-3006.3342,N,-5144.1888,E,44.3,257.0,000070,,,A
1845$GPGGA,122959.103,-3006.3384,N,-5144.2086,E,1,08,0.8,46.1,M,,,
1846$GPRMC,122959.103,A,-3006.3384,N,-5144.2086,E,44.3,256.0,000070,,,A
1847$GPGGA,123001.451,-3006.3426,N,-5144.2290,E,1,08,0.8,46.1,M,,,
1848$GPRMC,123001.451,A,-3006.3426,N,-5144.2290,E,44.3,257.0,000070,,,A
1849$GPGGA,123003.719,-3006.3462,N,-5144.2488,E,1,08,0.8,46.1,M,,,
1850$GPRMC,123003.719,A,-3006.3462,N,-5144.2488,E,44.3,258.0,000070,,,A
1851$GPGGA,123006.055,-3006.3498,N,-5144.2692,E,1,08,0.8,46.1,M,,,
1852$GPRMC,123006.055,A,-3006.3498,N,-5144.2692,E,44.3,257.0,000070,,,A
1853$GPGGA,123008.402,-3006.3540,N,-5144.2896,E,1,08,0.8,46.1,M,,,
1854$GPRMC,123008.402,A,-3006.3540,N,-5144.2896,E,44.3,257.0,000070,,,A
1855$GPGGA,123010.671,-3006.3576,N,-5144.3094,E,1,08,0.8,46.1,M,,,
1856$GPRMC,123010.671,A,-3006.3576,N,-5144.3094,E,44.3,257.0,000070,,,A
1857$GPGGA,123013.019,-3006.3618,N,-5144.3298,E,1,08,0.8,46.1,M,,,
1858$GPRMC,123013.019,A,-3006.3618,N,-5144.3298,E,44.3,257.0,000070,,,A
1859$GPGGA,123015.287,-3006.3654,N,-5144.3496,E,1,08,0.8,46.1,M,,,
1860$GPRMC,123015.287,A,-3006.3654,N,-5144.3496,E,44.3,258.0,000070,,,A
1861$GPGGA,123017.622,-3006.3690,N,-5144.3700,E,1,08,0.8,46.1,M,,,
1862$GPRMC,123017.622,A,-3006.3690,N,-5144.3700,E,44.3,257.0,000070,,,A
1863$GPGGA,123019.904,-3006.3732,N,-5144.3898,E,1,08,0.8,46.1,M,,,
1864$GPRMC,123019.904,A,-3006.3732,N,-5144.3898,E,44.3,257.0,000070,,,A
1865$GPGGA,123022.239,-3006.3768,N,-5144.4102,E,1,08,0.8,46.1,M,,,
1866$GPRMC,123022.239,A,-3006.3768,N,-5144.4102,E,44.3,257.0,000070,,,A
1867$GPGGA,123024.586,-3006.3810,N,-5144.4306,E,1,08,0.8,46.1,M,,,
1868$GPRMC,123024.586,A,-3006.3810,N,-5144.4306,E,44.3,257.0,000070,,,A
1869$GPGGA,123026.855,-3006.3846,N,-5144.4504,E,1,08,0.8,46.1,M,,,
1870$GPRMC,123026.855,A,-3006.3846,N,-5144.4504,E,44.3,258.0,000070,,,A
1871$GPGGA,123029.190,-3006.3882,N,-5144.4708,E,1,08,0.8,46.1,M,,,
1872$GPRMC,123029.190,A,-3006.3882,N,-5144.4708,E,44.3,257.0,000070,,,A
1873$GPGGA,123031.471,-3006.3924,N,-5144.4906,E,1,08,0.8,46.1,M,,,
1874$GPRMC,123031.471,A,-3006.3924,N,-5144.4906,E,44.3,256.0,000070,,,A
1875$GPGGA,123033.819,-3006.3966,N,-5144.5110,E,1,08,0.8,46.1,M,,,
1876$GPRMC,123033.819,A,-3006.3966,N,-5144.5110,E,44.3,256.0,000070,,,A
1877$GPGGA,123036.101,-3006.4008,N,-5144.5308,E,1,08,0.8,46.1,M,,,
1878$GPRMC,123036.101,A,-3006.4008,N,-5144.5308,E,44.3,256.0,000070,,,A
1879$GPGGA,123038.382,-3006.4050,N,-5144.5506,E,1,08,0.8,46.1,M,,,
1880$GPRMC,123038.382,A,-3006.4050,N,-5144.5506,E,44.3,256.0,000070,,,A
1881$GPGGA,123040.664,-3006.4092,N,-5144.5704,E,1,08,0.8,46.1,M,,,
1882$GPRMC,123040.664,A,-3006.4092,N,-5144.5704,E,44.3,256.0,000070,,,A
1883$GPGGA,123043.012,-3006.4134,N,-5144.5908,E,1,08,0.8,46.1,M,,,
1884$GPRMC,123043.012,A,-3006.4134,N,-5144.5908,E,44.3,256.0,000070,,,A
1885$GPGGA,123045.293,-3006.4176,N,-5144.6106,E,1,08,0.8,46.1,M,,,
1886$GPRMC,123045.293,A,-3006.4176,N,-5144.6106,E,44.3,256.0,000070,,,A
1887$GPGGA,123047.575,-3006.4218,N,-5144.6304,E,1,08,0.8,46.1,M,,,
1888$GPRMC,123047.575,A,-3006.4218,N,-5144.6304,E,44.3,255.0,000070,,,A
1889$GPGGA,123049.871,-3006.4266,N,-5144.6502,E,1,08,0.8,46.1,M,,,
1890$GPRMC,123049.871,A,-3006.4266,N,-5144.6502,E,44.3,255.0,000070,,,A
1891$GPGGA,123052.219,-3006.4308,N,-5144.6706,E,1,08,0.8,46.1,M,,,
1892$GPRMC,123052.219,A,-3006.4308,N,-5144.6706,E,44.3,256.0,000070,,,A
1893$GPGGA,123054.500,-3006.4350,N,-5144.6904,E,1,08,0.8,46.1,M,,,
1894$GPRMC,123054.500,A,-3006.4350,N,-5144.6904,E,44.3,256.0,000070,,,A
1895$GPGGA,123056.782,-3006.4392,N,-5144.7102,E,1,08,0.8,46.1,M,,,
1896$GPRMC,123056.782,A,-3006.4392,N,-5144.7102,E,44.3,256.0,000070,,,A
1897$GPGGA,123059.064,-3006.4434,N,-5144.7300,E,1,08,0.8,46.1,M,,,
1898$GPRMC,123059.064,A,-3006.4434,N,-5144.7300,E,44.3,256.0,000070,,,A
1899$GPGGA,123101.345,-3006.4476,N,-5144.7498,E,1,08,0.8,46.1,M,,,
1900$GPRMC,123101.345,A,-3006.4476,N,-5144.7498,E,44.3,255.0,000070,,,A
1901$GPGGA,123103.642,-3006.4524,N,-5144.7696,E,1,08,0.8,46.1,M,,,
1902$GPRMC,123103.642,A,-3006.4524,N,-5144.7696,E,44.3,255.0,000070,,,A
1903$GPGGA,123105.923,-3006.4566,N,-5144.7894,E,1,08,0.8,46.1,M,,,
1904$GPRMC,123105.923,A,-3006.4566,N,-5144.7894,E,44.3,256.0,000070,,,A
1905$GPGGA,123108.205,-3006.4608,N,-5144.8092,E,1,08,0.8,46.1,M,,,
1906$GPRMC,123108.205,A,-3006.4608,N,-5144.8092,E,44.3,256.0,000070,,,A
1907$GPGGA,123110.486,-3006.4650,N,-5144.8290,E,1,08,0.8,46.1,M,,,
1908$GPRMC,123110.486,A,-3006.4650,N,-5144.8290,E,44.3,256.0,000070,,,A
1909$GPGGA,123112.768,-3006.4692,N,-5144.8488,E,1,08,0.8,46.1,M,,,
1910$GPRMC,123112.768,A,-3006.4692,N,-5144.8488,E,44.3,256.0,000070,,,A
1911$GPGGA,123115.116,-3006.4734,N,-5144.8692,E,1,08,0.8,46.1,M,,,
1912$GPRMC,123115.116,A,-3006.4734,N,-5144.8692,E,44.3,256.0,000070,,,A
1913$GPGGA,123117.397,-3006.4776,N,-5144.8890,E,1,08,0.8,46.1,M,,,
1914$GPRMC,123117.397,A,-3006.4776,N,-5144.8890,E,44.3,257.0,000070,,,A
1915$GPGGA,123119.732,-3006.4812,N,-5144.9094,E,1,08,0.8,46.1,M,,,
1916$GPRMC,123119.732,A,-3006.4812,N,-5144.9094,E,44.3,257.0,000070,,,A
1917$GPGGA,123122.014,-3006.4854,N,-5144.9292,E,1,08,0.8,46.1,M,,,
1918$GPRMC,123122.014,A,-3006.4854,N,-5144.9292,E,44.3,256.0,000070,,,A
1919$GPGGA,123124.295,-3006.4896,N,-5144.9490,E,1,08,0.8,46.1,M,,,
1920$GPRMC,123124.295,A,-3006.4896,N,-5144.9490,E,44.3,256.0,000070,,,A
1921$GPGGA,123126.643,-3006.4938,N,-5144.9694,E,1,08,0.8,46.1,M,,,
1922$GPRMC,123126.643,A,-3006.4938,N,-5144.9694,E,44.3,256.0,000070,,,A
1923$GPGGA,123128.925,-3006.4980,N,-5144.9892,E,1,08,0.8,46.1,M,,,
1924$GPRMC,123128.925,A,-3006.4980,N,-5144.9892,E,44.3,256.0,000070,,,A
1925$GPGGA,123131.206,-3006.5022,N,-5145.0090,E,1,08,0.8,46.1,M,,,
1926$GPRMC,123131.206,A,-3006.5022,N,-5145.0090,E,44.3,256.0,000070,,,A
1927$GPGGA,123133.554,-3006.5064,N,-5145.0294,E,1,08,0.8,46.1,M,,,
1928$GPRMC,123133.554,A,-3006.5064,N,-5145.0294,E,44.3,256.0,000070,,,A
1929$GPGGA,123135.835,-3006.5106,N,-5145.0492,E,1,08,0.8,46.1,M,,,
1930$GPRMC,123135.835,A,-3006.5106,N,-5145.0492,E,44.3,257.0,000070,,,A
1931$GPGGA,123138.170,-3006.5142,N,-5145.0696,E,1,08,0.8,46.1,M,,,
1932$GPRMC,123138.170,A,-3006.5142,N,-5145.0696,E,44.3,259.0,000070,,,A
1933$GPGGA,123140.428,-3006.5172,N,-5145.0894,E,1,08,0.8,46.1,M,,,
1934$GPRMC,123140.428,A,-3006.5172,N,-5145.0894,E,44.3,260.0,000070,,,A
1935$GPGGA,123142.752,-3006.5202,N,-5145.1098,E,1,08,0.8,46.1,M,,,
1936$GPRMC,123142.752,A,-3006.5202,N,-5145.1098,E,44.3,268.0,000070,,,A
1937$GPGGA,123144.993,-3006.5184,N,-5145.1296,E,1,08,0.8,46.1,M,,,
1938$GPRMC,123144.993,A,-3006.5184,N,-5145.1296,E,44.3,284.0,000070,,,A
1939$GPGGA,123147.218,-3006.5118,N,-5145.1482,E,1,08,0.8,46.1,M,,,
1940$GPRMC,123147.218,A,-3006.5118,N,-5145.1482,E,44.3,293.0,000070,,,A
1941$GPGGA,123149.529,-3006.5046,N,-5145.1674,E,1,08,0.8,46.1,M,,,
1942$GPRMC,123149.529,A,-3006.5046,N,-5145.1674,E,44.3,293.0,000070,,,A
1943$GPGGA,123151.818,-3006.4980,N,-5145.1866,E,1,08,0.8,46.1,M,,,
1944$GPRMC,123151.818,A,-3006.4980,N,-5145.1866,E,44.3,293.0,000070,,,A
1945$GPGGA,123154.066,-3006.4908,N,-5145.2052,E,1,08,0.8,46.1,M,,,
1946$GPRMC,123154.066,A,-3006.4908,N,-5145.2052,E,44.3,293.0,000070,,,A
1947$GPGGA,123156.355,-3006.4842,N,-5145.2244,E,1,08,0.8,46.1,M,,,
1948$GPRMC,123156.355,A,-3006.4842,N,-5145.2244,E,44.3,292.0,000070,,,A
1949$GPGGA,123158.643,-3006.4776,N,-5145.2436,E,1,08,0.8,46.1,M,,,
1950$GPRMC,123158.643,A,-3006.4776,N,-5145.2436,E,44.3,293.0,000070,,,A
1951$GPGGA,123200.891,-3006.4704,N,-5145.2622,E,1,08,0.8,46.1,M,,,
1952$GPRMC,123200.891,A,-3006.4704,N,-5145.2622,E,44.3,293.0,000070,,,A
1953$GPGGA,123203.180,-3006.4638,N,-5145.2814,E,1,08,0.8,46.1,M,,,
1954$GPRMC,123203.180,A,-3006.4638,N,-5145.2814,E,44.3,293.0,000070,,,A
1955$GPGGA,123205.491,-3006.4566,N,-5145.3006,E,1,08,0.8,46.1,M,,,
1956$GPRMC,123205.491,A,-3006.4566,N,-5145.3006,E,44.3,293.0,000070,,,A
1957$GPGGA,123207.716,-3006.4500,N,-5145.3192,E,1,08,0.8,46.1,M,,,
1958$GPRMC,123207.716,A,-3006.4500,N,-5145.3192,E,44.3,292.0,000070,,,A
1959$GPGGA,123210.005,-3006.4434,N,-5145.3384,E,1,08,0.8,46.1,M,,,
1960$GPRMC,123210.005,A,-3006.4434,N,-5145.3384,E,44.3,293.0,000070,,,A
1961$GPGGA,123212.316,-3006.4362,N,-5145.3576,E,1,08,0.8,46.1,M,,,
1962$GPRMC,123212.316,A,-3006.4362,N,-5145.3576,E,44.3,291.0,000070,,,A
1963$GPGGA,123214.564,-3006.4308,N,-5145.3768,E,1,08,0.8,46.1,M,,,
1964$GPRMC,123214.564,A,-3006.4308,N,-5145.3768,E,44.3,288.0,000070,,,A
1965$GPGGA,123216.878,-3006.4254,N,-5145.3966,E,1,08,0.8,46.1,M,,,
1966$GPRMC,123216.878,A,-3006.4254,N,-5145.3966,E,44.3,289.0,000070,,,A
1967$GPGGA,123219.145,-3006.4194,N,-5145.4158,E,1,08,0.8,46.1,M,,,
1968$GPRMC,123219.145,A,-3006.4194,N,-5145.4158,E,44.3,289.0,000070,,,A
1969$GPGGA,123221.458,-3006.4140,N,-5145.4356,E,1,08,0.8,46.1,M,,,
1970$GPRMC,123221.458,A,-3006.4140,N,-5145.4356,E,44.3,287.0,000070,,,A
1971$GPGGA,123223.772,-3006.4086,N,-5145.4554,E,1,08,0.8,46.1,M,,,
1972$GPRMC,123223.772,A,-3006.4086,N,-5145.4554,E,44.3,288.0,000070,,,A
1973$GPGGA,123226.020,-3006.4032,N,-5145.4746,E,1,08,0.8,46.1,M,,,
1974$GPRMC,123226.020,A,-3006.4032,N,-5145.4746,E,44.3,289.0,000070,,,A
1975$GPGGA,123228.352,-3006.3972,N,-5145.4944,E,1,08,0.8,46.1,M,,,
1976$GPRMC,123228.352,A,-3006.3972,N,-5145.4944,E,44.3,288.0,000070,,,A
1977$GPGGA,123230.666,-3006.3918,N,-5145.5142,E,1,08,0.8,46.1,M,,,
1978$GPRMC,123230.666,A,-3006.3918,N,-5145.5142,E,44.3,287.0,000070,,,A
1979$GPGGA,123232.979,-3006.3864,N,-5145.5340,E,1,08,0.8,46.1,M,,,
1980$GPRMC,123232.979,A,-3006.3864,N,-5145.5340,E,44.3,286.0,000070,,,A
1981$GPGGA,123235.261,-3006.3822,N,-5145.5538,E,1,08,0.8,46.1,M,,,
1982$GPRMC,123235.261,A,-3006.3822,N,-5145.5538,E,44.3,285.0,000070,,,A
1983$GPGGA,123237.557,-3006.3774,N,-5145.5736,E,1,08,0.8,46.1,M,,,
1984$GPRMC,123237.557,A,-3006.3774,N,-5145.5736,E,44.3,286.0,000070,,,A
1985$GPGGA,123239.854,-3006.3726,N,-5145.5934,E,1,08,0.8,46.1,M,,,
1986$GPRMC,123239.854,A,-3006.3726,N,-5145.5934,E,44.3,286.0,000070,,,A
1987$GPGGA,123242.150,-3006.3678,N,-5145.6132,E,1,08,0.8,46.1,M,,,
1988$GPRMC,123242.150,A,-3006.3678,N,-5145.6132,E,44.3,286.0,000070,,,A
1989$GPGGA,123244.447,-3006.3630,N,-5145.6330,E,1,08,0.8,46.1,M,,,
1990$GPRMC,123244.447,A,-3006.3630,N,-5145.6330,E,44.3,286.0,000070,,,A
1991$GPGGA,123246.743,-3006.3582,N,-5145.6528,E,1,08,0.8,46.1,M,,,
1992$GPRMC,123246.743,A,-3006.3582,N,-5145.6528,E,44.3,286.0,000070,,,A
1993$GPGGA,123248.974,-3006.3534,N,-5145.6720,E,1,08,0.8,46.1,M,,,
1994$GPRMC,123248.974,A,-3006.3534,N,-5145.6720,E,44.3,289.0,000070,,,A
1995$GPGGA,123251.263,-3006.3468,N,-5145.6912,E,1,08,0.8,46.1,M,,,
1996$GPRMC,123251.263,A,-3006.3468,N,-5145.6912,E,44.3,291.0,000070,,,A
1997$GPGGA,123253.466,-3006.3408,N,-5145.7098,E,1,08,0.8,46.1,M,,,
1998$GPRMC,123253.466,A,-3006.3408,N,-5145.7098,E,44.3,285.0,000070,,,A
1999$GPGGA,123255.723,-3006.3378,N,-5145.7296,E,1,08,0.8,46.1,M,,,
2000$GPRMC,123255.723,A,-3006.3378,N,-5145.7296,E,44.3,275.0,000070,,,A
2001$GPGGA,123258.022,-3006.3378,N,-5145.7500,E,1,08,0.8,46.1,M,,,
2002$GPRMC,123258.022,A,-3006.3378,N,-5145.7500,E,44.3,270.0,000070,,,A
2003$GPGGA,123300.390,-3006.3378,N,-5145.7710,E,1,08,0.8,46.1,M,,,
2004$GPRMC,123300.390,A,-3006.3378,N,-5145.7710,E,44.3,269.0,000070,,,A
2005$GPGGA,123302.690,-3006.3384,N,-5145.7914,E,1,08,0.8,46.1,M,,,
2006$GPRMC,123302.690,A,-3006.3384,N,-5145.7914,E,44.3,269.0,000070,,,A
2007$GPGGA,123304.990,-3006.3384,N,-5145.8118,E,1,08,0.8,46.1,M,,,
2008$GPRMC,123304.990,A,-3006.3384,N,-5145.8118,E,44.3,270.0,000070,,,A
2009$GPGGA,123307.289,-3006.3384,N,-5145.8322,E,1,08,0.8,46.1,M,,,
2010$GPRMC,123307.289,A,-3006.3384,N,-5145.8322,E,44.3,270.0,000070,,,A
2011$GPGGA,123309.589,-3006.3384,N,-5145.8526,E,1,08,0.8,46.1,M,,,
2012$GPRMC,123309.589,A,-3006.3384,N,-5145.8526,E,44.3,269.0,000070,,,A
2013$GPGGA,123311.822,-3006.3390,N,-5145.8724,E,1,08,0.8,46.1,M,,,
2014$GPRMC,123311.822,A,-3006.3390,N,-5145.8724,E,44.3,264.0,000070,,,A
2015$GPGGA,123314.079,-3006.3420,N,-5145.8922,E,1,08,0.8,46.1,M,,,
2016$GPRMC,123314.079,A,-3006.3420,N,-5145.8922,E,44.3,260.0,000070,,,A
2017$GPGGA,123316.403,-3006.3450,N,-5145.9126,E,1,08,0.8,46.1,M,,,
2018$GPRMC,123316.403,A,-3006.3450,N,-5145.9126,E,44.3,261.0,000070,,,A
2019$GPGGA,123318.719,-3006.3474,N,-5145.9330,E,1,08,0.8,46.1,M,,,
2020$GPRMC,123318.719,A,-3006.3474,N,-5145.9330,E,44.3,259.0,000070,,,A
2021$GPGGA,123321.000,-3006.3516,N,-5145.9528,E,1,08,0.8,46.1,M,,,
2022$GPRMC,123321.000,A,-3006.3516,N,-5145.9528,E,44.3,252.0,000070,,,A
2023$GPGGA,123323.289,-3006.3582,N,-5145.9720,E,1,08,0.8,46.1,M,,,
2024$GPRMC,123323.289,A,-3006.3582,N,-5145.9720,E,44.3,248.0,000070,,,A
2025$GPGGA,123325.513,-3006.3648,N,-5145.9906,E,1,08,0.8,46.1,M,,,
2026$GPRMC,123325.513,A,-3006.3648,N,-5145.9906,E,44.3,248.0,000070,,,A
2027$GPGGA,123327.802,-3006.3714,N,-5146.0098,E,1,08,0.8,46.1,M,,,
2028$GPRMC,123327.802,A,-3006.3714,N,-5146.0098,E,44.3,248.0,000070,,,A
2029$GPGGA,123330.090,-3006.3780,N,-5146.0290,E,1,08,0.8,46.1,M,,,
2030$GPRMC,123330.090,A,-3006.3780,N,-5146.0290,E,44.3,248.0,000070,,,A
2031$GPGGA,123332.315,-3006.3846,N,-5146.0476,E,1,08,0.8,46.1,M,,,
2032$GPRMC,123332.315,A,-3006.3846,N,-5146.0476,E,44.3,248.0,000070,,,A
2033$GPGGA,123334.604,-3006.3912,N,-5146.0668,E,1,08,0.8,46.1,M,,,
2034$GPRMC,123334.604,A,-3006.3912,N,-5146.0668,E,44.3,250.0,000070,,,A
2035$GPGGA,123336.917,-3006.3966,N,-5146.0866,E,1,08,0.8,46.1,M,,,
2036$GPRMC,123336.917,A,-3006.3966,N,-5146.0866,E,44.3,253.0,000070,,,A
2037$GPGGA,123339.230,-3006.4020,N,-5146.1064,E,1,08,0.8,46.1,M,,,
2038$GPRMC,123339.230,A,-3006.4020,N,-5146.1064,E,44.3,255.0,000070,,,A
2039$GPGGA,123341.499,-3006.4056,N,-5146.1262,E,1,08,0.8,46.1,M,,,
2040$GPRMC,123341.499,A,-3006.4056,N,-5146.1262,E,44.3,259.0,000070,,,A
2041$GPGGA,123343.823,-3006.4086,N,-5146.1466,E,1,08,0.8,46.1,M,,,
2042$GPRMC,123343.823,A,-3006.4086,N,-5146.1466,E,44.3,261.0,000070,,,A
2043$GPGGA,123346.139,-3006.4110,N,-5146.1670,E,1,08,0.8,46.1,M,,,
2044$GPRMC,123346.139,A,-3006.4110,N,-5146.1670,E,44.3,262.0,000070,,,A
2045$GPGGA,123348.454,-3006.4134,N,-5146.1874,E,1,08,0.8,46.1,M,,,
2046$GPRMC,123348.454,A,-3006.4134,N,-5146.1874,E,44.3,262.0,000070,,,A
2047$GPGGA,123350.769,-3006.4158,N,-5146.2078,E,1,08,0.8,46.1,M,,,
2048$GPRMC,123350.769,A,-3006.4158,N,-5146.2078,E,44.3,262.0,000070,,,A
2049$GPGGA,123353.085,-3006.4182,N,-5146.2282,E,1,08,0.8,46.1,M,,,
2050$GPRMC,123353.085,A,-3006.4182,N,-5146.2282,E,44.3,261.0,000070,,,A
2051$GPGGA,123355.409,-3006.4212,N,-5146.2486,E,1,08,0.8,46.1,M,,,
2052$GPRMC,123355.409,A,-3006.4212,N,-5146.2486,E,44.3,261.0,000070,,,A
2053$GPGGA,123357.724,-3006.4236,N,-5146.2690,E,1,08,0.8,46.1,M,,,
2054$GPRMC,123357.724,A,-3006.4236,N,-5146.2690,E,44.3,262.0,000070,,,A
2055$GPGGA,123400.040,-3006.4260,N,-5146.2894,E,1,08,0.8,46.1,M,,,
2056$GPRMC,123400.040,A,-3006.4260,N,-5146.2894,E,44.3,262.0,000070,,,A
2057$GPGGA,123402.355,-3006.4284,N,-5146.3098,E,1,08,0.8,46.1,M,,,
2058$GPRMC,123402.355,A,-3006.4284,N,-5146.3098,E,44.3,262.0,000070,,,A
2059$GPGGA,123404.670,-3006.4308,N,-5146.3302,E,1,08,0.8,46.1,M,,,
2060$GPRMC,123404.670,A,-3006.4308,N,-5146.3302,E,44.3,261.0,000070,,,A
2061$GPGGA,123406.995,-3006.4338,N,-5146.3506,E,1,08,0.8,46.1,M,,,
2062$GPRMC,123406.995,A,-3006.4338,N,-5146.3506,E,44.3,261.0,000070,,,A
2063$GPGGA,123409.243,-3006.4362,N,-5146.3704,E,1,08,0.8,46.1,M,,,
2064$GPRMC,123409.243,A,-3006.4362,N,-5146.3704,E,44.3,262.0,000070,,,A
2065$GPGGA,123411.558,-3006.4386,N,-5146.3908,E,1,08,0.8,46.1,M,,,
2066$GPRMC,123411.558,A,-3006.4386,N,-5146.3908,E,44.3,262.0,000070,,,A
2067$GPGGA,123413.874,-3006.4410,N,-5146.4112,E,1,08,0.8,46.1,M,,,
2068$GPRMC,123413.874,A,-3006.4410,N,-5146.4112,E,44.3,262.0,000070,,,A
2069$GPGGA,123416.189,-3006.4434,N,-5146.4316,E,1,08,0.8,46.1,M,,,
2070$GPRMC,123416.189,A,-3006.4434,N,-5146.4316,E,44.3,264.0,000070,,,A
2071$GPGGA,123418.493,-3006.4446,N,-5146.4520,E,1,08,0.8,46.1,M,,,
2072$GPRMC,123418.493,A,-3006.4446,N,-5146.4520,E,44.3,268.0,000070,,,A
2073$GPGGA,123420.860,-3006.4446,N,-5146.4730,E,1,08,0.8,46.1,M,,,
2074$GPRMC,123420.860,A,-3006.4446,N,-5146.4730,E,44.3,270.0,000070,,,A
2075$GPGGA,123423.159,-3006.4446,N,-5146.4934,E,1,08,0.8,46.1,M,,,
2076$GPRMC,123423.159,A,-3006.4446,N,-5146.4934,E,44.3,270.0,000070,,,A
2077$GPGGA,123425.459,-3006.4446,N,-5146.5138,E,1,08,0.8,46.1,M,,,
2078$GPRMC,123425.459,A,-3006.4446,N,-5146.5138,E,44.3,270.0,000070,,,A
2079$GPGGA,123427.826,-3006.4446,N,-5146.5348,E,1,08,0.8,46.1,M,,,
2080$GPRMC,123427.826,A,-3006.4446,N,-5146.5348,E,44.3,270.0,000070,,,A
2081$GPGGA,123430.125,-3006.4446,N,-5146.5552,E,1,08,0.8,46.1,M,,,
2082$GPRMC,123430.125,A,-3006.4446,N,-5146.5552,E,44.3,270.0,000070,,,A
2083$GPGGA,123432.425,-3006.4446,N,-5146.5756,E,1,08,0.8,46.1,M,,,
2084$GPRMC,123432.425,A,-3006.4446,N,-5146.5756,E,44.3,270.0,000070,,,A
2085$GPGGA,123434.792,-3006.4446,N,-5146.5966,E,1,08,0.8,46.1,M,,,
2086$GPRMC,123434.792,A,-3006.4446,N,-5146.5966,E,44.3,270.0,000070,,,A
2087$GPGGA,123437.092,-3006.4446,N,-5146.6170,E,1,08,0.8,46.1,M,,,
2088$GPRMC,123437.092,A,-3006.4446,N,-5146.6170,E,44.3,270.0,000070,,,A
2089$GPGGA,123439.391,-3006.4446,N,-5146.6374,E,1,08,0.8,46.1,M,,,
2090$GPRMC,123439.391,A,-3006.4446,N,-5146.6374,E,44.3,270.0,000070,,,A
2091$GPGGA,123441.691,-3006.4446,N,-5146.6578,E,1,08,0.8,46.1,M,,,
2092$GPRMC,123441.691,A,-3006.4446,N,-5146.6578,E,44.3,270.0,000070,,,A
2093$GPGGA,123444.058,-3006.4446,N,-5146.6788,E,1,08,0.8,46.1,M,,,
2094$GPRMC,123444.058,A,-3006.4446,N,-5146.6788,E,44.3,270.0,000070,,,A
2095$GPGGA,123446.357,-3006.4446,N,-5146.6992,E,1,08,0.8,46.1,M,,,
2096$GPRMC,123446.357,A,-3006.4446,N,-5146.6992,E,44.3,270.0,000070,,,A
2097$GPGGA,123448.657,-3006.4446,N,-5146.7196,E,1,08,0.8,46.1,M,,,
2098$GPRMC,123448.657,A,-3006.4446,N,-5146.7196,E,44.3,270.0,000070,,,A
2099$GPGGA,123451.024,-3006.4446,N,-5146.7406,E,1,08,0.8,46.1,M,,,
2100$GPRMC,123451.024,A,-3006.4446,N,-5146.7406,E,44.3,270.0,000070,,,A
2101$GPGGA,123453.323,-3006.4446,N,-5146.7610,E,1,08,0.8,46.1,M,,,
2102$GPRMC,123453.323,A,-3006.4446,N,-5146.7610,E,44.3,270.0,000070,,,A
2103$GPGGA,123455.623,-3006.4446,N,-5146.7814,E,1,08,0.8,46.1,M,,,
2104$GPRMC,123455.623,A,-3006.4446,N,-5146.7814,E,44.3,271.0,000070,,,A
2105$GPGGA,123457.924,-3006.4440,N,-5146.8018,E,1,08,0.8,46.1,M,,,
2106$GPRMC,123457.924,A,-3006.4440,N,-5146.8018,E,44.3,273.0,000070,,,A
2107$GPGGA,123500.295,-3006.4428,N,-5146.8228,E,1,08,0.8,46.1,M,,,
2108$GPRMC,123500.295,A,-3006.4428,N,-5146.8228,E,44.3,274.0,000070,,,A
2109$GPGGA,123502.598,-3006.4416,N,-5146.8432,E,1,08,0.8,46.1,M,,,
2110$GPRMC,123502.598,A,-3006.4416,N,-5146.8432,E,44.3,274.0,000070,,,A
2111$GPGGA,123504.902,-3006.4404,N,-5146.8636,E,1,08,0.8,46.1,M,,,
2112$GPRMC,123504.902,A,-3006.4404,N,-5146.8636,E,44.3,275.0,000070,,,A
2113$GPGGA,123507.210,-3006.4386,N,-5146.8840,E,1,08,0.8,46.1,M,,,
2114$GPRMC,123507.210,A,-3006.4386,N,-5146.8840,E,44.3,275.0,000070,,,A
2115$GPGGA,123509.581,-3006.4374,N,-5146.9050,E,1,08,0.8,46.1,M,,,
2116$GPRMC,123509.581,A,-3006.4374,N,-5146.9050,E,44.3,274.0,000070,,,A
2117$GPGGA,123511.884,-3006.4362,N,-5146.9254,E,1,08,0.8,46.1,M,,,
2118$GPRMC,123511.884,A,-3006.4362,N,-5146.9254,E,44.3,274.0,000070,,,A
2119$GPGGA,123514.188,-3006.4350,N,-5146.9458,E,1,08,0.8,46.1,M,,,
2120$GPRMC,123514.188,A,-3006.4350,N,-5146.9458,E,44.3,274.0,000070,,,A
2121$GPGGA,123516.491,-3006.4338,N,-5146.9662,E,1,08,0.8,46.1,M,,,
2122$GPRMC,123516.491,A,-3006.4338,N,-5146.9662,E,44.3,274.0,000070,,,A
2123$GPGGA,123518.862,-3006.4326,N,-5146.9872,E,1,08,0.8,46.1,M,,,
2124$GPRMC,123518.862,A,-3006.4326,N,-5146.9872,E,44.3,274.0,000070,,,A
2125$GPGGA,123521.166,-3006.4314,N,-5147.0076,E,1,08,0.8,46.1,M,,,
2126$GPRMC,123521.166,A,-3006.4314,N,-5147.0076,E,44.3,274.0,000070,,,A
2127$GPGGA,123523.469,-3006.4302,N,-5147.0280,E,1,08,0.8,46.1,M,,,
2128$GPRMC,123523.469,A,-3006.4302,N,-5147.0280,E,44.3,274.0,000070,,,A
2129$GPGGA,123525.773,-3006.4290,N,-5147.0484,E,1,08,0.8,46.1,M,,,
2130$GPRMC,123525.773,A,-3006.4290,N,-5147.0484,E,44.3,275.0,000070,,,A
2131$GPGGA,123528.149,-3006.4272,N,-5147.0694,E,1,08,0.8,46.1,M,,,
2132$GPRMC,123528.149,A,-3006.4272,N,-5147.0694,E,44.3,275.0,000070,,,A
2133$GPGGA,123530.452,-3006.4260,N,-5147.0898,E,1,08,0.8,46.1,M,,,
2134$GPRMC,123530.452,A,-3006.4260,N,-5147.0898,E,44.3,274.0,000070,,,A
2135$GPGGA,123532.756,-3006.4248,N,-5147.1102,E,1,08,0.8,46.1,M,,,
2136$GPRMC,123532.756,A,-3006.4248,N,-5147.1102,E,44.3,276.0,000070,,,A
2137$GPGGA,123535.071,-3006.4224,N,-5147.1306,E,1,08,0.8,46.1,M,,,
2138$GPRMC,123535.071,A,-3006.4224,N,-5147.1306,E,44.3,280.0,000070,,,A
2139$GPGGA,123537.406,-3006.4188,N,-5147.1510,E,1,08,0.8,46.1,M,,,
2140$GPRMC,123537.406,A,-3006.4188,N,-5147.1510,E,44.3,282.0,000070,,,A
2141$GPGGA,123539.675,-3006.4152,N,-5147.1708,E,1,08,0.8,46.1,M,,,
2142$GPRMC,123539.675,A,-3006.4152,N,-5147.1708,E,44.3,281.0,000070,,,A
2143$GPGGA,123541.999,-3006.4122,N,-5147.1912,E,1,08,0.8,46.1,M,,,
2144$GPRMC,123541.999,A,-3006.4122,N,-5147.1912,E,44.3,281.0,000070,,,A
2145$GPGGA,123544.334,-3006.4086,N,-5147.2116,E,1,08,0.8,46.1,M,,,
2146$GPRMC,123544.334,A,-3006.4086,N,-5147.2116,E,44.3,282.0,000070,,,A
2147$GPGGA,123546.602,-3006.4050,N,-5147.2314,E,1,08,0.8,46.1,M,,,
2148$GPRMC,123546.602,A,-3006.4050,N,-5147.2314,E,44.3,281.0,000070,,,A
2149$GPGGA,123548.927,-3006.4020,N,-5147.2518,E,1,08,0.8,46.1,M,,,
2150$GPRMC,123548.927,A,-3006.4020,N,-5147.2518,E,44.3,281.0,000070,,,A
2151$GPGGA,123551.262,-3006.3984,N,-5147.2722,E,1,08,0.8,46.1,M,,,
2152$GPRMC,123551.262,A,-3006.3984,N,-5147.2722,E,44.3,282.0,000070,,,A
2153$GPGGA,123553.530,-3006.3948,N,-5147.2920,E,1,08,0.8,46.1,M,,,
2154$GPRMC,123553.530,A,-3006.3948,N,-5147.2920,E,44.3,281.0,000070,,,A
2155$GPGGA,123555.854,-3006.3918,N,-5147.3124,E,1,08,0.8,46.1,M,,,
2156$GPRMC,123555.854,A,-3006.3918,N,-5147.3124,E,44.3,281.0,000070,,,A
2157$GPGGA,123558.123,-3006.3882,N,-5147.3322,E,1,08,0.8,46.1,M,,,
2158$GPRMC,123558.123,A,-3006.3882,N,-5147.3322,E,44.3,281.0,000070,,,A
2159$GPGGA,123600.447,-3006.3852,N,-5147.3526,E,1,08,0.8,46.1,M,,,
2160$GPRMC,123600.447,A,-3006.3852,N,-5147.3526,E,44.3,276.0,000070,,,A
2161$GPGGA,123602.748,-3006.3846,N,-5147.3730,E,1,08,0.8,46.1,M,,,
2162$GPRMC,123602.748,A,-3006.3846,N,-5147.3730,E,44.3,263.0,000070,,,A
2163$GPGGA,123605.044,-3006.3894,N,-5147.3928,E,1,08,0.8,46.1,M,,,
2164$GPRMC,123605.044,A,-3006.3894,N,-5147.3928,E,44.3,255.0,000070,,,A
2165$GPGGA,123607.326,-3006.3936,N,-5147.4126,E,1,08,0.8,46.1,M,,,
2166$GPRMC,123607.326,A,-3006.3936,N,-5147.4126,E,44.3,255.0,000070,,,A
2167$GPGGA,123609.622,-3006.3984,N,-5147.4324,E,1,08,0.8,46.1,M,,,
2168$GPRMC,123609.622,A,-3006.3984,N,-5147.4324,E,44.3,254.0,000070,,,A
2169$GPGGA,123611.919,-3006.4032,N,-5147.4522,E,1,08,0.8,46.1,M,,,
2170$GPRMC,123611.919,A,-3006.4032,N,-5147.4522,E,44.3,255.0,000070,,,A
2171$GPGGA,123614.200,-3006.4074,N,-5147.4720,E,1,08,0.8,46.1,M,,,
2172$GPRMC,123614.200,A,-3006.4074,N,-5147.4720,E,44.3,255.0,000070,,,A
2173$GPGGA,123616.497,-3006.4122,N,-5147.4918,E,1,08,0.8,46.1,M,,,
2174$GPRMC,123616.497,A,-3006.4122,N,-5147.4918,E,44.3,255.0,000070,,,A
2175$GPGGA,123618.778,-3006.4164,N,-5147.5116,E,1,08,0.8,46.1,M,,,
2176$GPRMC,123618.778,A,-3006.4164,N,-5147.5116,E,44.3,255.0,000070,,,A
2177$GPGGA,123621.075,-3006.4212,N,-5147.5314,E,1,08,0.8,46.1,M,,,
2178$GPRMC,123621.075,A,-3006.4212,N,-5147.5314,E,44.3,254.0,000070,,,A
2179$GPGGA,123623.371,-3006.4260,N,-5147.5512,E,1,08,0.8,46.1,M,,,
2180$GPRMC,123623.371,A,-3006.4260,N,-5147.5512,E,44.3,255.0,000070,,,A
2181$GPGGA,123625.653,-3006.4302,N,-5147.5710,E,1,08,0.8,46.1,M,,,
2182$GPRMC,123625.653,A,-3006.4302,N,-5147.5710,E,44.3,255.0,000070,,,A
2183$GPGGA,123627.950,-3006.4350,N,-5147.5908,E,1,08,0.8,46.1,M,,,
2184$GPRMC,123627.950,A,-3006.4350,N,-5147.5908,E,44.3,254.0,000070,,,A
2185$GPGGA,123630.246,-3006.4398,N,-5147.6106,E,1,08,0.8,46.1,M,,,
2186$GPRMC,123630.246,A,-3006.4398,N,-5147.6106,E,44.3,255.0,000070,,,A
2187$GPGGA,123632.528,-3006.4440,N,-5147.6304,E,1,08,0.8,46.1,M,,,
2188$GPRMC,123632.528,A,-3006.4440,N,-5147.6304,E,44.3,255.0,000070,,,A
2189$GPGGA,123634.890,-3006.4488,N,-5147.6508,E,1,08,0.8,46.1,M,,,
2190$GPRMC,123634.890,A,-3006.4488,N,-5147.6508,E,44.3,255.0,000070,,,A
2191$GPGGA,123637.171,-3006.4530,N,-5147.6706,E,1,08,0.8,46.1,M,,,
2192$GPRMC,123637.171,A,-3006.4530,N,-5147.6706,E,44.3,255.0,000070,,,A
2193$GPGGA,123639.468,-3006.4578,N,-5147.6904,E,1,08,0.8,46.1,M,,,
2194$GPRMC,123639.468,A,-3006.4578,N,-5147.6904,E,44.3,255.0,000070,,,A
2195$GPGGA,123641.750,-3006.4620,N,-5147.7102,E,1,08,0.8,46.1,M,,,
2196$GPRMC,123641.750,A,-3006.4620,N,-5147.7102,E,44.3,255.0,000070,,,A
2197$GPGGA,123644.046,-3006.4668,N,-5147.7300,E,1,08,0.8,46.1,M,,,
2198$GPRMC,123644.046,A,-3006.4668,N,-5147.7300,E,44.3,254.0,000070,,,A
2199$GPGGA,123646.343,-3006.4716,N,-5147.7498,E,1,08,0.8,46.1,M,,,
2200$GPRMC,123646.343,A,-3006.4716,N,-5147.7498,E,44.3,255.0,000070,,,A
2201$GPGGA,123648.624,-3006.4758,N,-5147.7696,E,1,08,0.8,46.1,M,,,
2202$GPRMC,123648.624,A,-3006.4758,N,-5147.7696,E,44.3,255.0,000070,,,A
2203$GPGGA,123650.921,-3006.4806,N,-5147.7894,E,1,08,0.8,46.1,M,,,
2204$GPRMC,123650.921,A,-3006.4806,N,-5147.7894,E,44.3,254.0,000070,,,A
2205$GPGGA,123653.217,-3006.4854,N,-5147.8092,E,1,08,0.8,46.1,M,,,
2206$GPRMC,123653.217,A,-3006.4854,N,-5147.8092,E,44.3,255.0,000070,,,A
2207$GPGGA,123655.499,-3006.4896,N,-5147.8290,E,1,08,0.8,46.1,M,,,
2208$GPRMC,123655.499,A,-3006.4896,N,-5147.8290,E,44.3,255.0,000070,,,A
2209$GPGGA,123657.795,-3006.4944,N,-5147.8488,E,1,08,0.8,46.1,M,,,
2210$GPRMC,123657.795,A,-3006.4944,N,-5147.8488,E,44.3,254.0,000070,,,A
2211$GPGGA,123700.092,-3006.4992,N,-5147.8686,E,1,08,0.8,46.1,M,,,
2212$GPRMC,123700.092,A,-3006.4992,N,-5147.8686,E,44.3,255.0,000070,,,A
2213$GPGGA,123702.373,-3006.5034,N,-5147.8884,E,1,08,0.8,46.1,M,,,
2214$GPRMC,123702.373,A,-3006.5034,N,-5147.8884,E,44.3,257.0,000070,,,A
2215$GPGGA,123704.708,-3006.5070,N,-5147.9088,E,1,08,0.8,46.1,M,,,
2216$GPRMC,123704.708,A,-3006.5070,N,-5147.9088,E,44.3,260.0,000070,,,A
2217$GPGGA,123707.024,-3006.5094,N,-5147.9292,E,1,08,0.8,46.1,M,,,
2218$GPRMC,123707.024,A,-3006.5094,N,-5147.9292,E,44.3,262.0,000070,,,A
2219$GPGGA,123709.339,-3006.5118,N,-5147.9496,E,1,08,0.8,46.1,M,,,
2220$GPRMC,123709.339,A,-3006.5118,N,-5147.9496,E,44.3,262.0,000070,,,A
2221$GPGGA,123711.655,-3006.5142,N,-5147.9700,E,1,08,0.8,46.1,M,,,
2222$GPRMC,123711.655,A,-3006.5142,N,-5147.9700,E,44.3,262.0,000070,,,A
2223$GPGGA,123713.970,-3006.5166,N,-5147.9904,E,1,08,0.8,46.1,M,,,
2224$GPRMC,123713.970,A,-3006.5166,N,-5147.9904,E,44.3,262.0,000070,,,A
2225$GPGGA,123716.285,-3006.5190,N,-5148.0108,E,1,08,0.8,46.1,M,,,
2226$GPRMC,123716.285,A,-3006.5190,N,-5148.0108,E,44.3,262.0,000070,,,A
2227$GPGGA,123718.601,-3006.5214,N,-5148.0312,E,1,08,0.8,46.1,M,,,
2228$GPRMC,123718.601,A,-3006.5214,N,-5148.0312,E,44.3,262.0,000070,,,A
2229$GPGGA,123720.916,-3006.5238,N,-5148.0516,E,1,08,0.8,46.1,M,,,
2230$GPRMC,123720.916,A,-3006.5238,N,-5148.0516,E,44.3,261.0,000070,,,A
2231$GPGGA,123723.240,-3006.5268,N,-5148.0720,E,1,08,0.8,46.1,M,,,
2232$GPRMC,123723.240,A,-3006.5268,N,-5148.0720,E,44.3,261.0,000070,,,A
2233$GPGGA,123725.556,-3006.5292,N,-5148.0924,E,1,08,0.8,46.1,M,,,
2234$GPRMC,123725.556,A,-3006.5292,N,-5148.0924,E,44.3,262.0,000070,,,A
2235$GPGGA,123727.871,-3006.5316,N,-5148.1128,E,1,08,0.8,46.1,M,,,
2236$GPRMC,123727.871,A,-3006.5316,N,-5148.1128,E,44.3,262.0,000070,,,A
2237$GPGGA,123730.186,-3006.5340,N,-5148.1332,E,1,08,0.8,46.1,M,,,
2238$GPRMC,123730.186,A,-3006.5340,N,-5148.1332,E,44.3,262.0,000070,,,A
2239$GPGGA,123732.502,-3006.5364,N,-5148.1536,E,1,08,0.8,46.1,M,,,
2240$GPRMC,123732.502,A,-3006.5364,N,-5148.1536,E,44.3,262.0,000070,,,A
2241$GPGGA,123734.817,-3006.5388,N,-5148.1740,E,1,08,0.8,46.1,M,,,
2242$GPRMC,123734.817,A,-3006.5388,N,-5148.1740,E,44.3,262.0,000070,,,A
2243$GPGGA,123737.133,-3006.5412,N,-5148.1944,E,1,08,0.8,46.1,M,,,
2244$GPRMC,123737.133,A,-3006.5412,N,-5148.1944,E,44.3,262.0,000070,,,A
2245$GPGGA,123739.448,-3006.5436,N,-5148.2148,E,1,08,0.8,46.1,M,,,
2246$GPRMC,123739.448,A,-3006.5436,N,-5148.2148,E,44.3,262.0,000070,,,A
2247$GPGGA,123741.763,-3006.5460,N,-5148.2352,E,1,08,0.8,46.1,M,,,
2248$GPRMC,123741.763,A,-3006.5460,N,-5148.2352,E,44.3,261.0,000070,,,A
2249$GPGGA,123744.088,-3006.5490,N,-5148.2556,E,1,08,0.8,46.1,M,,,
2250$GPRMC,123744.088,A,-3006.5490,N,-5148.2556,E,44.3,258.0,000070,,,A
2251$GPGGA,123746.369,-3006.5532,N,-5148.2754,E,1,08,0.8,46.1,M,,,
2252$GPRMC,123746.369,A,-3006.5532,N,-5148.2754,E,44.3,256.0,000070,,,A
2253$GPGGA,123748.651,-3006.5574,N,-5148.2952,E,1,08,0.8,46.1,M,,,
2254$GPRMC,123748.651,A,-3006.5574,N,-5148.2952,E,44.3,256.0,000070,,,A
2255$GPGGA,123750.932,-3006.5616,N,-5148.3150,E,1,08,0.8,46.1,M,,,
2256$GPRMC,123750.932,A,-3006.5616,N,-5148.3150,E,44.3,256.0,000070,,,A
2257$GPGGA,123753.280,-3006.5658,N,-5148.3354,E,1,08,0.8,46.1,M,,,
2258$GPRMC,123753.280,A,-3006.5658,N,-5148.3354,E,44.3,256.0,000070,,,A
2259$GPGGA,123755.561,-3006.5700,N,-5148.3552,E,1,08,0.8,46.1,M,,,
2260$GPRMC,123755.561,A,-3006.5700,N,-5148.3552,E,44.3,256.0,000070,,,A
2261$GPGGA,123757.843,-3006.5742,N,-5148.3750,E,1,08,0.8,46.1,M,,,
2262$GPRMC,123757.843,A,-3006.5742,N,-5148.3750,E,44.3,255.0,000070,,,A
2263$GPGGA,123800.205,-3006.5790,N,-5148.3954,E,1,08,0.8,46.1,M,,,
2264$GPRMC,123800.205,A,-3006.5790,N,-5148.3954,E,44.3,255.0,000070,,,A
2265$GPGGA,123802.487,-3006.5832,N,-5148.4152,E,1,08,0.8,46.1,M,,,
2266$GPRMC,123802.487,A,-3006.5832,N,-5148.4152,E,44.3,256.0,000070,,,A
2267$GPGGA,123804.768,-3006.5874,N,-5148.4350,E,1,08,0.8,46.1,M,,,
2268$GPRMC,123804.768,A,-3006.5874,N,-5148.4350,E,44.3,256.0,000070,,,A
2269$GPGGA,123807.050,-3006.5916,N,-5148.4548,E,1,08,0.8,46.1,M,,,
2270$GPRMC,123807.050,A,-3006.5916,N,-5148.4548,E,44.3,256.0,000070,,,A
2271$GPGGA,123809.398,-3006.5958,N,-5148.4752,E,1,08,0.8,46.1,M,,,
2272$GPRMC,123809.398,A,-3006.5958,N,-5148.4752,E,44.3,256.0,000070,,,A
2273$GPGGA,123811.679,-3006.6000,N,-5148.4950,E,1,08,0.8,46.1,M,,,
2274$GPRMC,123811.679,A,-3006.6000,N,-5148.4950,E,44.3,256.0,000070,,,A
2275$GPGGA,123813.961,-3006.6042,N,-5148.5148,E,1,08,0.8,46.1,M,,,
2276$GPRMC,123813.961,A,-3006.6042,N,-5148.5148,E,44.3,256.0,000070,,,A
2277$GPGGA,123816.242,-3006.6084,N,-5148.5346,E,1,08,0.8,46.1,M,,,
2278$GPRMC,123816.242,A,-3006.6084,N,-5148.5346,E,44.3,255.0,000070,,,A
2279$GPGGA,123818.605,-3006.6132,N,-5148.5550,E,1,08,0.8,46.1,M,,,
2280$GPRMC,123818.605,A,-3006.6132,N,-5148.5550,E,44.3,254.0,000070,,,A
2281$GPGGA,123820.901,-3006.6180,N,-5148.5748,E,1,08,0.8,46.1,M,,,
2282$GPRMC,123820.901,A,-3006.6180,N,-5148.5748,E,44.3,254.0,000070,,,A
2283$GPGGA,123823.198,-3006.6228,N,-5148.5946,E,1,08,0.8,46.1,M,,,
2284$GPRMC,123823.198,A,-3006.6228,N,-5148.5946,E,44.3,254.0,000070,,,A
2285$GPGGA,123825.494,-3006.6276,N,-5148.6144,E,1,08,0.8,46.1,M,,,
2286$GPRMC,123825.494,A,-3006.6276,N,-5148.6144,E,44.3,254.0,000070,,,A
2287$GPGGA,123827.791,-3006.6324,N,-5148.6342,E,1,08,0.8,46.1,M,,,
2288$GPRMC,123827.791,A,-3006.6324,N,-5148.6342,E,44.3,254.0,000070,,,A
2289$GPGGA,123830.087,-3006.6372,N,-5148.6540,E,1,08,0.8,46.1,M,,,
2290$GPRMC,123830.087,A,-3006.6372,N,-5148.6540,E,44.3,254.0,000070,,,A
2291$GPGGA,123832.384,-3006.6420,N,-5148.6738,E,1,08,0.8,46.1,M,,,
2292$GPRMC,123832.384,A,-3006.6420,N,-5148.6738,E,44.3,254.0,000070,,,A
2293$GPGGA,123834.680,-3006.6468,N,-5148.6936,E,1,08,0.8,46.1,M,,,
2294$GPRMC,123834.680,A,-3006.6468,N,-5148.6936,E,44.3,254.0,000070,,,A
2295$GPGGA,123836.977,-3006.6516,N,-5148.7134,E,1,08,0.8,46.1,M,,,
2296$GPRMC,123836.977,A,-3006.6516,N,-5148.7134,E,44.3,254.0,000070,,,A
2297$GPGGA,123839.273,-3006.6564,N,-5148.7332,E,1,08,0.8,46.1,M,,,
2298$GPRMC,123839.273,A,-3006.6564,N,-5148.7332,E,44.3,254.0,000070,,,A
2299$GPGGA,123841.570,-3006.6612,N,-5148.7530,E,1,08,0.8,46.1,M,,,
2300$GPRMC,123841.570,A,-3006.6612,N,-5148.7530,E,44.3,254.0,000070,,,A
2301$GPGGA,123843.867,-3006.6660,N,-5148.7728,E,1,08,0.8,46.1,M,,,
2302$GPRMC,123843.867,A,-3006.6660,N,-5148.7728,E,44.3,254.0,000070,,,A
2303$GPGGA,123846.163,-3006.6708,N,-5148.7926,E,1,08,0.8,46.1,M,,,
2304$GPRMC,123846.163,A,-3006.6708,N,-5148.7926,E,44.3,254.0,000070,,,A
2305$GPGGA,123848.460,-3006.6756,N,-5148.8124,E,1,08,0.8,46.1,M,,,
2306$GPRMC,123848.460,A,-3006.6756,N,-5148.8124,E,44.3,254.0,000070,,,A
2307$GPGGA,123850.756,-3006.6804,N,-5148.8322,E,1,08,0.8,46.1,M,,,
2308$GPRMC,123850.756,A,-3006.6804,N,-5148.8322,E,44.3,254.0,000070,,,A
2309$GPGGA,123853.053,-3006.6852,N,-5148.8520,E,1,08,0.8,46.1,M,,,
2310$GPRMC,123853.053,A,-3006.6852,N,-5148.8520,E,44.3,254.0,000070,,,A
2311$GPGGA,123855.349,-3006.6900,N,-5148.8718,E,1,08,0.8,46.1,M,,,
2312$GPRMC,123855.349,A,-3006.6900,N,-5148.8718,E,44.3,254.0,000070,,,A
2313$GPGGA,123857.646,-3006.6948,N,-5148.8916,E,1,08,0.8,46.1,M,,,
2314$GPRMC,123857.646,A,-3006.6948,N,-5148.8916,E,44.3,254.0,000070,,,A
2315$GPGGA,123859.942,-3006.6996,N,-5148.9114,E,1,08,0.8,46.1,M,,,
2316$GPRMC,123859.942,A,-3006.6996,N,-5148.9114,E,44.3,254.0,000070,,,A
2317$GPGGA,123902.239,-3006.7044,N,-5148.9312,E,1,08,0.8,46.1,M,,,
2318$GPRMC,123902.239,A,-3006.7044,N,-5148.9312,E,44.3,254.0,000070,,,A
2319$GPGGA,123904.535,-3006.7092,N,-5148.9510,E,1,08,0.8,46.1,M,,,
2320$GPRMC,123904.535,A,-3006.7092,N,-5148.9510,E,44.3,254.0,000070,,,A
2321$GPGGA,123906.832,-3006.7140,N,-5148.9708,E,1,08,0.8,46.1,M,,,
2322$GPRMC,123906.832,A,-3006.7140,N,-5148.9708,E,44.3,255.0,000070,,,A
2323$GPGGA,123909.113,-3006.7182,N,-5148.9906,E,1,08,0.8,46.1,M,,,
2324$GPRMC,123909.113,A,-3006.7182,N,-5148.9906,E,44.3,255.0,000070,,,A
2325$GPGGA,123911.410,-3006.7230,N,-5149.0104,E,1,08,0.8,46.1,M,,,
2326$GPRMC,123911.410,A,-3006.7230,N,-5149.0104,E,44.3,254.0,000070,,,A
2327$GPGGA,123913.706,-3006.7278,N,-5149.0302,E,1,08,0.8,46.1,M,,,
2328$GPRMC,123913.706,A,-3006.7278,N,-5149.0302,E,44.3,254.0,000070,,,A
2329$GPGGA,123916.003,-3006.7326,N,-5149.0500,E,1,08,0.8,46.1,M,,,
2330$GPRMC,123916.003,A,-3006.7326,N,-5149.0500,E,44.3,259.0,000070,,,A
2331$GPGGA,123918.379,-3006.7344,N,-5149.0710,E,1,08,0.8,46.1,M,,,
2332$GPRMC,123918.379,A,-3006.7344,N,-5149.0710,E,44.3,265.0,000070,,,A
2333$GPGGA,123920.682,-3006.7356,N,-5149.0914,E,1,08,0.8,46.1,M,,,
2334$GPRMC,123920.682,A,-3006.7356,N,-5149.0914,E,44.3,265.0,000070,,,A
2335$GPGGA,123922.991,-3006.7374,N,-5149.1118,E,1,08,0.8,46.1,M,,,
2336$GPRMC,123922.991,A,-3006.7374,N,-5149.1118,E,44.3,264.0,000070,,,A
2337$GPGGA,123925.299,-3006.7392,N,-5149.1322,E,1,08,0.8,46.1,M,,,
2338$GPRMC,123925.299,A,-3006.7392,N,-5149.1322,E,44.3,265.0,000070,,,A
2339$GPGGA,123927.603,-3006.7404,N,-5149.1526,E,1,08,0.8,46.1,M,,,
2340$GPRMC,123927.603,A,-3006.7404,N,-5149.1526,E,44.3,265.0,000070,,,A
2341$GPGGA,123929.911,-3006.7422,N,-5149.1730,E,1,08,0.8,46.1,M,,,
2342$GPRMC,123929.911,A,-3006.7422,N,-5149.1730,E,44.3,265.0,000070,,,A
2343$GPGGA,123932.215,-3006.7434,N,-5149.1934,E,1,08,0.8,46.1,M,,,
2344$GPRMC,123932.215,A,-3006.7434,N,-5149.1934,E,44.3,265.0,000070,,,A
2345$GPGGA,123934.590,-3006.7452,N,-5149.2144,E,1,08,0.8,46.1,M,,,
2346$GPRMC,123934.590,A,-3006.7452,N,-5149.2144,E,44.3,264.0,000070,,,A
2347$GPGGA,123936.899,-3006.7470,N,-5149.2348,E,1,08,0.8,46.1,M,,,
2348$GPRMC,123936.899,A,-3006.7470,N,-5149.2348,E,44.3,265.0,000070,,,A
2349$GPGGA,123939.202,-3006.7482,N,-5149.2552,E,1,08,0.8,46.1,M,,,
2350$GPRMC,123939.202,A,-3006.7482,N,-5149.2552,E,44.3,265.0,000070,,,A
2351$GPGGA,123941.511,-3006.7500,N,-5149.2756,E,1,08,0.8,46.1,M,,,
2352$GPRMC,123941.511,A,-3006.7500,N,-5149.2756,E,44.3,265.0,000070,,,A
2353$GPGGA,123943.814,-3006.7512,N,-5149.2960,E,1,08,0.8,46.1,M,,,
2354$GPRMC,123943.814,A,-3006.7512,N,-5149.2960,E,44.3,265.0,000070,,,A
2355$GPGGA,123946.123,-3006.7530,N,-5149.3164,E,1,08,0.8,46.1,M,,,
2356$GPRMC,123946.123,A,-3006.7530,N,-5149.3164,E,44.3,265.0,000070,,,A
2357$GPGGA,123948.426,-3006.7542,N,-5149.3368,E,1,08,0.8,46.1,M,,,
2358$GPRMC,123948.426,A,-3006.7542,N,-5149.3368,E,44.3,266.0,000070,,,A
2359$GPGGA,123950.797,-3006.7554,N,-5149.3578,E,1,08,0.8,46.1,M,,,
2360$GPRMC,123950.797,A,-3006.7554,N,-5149.3578,E,44.3,266.0,000070,,,A
2361$GPGGA,123953.101,-3006.7566,N,-5149.3782,E,1,08,0.8,46.1,M,,,
2362$GPRMC,123953.101,A,-3006.7566,N,-5149.3782,E,44.3,266.0,000070,,,A
2363$GPGGA,123955.404,-3006.7578,N,-5149.3986,E,1,08,0.8,46.1,M,,,
2364$GPRMC,123955.404,A,-3006.7578,N,-5149.3986,E,44.3,266.0,000070,,,A
2365$GPGGA,123957.708,-3006.7590,N,-5149.4190,E,1,08,0.8,46.1,M,,,
2366$GPRMC,123957.708,A,-3006.7590,N,-5149.4190,E,44.3,266.0,000070,,,A
2367$GPGGA,124000.079,-3006.7602,N,-5149.4400,E,1,08,0.8,46.1,M,,,
2368$GPRMC,124000.079,A,-3006.7602,N,-5149.4400,E,44.3,266.0,000070,,,A
2369$GPGGA,124002.382,-3006.7614,N,-5149.4604,E,1,08,0.8,46.1,M,,,
2370$GPRMC,124002.382,A,-3006.7614,N,-5149.4604,E,44.3,266.0,000070,,,A
2371$GPGGA,124004.686,-3006.7626,N,-5149.4808,E,1,08,0.8,46.1,M,,,
2372$GPRMC,124004.686,A,-3006.7626,N,-5149.4808,E,44.3,266.0,000070,,,A
2373$GPGGA,124006.989,-3006.7638,N,-5149.5012,E,1,08,0.8,46.1,M,,,
2374$GPRMC,124006.989,A,-3006.7638,N,-5149.5012,E,44.3,266.0,000070,,,A
2375$GPGGA,124009.360,-3006.7650,N,-5149.5222,E,1,08,0.8,46.1,M,,,
2376$GPRMC,124009.360,A,-3006.7650,N,-5149.5222,E,44.3,266.0,000070,,,A
2377$GPGGA,124011.664,-3006.7662,N,-5149.5426,E,1,08,0.8,46.1,M,,,
2378$GPRMC,124011.664,A,-3006.7662,N,-5149.5426,E,44.3,266.0,000070,,,A
2379$GPGGA,124013.967,-3006.7674,N,-5149.5630,E,1,08,0.8,46.1,M,,,
2380$GPRMC,124013.967,A,-3006.7674,N,-5149.5630,E,44.3,266.0,000070,,,A
2381$GPGGA,124016.271,-3006.7686,N,-5149.5834,E,1,08,0.8,46.1,M,,,
2382$GPRMC,124016.271,A,-3006.7686,N,-5149.5834,E,44.3,266.0,000070,,,A
2383$GPGGA,124018.507,-3006.7698,N,-5149.6032,E,1,08,0.8,46.1,M,,,
2384$GPRMC,124018.507,A,-3006.7698,N,-5149.6032,E,42.7,266.0,000070,,,A
2385$GPGGA,124020.844,-3006.7710,N,-5149.6230,E,1,08,0.8,46.1,M,,,
2386$GPRMC,124020.844,A,-3006.7710,N,-5149.6230,E,40.5,266.0,000070,,,A
2387$GPGGA,124023.145,-3006.7722,N,-5149.6416,E,1,08,0.8,46.1,M,,,
2388$GPRMC,124023.145,A,-3006.7722,N,-5149.6416,E,40.5,267.0,000070,,,A
2389$GPGGA,124025.369,-3006.7728,N,-5149.6596,E,1,08,0.8,46.1,M,,,
2390$GPRMC,124025.369,A,-3006.7728,N,-5149.6596,E,38.9,266.0,000070,,,A
2391$GPGGA,124027.636,-3006.7746,N,-5149.6770,E,1,08,0.8,46.1,M,,,
2392$GPRMC,124027.636,A,-3006.7746,N,-5149.6770,E,36.7,262.0,000070,,,A
2393$GPGGA,124029.871,-3006.7770,N,-5149.6932,E,1,08,0.8,46.1,M,,,
2394$GPRMC,124029.871,A,-3006.7770,N,-5149.6932,E,34.6,260.0,000070,,,A
2395$GPGGA,124032.230,-3006.7794,N,-5149.7094,E,1,08,0.8,46.1,M,,,
2396$GPRMC,124032.230,A,-3006.7794,N,-5149.7094,E,34.6,260.0,000070,,,A
2397$GPGGA,124034.503,-3006.7818,N,-5149.7250,E,1,08,0.8,46.1,M,,,
2398$GPRMC,124034.503,A,-3006.7818,N,-5149.7250,E,32.9,260.0,000070,,,A
2399$GPGGA,124036.730,-3006.7842,N,-5149.7394,E,1,08,0.8,46.1,M,,,
2400$GPRMC,124036.730,A,-3006.7842,N,-5149.7394,E,30.8,259.0,000070,,,A
2401$GPGGA,124039.095,-3006.7866,N,-5149.7538,E,1,08,0.8,46.1,M,,,
2402$GPRMC,124039.095,A,-3006.7866,N,-5149.7538,E,30.8,260.0,000070,,,A
2403$GPGGA,124041.254,-3006.7884,N,-5149.7670,E,1,08,0.8,46.1,M,,,
2404$GPRMC,124041.254,A,-3006.7884,N,-5149.7670,E,29.2,260.0,000070,,,A
2405$GPGGA,124043.675,-3006.7908,N,-5149.7808,E,1,08,0.8,46.1,M,,,
2406$GPRMC,124043.675,A,-3006.7908,N,-5149.7808,E,29.2,260.0,000070,,,A
2407$GPGGA,124045.875,-3006.7926,N,-5149.7934,E,1,08,0.8,46.1,M,,,
2408$GPRMC,124045.875,A,-3006.7926,N,-5149.7934,E,27.0,261.0,000070,,,A
2409$GPGGA,124048.232,-3006.7944,N,-5149.8060,E,1,08,0.8,46.1,M,,,
2410$GPRMC,124048.232,A,-3006.7944,N,-5149.8060,E,27.0,260.0,000070,,,A
2411$GPGGA,124050.369,-3006.7962,N,-5149.8174,E,1,08,0.8,46.1,M,,,
2412$GPRMC,124050.369,A,-3006.7962,N,-5149.8174,E,24.8,259.0,000070,,,A
2413$GPGGA,124052.553,-3006.7980,N,-5149.8282,E,1,08,0.8,46.1,M,,,
2414$GPRMC,124052.553,A,-3006.7980,N,-5149.8282,E,23.2,259.0,000070,,,A
2415$GPGGA,124054.918,-3006.7998,N,-5149.8390,E,1,08,0.8,46.1,M,,,
2416$GPRMC,124054.918,A,-3006.7998,N,-5149.8390,E,21.1,260.0,000070,,,A
2417$GPGGA,124057.198,-3006.8010,N,-5149.8486,E,1,08,0.8,46.1,M,,,
2418$GPRMC,124057.198,A,-3006.8010,N,-5149.8486,E,21.1,259.0,000070,,,A
2419$GPGGA,124059.362,-3006.8028,N,-5149.8576,E,1,08,0.8,46.1,M,,,
2420$GPRMC,124059.362,A,-3006.8028,N,-5149.8576,E,19.4,259.0,000070,,,A
2421$GPGGA,124101.716,-3006.8040,N,-5149.8666,E,1,08,0.8,46.1,M,,,
2422$GPRMC,124101.716,A,-3006.8040,N,-5149.8666,E,17.3,261.0,000070,,,A
2423$GPGGA,124103.989,-3006.8052,N,-5149.8744,E,1,08,0.8,46.1,M,,,
2424$GPRMC,124103.989,A,-3006.8052,N,-5149.8744,E,17.3,259.0,000070,,,A
2425$GPGGA,124106.092,-3006.8064,N,-5149.8816,E,1,08,0.8,46.1,M,,,
2426$GPRMC,124106.092,A,-3006.8064,N,-5149.8816,E,15.1,259.0,000070,,,A
2427$GPGGA,124108.457,-3006.8076,N,-5149.8888,E,1,08,0.8,46.1,M,,,
2428$GPRMC,124108.457,A,-3006.8076,N,-5149.8888,E,13.5,261.0,000070,,,A
2429$GPGGA,124110.912,-3006.8082,N,-5149.8954,E,1,08,0.8,46.1,M,,,
2430$GPRMC,124110.912,A,-3006.8082,N,-5149.8954,E,13.5,261.0,000070,,,A
2431$GPGGA,124113.178,-3006.8094,N,-5149.9014,E,1,08,0.8,46.1,M,,,
2432$GPRMC,124113.178,A,-3006.8094,N,-5149.9014,E,13.5,259.0,000070,,,A
2433$GPGGA,124115.190,-3006.8100,N,-5149.9068,E,1,08,0.8,46.1,M,,,
2434$GPRMC,124115.190,A,-3006.8100,N,-5149.9068,E,11.3,258.0,000070,,,A
2435$GPGGA,124117.328,-3006.8112,N,-5149.9116,E,1,08,0.8,46.1,M,,,
2436$GPRMC,124117.328,A,-3006.8112,N,-5149.9116,E,9.7,257.0,000070,,,A
2437$GPGGA,124119.836,-3006.8118,N,-5149.9164,E,1,08,0.8,46.1,M,,,
2438$GPRMC,124119.836,A,-3006.8118,N,-5149.9164,E,7.6,261.0,000070,,,A
2439$GPGGA,124122.202,-3006.8124,N,-5149.9200,E,1,08,0.8,46.1,M,,,
2440$GPRMC,124122.202,A,-3006.8124,N,-5149.9200,E,7.6,260.0,000070,,,A
2441$GPGGA,124124.567,-3006.8130,N,-5149.9236,E,1,08,0.8,46.1,M,,,
2442$GPRMC,124124.567,A,-3006.8130,N,-5149.9236,E,7.6,262.0,000070,,,A
2443$GPGGA,124126.512,-3006.8130,N,-5149.9266,E,1,08,0.8,46.1,M,,,
2444$GPRMC,124126.512,A,-3006.8130,N,-5149.9266,E,5.4,261.0,000070,,,A
2445$GPGGA,124128.650,-3006.8136,N,-5149.9290,E,1,08,0.8,46.1,M,,,
2446$GPRMC,124128.650,A,-3006.8136,N,-5149.9290,E,3.8,262.0,000070,,,A
2447$GPGGA,124130.983,-3006.8136,N,-5149.9308,E,1,08,0.8,46.1,M,,,
2448$GPRMC,124130.983,A,-3006.8136,N,-5149.9308,E,3.8,261.0,000070,,,A
2449$GPGGA,124133.443,-3006.8142,N,-5149.9326,E,1,08,0.8,46.1,M,,,
2450$GPRMC,124133.443,A,-3006.8142,N,-5149.9326,E,3.8,262.0,000070,,,A
2451$GPGGA,124134.998,-3006.8142,N,-5149.9338,E,1,08,0.8,46.1,M,,,
2452$GPRMC,124134.998,A,-3006.8142,N,-5149.9338,E,1.6,256.0,000070,,,A
2453$GPGGA,124138.476,-3006.8148,N,-5149.9350,E,1,08,0.8,46.1,M,,,
2454$GPRMC,124138.476,A,-3006.8148,N,-5149.9350,E,1.6,257.0,000070,,,A
2455$GPGGA,124141.588,-3006.8148,N,-5149.9362,E,1,08,0.8,46.1,M,,,
2456$GPRMC,124141.588,A,-3006.8148,N,-5149.9362,E,1.6,261.0,000070,,,A
2457$GPGGA,124144.699,-3006.8148,N,-5149.9374,E,1,08,0.8,46.1,M,,,
2458$GPRMC,124144.699,A,-3006.8148,N,-5149.9374,E,1.6,256.0,000070,,,A
2459$GPGGA,124149.618,-3006.8154,N,-5149.9392,E,1,08,0.8,46.1,M,,,
2460$GPRMC,124149.618,A,-3006.8154,N,-5149.9392,E,1.6,260.0,000070,,,A
2461$GPGGA,124152.729,-3006.8154,N,-5149.9404,E,1,08,0.8,46.1,M,,,
2462$GPRMC,124152.729,A,-3006.8154,N,-5149.9404,E,1.6,260.0,000070,,,A
2463$GPGGA,124155.840,-3006.8154,N,-5149.9416,E,1,08,0.8,46.1,M,,,
2464$GPRMC,124155.840,A,-3006.8154,N,-5149.9416,E,1.6,265.0,000070,,,A
2465$GPGGA,124158.951,-3006.8154,N,-5149.9428,E,1,08,0.8,46.1,M,,,
2466$GPRMC,124158.951,A,-3006.8154,N,-5149.9428,E,1.6,265.0,000070,,,A
2467$GPGGA,124202.062,-3006.8154,N,-5149.9440,E,1,08,0.8,46.1,M,,,
2468$GPRMC,124202.062,A,-3006.8154,N,-5149.9440,E,1.6,265.0,000070,,,A
2469$GPGGA,124205.173,-3006.8154,N,-5149.9452,E,1,08,0.8,46.1,M,,,
2470$GPRMC,124205.173,A,-3006.8154,N,-5149.9452,E,1.6,265.0,000070,,,A
2471$GPGGA,124208.284,-3006.8154,N,-5149.9464,E,1,08,0.8,46.1,M,,,
2472$GPRMC,124208.284,A,-3006.8154,N,-5149.9464,E,1.6,265.0,000070,,,A
2473$GPGGA,124211.763,-3006.8160,N,-5149.9476,E,1,08,0.8,46.1,M,,,
2474$GPRMC,124211.763,A,-3006.8160,N,-5149.9476,E,1.6,265.0,000070,,,A
2475$GPGGA,124214.874,-3006.8160,N,-5149.9488,E,1,08,0.8,46.1,M,,,
2476$GPRMC,124214.874,A,-3006.8160,N,-5149.9488,E,1.6,265.0,000070,,,A
2477$GPGGA,124217.985,-3006.8160,N,-5149.9500,E,1,08,0.8,46.1,M,,,
2478$GPRMC,124217.985,A,-3006.8160,N,-5149.9500,E,1.6,265.0,000070,,,A
2479$GPGGA,124221.096,-3006.8160,N,-5149.9512,E,1,08,0.8,46.1,M,,,
2480$GPRMC,124221.096,A,-3006.8160,N,-5149.9512,E,1.6,265.0,000070,,,A
2481$GPGGA,124224.207,-3006.8160,N,-5149.9524,E,1,08,0.8,46.1,M,,,
2482$GPRMC,124224.207,A,-3006.8160,N,-5149.9524,E,1.6,265.0,000070,,,A
2483$GPGGA,124227.318,-3006.8160,N,-5149.9536,E,1,08,0.8,46.1,M,,,
2484$GPRMC,124227.318,A,-3006.8160,N,-5149.9536,E,1.6,265.0,000070,,,A
2485$GPGGA,124230.429,-3006.8160,N,-5149.9548,E,1,08,0.8,46.1,M,,,
2486$GPRMC,124230.429,A,-3006.8160,N,-5149.9548,E,1.6,265.0,000070,,,A
2487$GPGGA,124235.349,-3006.8166,N,-5149.9566,E,1,08,0.8,46.1,M,,,
2488$GPRMC,124235.349,A,-3006.8166,N,-5149.9566,E,1.6,265.0,000070,,,A
2489$GPGGA,124238.460,-3006.8166,N,-5149.9578,E,1,08,0.8,46.1,M,,,
2490$GPRMC,124238.460,A,-3006.8166,N,-5149.9578,E,1.6,265.0,000070,,,A
2491$GPGGA,124241.571,-3006.8166,N,-5149.9590,E,1,08,0.8,46.1,M,,,
2492$GPRMC,124241.571,A,-3006.8166,N,-5149.9590,E,1.6,265.0,000070,,,A
2493$GPGGA,124244.682,-3006.8166,N,-5149.9602,E,1,08,0.8,46.1,M,,,
2494$GPRMC,124244.682,A,-3006.8166,N,-5149.9602,E,1.6,265.0,000070,,,A
2495$GPGGA,124247.793,-3006.8166,N,-5149.9614,E,1,08,0.8,46.1,M,,,
2496$GPRMC,124247.793,A,-3006.8166,N,-5149.9614,E,1.6,265.0,000070,,,A
2497$GPGGA,124250.904,-3006.8166,N,-5149.9626,E,1,08,0.8,46.1,M,,,
2498$GPRMC,124250.904,A,-3006.8166,N,-5149.9626,E,1.6,265.0,000070,,,A
2499$GPGGA,124254.015,-3006.8166,N,-5149.9638,E,1,08,0.8,46.1,M,,,
2500$GPRMC,124254.015,A,-3006.8166,N,-5149.9638,E,1.6,265.0,000070,,,A
2501$GPGGA,124257.494,-3006.8172,N,-5149.9650,E,1,08,0.8,46.1,M,,,
2502$GPRMC,124257.494,A,-3006.8172,N,-5149.9650,E,1.6,265.0,000070,,,A
2503$GPGGA,124300.605,-3006.8172,N,-5149.9662,E,1,08,0.8,46.1,M,,,
2504$GPRMC,124300.605,A,-3006.8172,N,-5149.9662,E,1.6,265.0,000070,,,A
2505$GPGGA,124303.716,-3006.8172,N,-5149.9674,E,1,08,0.8,46.1,M,,,
2506$GPRMC,124303.716,A,-3006.8172,N,-5149.9674,E,1.6,265.0,000070,,,A
2507$GPGGA,124306.827,-3006.8172,N,-5149.9686,E,1,08,0.8,46.1,M,,,
2508$GPRMC,124306.827,A,-3006.8172,N,-5149.9686,E,1.6,265.0,000070,,,A
2509$GPGGA,124309.938,-3006.8172,N,-5149.9698,E,1,08,0.8,46.1,M,,,
2510$GPRMC,124309.938,A,-3006.8172,N,-5149.9698,E,1.6,265.0,000070,,,A
2511$GPGGA,124313.049,-3006.8172,N,-5149.9710,E,1,08,0.8,46.1,M,,,
2512$GPRMC,124313.049,A,-3006.8172,N,-5149.9710,E,1.6,265.0,000070,,,A
2513$GPGGA,124316.160,-3006.8172,N,-5149.9722,E,1,08,0.8,46.1,M,,,
2514$GPRMC,124316.160,A,-3006.8172,N,-5149.9722,E,1.6,265.0,000070,,,A
2515$GPGGA,124321.079,-3006.8178,N,-5149.9740,E,1,08,0.8,46.1,M,,,
2516$GPRMC,124321.079,A,-3006.8178,N,-5149.9740,E,1.6,265.0,000070,,,A
2517$GPGGA,124324.190,-3006.8178,N,-5149.9752,E,1,08,0.8,46.1,M,,,
2518$GPRMC,124324.190,A,-3006.8178,N,-5149.9752,E,1.6,265.0,000070,,,A
2519$GPGGA,124327.302,-3006.8178,N,-5149.9764,E,1,08,0.8,46.1,M,,,
2520$GPRMC,124327.302,A,-3006.8178,N,-5149.9764,E,1.6,265.0,000070,,,A
2521$GPGGA,124330.413,-3006.8178,N,-5149.9776,E,1,08,0.8,46.1,M,,,
2522$GPRMC,124330.413,A,-3006.8178,N,-5149.9776,E,1.6,265.0,000070,,,A
2523$GPGGA,124333.524,-3006.8178,N,-5149.9788,E,1,08,0.8,46.1,M,,,
2524$GPRMC,124333.524,A,-3006.8178,N,-5149.9788,E,1.6,265.0,000070,,,A
2525$GPGGA,124336.635,-3006.8178,N,-5149.9800,E,1,08,0.8,46.1,M,,,
2526$GPRMC,124336.635,A,-3006.8178,N,-5149.9800,E,1.6,265.0,000070,,,A
2527$GPGGA,124339.746,-3006.8178,N,-5149.9812,E,1,08,0.8,46.1,M,,,
2528$GPRMC,124339.746,A,-3006.8178,N,-5149.9812,E,1.6,265.0,000070,,,A
2529$GPGGA,124343.224,-3006.8184,N,-5149.9824,E,1,08,0.8,46.1,M,,,
2530$GPRMC,124343.224,A,-3006.8184,N,-5149.9824,E,1.6,265.0,000070,,,A
2531$GPGGA,124346.335,-3006.8184,N,-5149.9836,E,1,08,0.8,46.1,M,,,
2532$GPRMC,124346.335,A,-3006.8184,N,-5149.9836,E,1.6,265.0,000070,,,A
2533$GPGGA,124349.446,-3006.8184,N,-5149.9848,E,1,08,0.8,46.1,M,,,
2534$GPRMC,124349.446,A,-3006.8184,N,-5149.9848,E,1.6,265.0,000070,,,A
2535$GPGGA,124352.558,-3006.8184,N,-5149.9860,E,1,08,0.8,46.1,M,,,
2536$GPRMC,124352.558,A,-3006.8184,N,-5149.9860,E,1.6,265.0,000070,,,A
2537$GPGGA,124355.669,-3006.8184,N,-5149.9872,E,1,08,0.8,46.1,M,,,
2538$GPRMC,124355.669,A,-3006.8184,N,-5149.9872,E,1.6,265.0,000070,,,A
2539$GPGGA,124358.780,-3006.8184,N,-5149.9884,E,1,08,0.8,46.1,M,,,
2540$GPRMC,124358.780,A,-3006.8184,N,-5149.9884,E,1.6,265.0,000070,,,A
2541$GPGGA,124401.891,-3006.8184,N,-5149.9896,E,1,08,0.8,46.1,M,,,
2542$GPRMC,124401.891,A,-3006.8184,N,-5149.9896,E,1.6,265.0,000070,,,A
2543$GPGGA,124406.810,-3006.8190,N,-5149.9914,E,1,08,0.8,46.1,M,,,
2544$GPRMC,124406.810,A,-3006.8190,N,-5149.9914,E,1.6,265.0,000070,,,A
2545$GPGGA,124409.921,-3006.8190,N,-5149.9926,E,1,08,0.8,46.1,M,,,
2546$GPRMC,124409.921,A,-3006.8190,N,-5149.9926,E,1.6,265.0,000070,,,A
2547$GPGGA,124413.032,-3006.8190,N,-5149.9938,E,1,08,0.8,46.1,M,,,
2548$GPRMC,124413.032,A,-3006.8190,N,-5149.9938,E,1.6,265.0,000070,,,A
2549$GPGGA,124416.143,-3006.8190,N,-5149.9950,E,1,08,0.8,46.1,M,,,
2550$GPRMC,124416.143,A,-3006.8190,N,-5149.9950,E,1.6,265.0,000070,,,A
2551$GPGGA,124419.254,-3006.8190,N,-5149.9962,E,1,08,0.8,46.1,M,,,
2552$GPRMC,124419.254,A,-3006.8190,N,-5149.9962,E,1.6,265.0,000070,,,A
2553$GPGGA,124422.366,-3006.8190,N,-5149.9974,E,1,08,0.8,46.1,M,,,
2554$GPRMC,124422.366,A,-3006.8190,N,-5149.9974,E,1.6,265.0,000070,,,A
2555$GPGGA,124425.477,-3006.8190,N,-5149.9986,E,1,08,0.8,46.1,M,,,
2556$GPRMC,124425.477,A,-3006.8190,N,-5149.9986,E,1.6,265.0,000070,,,A
2557$GPGGA,124428.955,-3006.8196,N,-5149.9998,E,1,08,0.8,46.1,M,,,
2558$GPRMC,124428.955,A,-3006.8196,N,-5149.9998,E,1.6,265.0,000070,,,A
2559$GPGGA,124432.066,-3006.8196,N,-5150.0010,E,1,08,0.8,46.1,M,,,
2560$GPRMC,124432.066,A,-3006.8196,N,-5150.0010,E,1.6,265.0,000070,,,A
2561$GPGGA,124435.177,-3006.8196,N,-5150.0022,E,1,08,0.8,46.1,M,,,
2562$GPRMC,124435.177,A,-3006.8196,N,-5150.0022,E,1.6,265.0,000070,,,A
2563$GPGGA,124438.288,-3006.8196,N,-5150.0034,E,1,08,0.8,46.1,M,,,
2564$GPRMC,124438.288,A,-3006.8196,N,-5150.0034,E,1.6,265.0,000070,,,A
2565$GPGGA,124441.399,-3006.8196,N,-5150.0046,E,1,08,0.8,46.1,M,,,
2566$GPRMC,124441.399,A,-3006.8196,N,-5150.0046,E,1.6,265.0,000070,,,A
2567$GPGGA,124444.511,-3006.8196,N,-5150.0058,E,1,08,0.8,46.1,M,,,
2568$GPRMC,124444.511,A,-3006.8196,N,-5150.0058,E,1.6,265.0,000070,,,A
2569$GPGGA,124447.622,-3006.8196,N,-5150.0070,E,1,08,0.8,46.1,M,,,
2570$GPRMC,124447.622,A,-3006.8196,N,-5150.0070,E,1.6,265.0,000070,,,A
2571
2572
Note: See TracBrowser for help on using the repository browser.